PWSweather.com
Personal Weather Stations
Station Observations
WOODBURYWX
Lighthouse Rd, Woodbury, Woodbury, CT 06798

Lighthouse Rd, WoodburyWoodbury, CT 06798

Lat: 41.553333, Lon: -73.224167

Elevation: 437

Station Type: Ambient Weather WS-1090

Latest ConditionsUpdated 11:23:00 PM EDT Friday, Oct 24, 2014
Currently Today's Max Today's Min Today's Average
Temperature 50.5°F10.3°C 52.7°F11.5°C 45.9°F7.7°C 49.0°F9.4°C
Dew Point 44.3°F6.8°C 47.6°F8.7°C 44.1°F6.7°C 45.5°F7.5°C
Winds 2.4 mph S3.9 kmh S 6.1 mph NNW9.8 kmh NNW - 2.1 mph 3.4 kmh
Wind Gusts 6.4 mph10.3 kmh 10.5 mph16.9 kmh - -
Humidity 79% 99% 75% 88%
Pressure 29.82 in1009.8 mb 29.82 in1009.8 mb 29.73 in1006.8 mb -
Precipitation - 0.17 in4.3 mm - -
Hour Temp Dew Point Humidity Winds Wind Gusts Pressure Precip Precip Rate Daily Precip Total
11:23 PM 50.5°F10.3°C 44.3°F6.8°C 79% 2.4 mph S3.9 kmh S 6.4 mph10.3 kmh 29.82 in1009.8 mb 0.00 in0.0 mm 0.00 in/hr0.0 mm/hr 0.17 in4.3 mm
11:22 PM 50.5°F10.3°C 44.3°F6.8°C 79% 2.1 mph SSE3.4 kmh SSE 4.0 mph6.4 kmh 29.82 in1009.8 mb 0.00 in0.0 mm 0.00 in/hr0.0 mm/hr 0.17 in4.3 mm
11:20 PM 50.7°F10.4°C 44.8°F7.1°C 80% 2.2 mph S3.5 kmh S 4.0 mph6.4 kmh 29.82 in1009.8 mb 0.00 in0.0 mm 0.00 in/hr0.0 mm/hr 0.17 in4.3 mm
11:19 PM 50.2°F10.1°C 44.3°F6.8°C 80% 2.3 mph SW3.7 kmh SW 4.0 mph6.4 kmh 29.82 in1009.8 mb 0.00 in0.0 mm 0.00 in/hr0.0 mm/hr 0.17 in4.3 mm
11:18 PM 50.0°F10.0°C 44.1°F6.7°C 80% 2.2 mph SSW3.5 kmh SSW 4.0 mph6.4 kmh 29.82 in1009.8 mb 0.00 in0.0 mm 0.00 in/hr0.0 mm/hr 0.17 in4.3 mm
11:17 PM 50.0°F10.0°C 44.1°F6.7°C 80% 2.3 mph SSW3.7 kmh SSW 4.8 mph7.7 kmh 29.82 in1009.8 mb 0.00 in0.0 mm 0.00 in/hr0.0 mm/hr 0.17 in4.3 mm
11:16 PM 50.0°F10.0°C 44.1°F6.7°C 80% 2.5 mph SSW4.0 kmh SSW 4.8 mph7.7 kmh 29.82 in1009.8 mb 0.00 in0.0 mm 0.00 in/hr0.0 mm/hr 0.17 in4.3 mm
11:15 PM 50.0°F10.0°C 44.1°F6.7°C 80% 2.5 mph S4.0 kmh S 4.8 mph7.7 kmh 29.82 in1009.8 mb 0.00 in0.0 mm 0.00 in/hr0.0 mm/hr 0.17 in4.3 mm
11:14 PM 50.0°F10.0°C 44.1°F6.7°C 80% 2.2 mph S3.5 kmh S 4.8 mph7.7 kmh 29.81 in1009.5 mb 0.00 in0.0 mm 0.00 in/hr0.0 mm/hr 0.17 in4.3 mm
11:13 PM 50.0°F10.0°C 44.1°F6.7°C 80% 1.8 mph S2.9 kmh S 4.8 mph7.7 kmh 29.82 in1009.8 mb 0.00 in0.0 mm 0.00 in/hr0.0 mm/hr 0.17 in4.3 mm
11:12 PM 50.0°F10.0°C 44.1°F6.7°C 80% 1.7 mph S2.7 kmh S 4.8 mph7.7 kmh 29.81 in1009.5 mb 0.00 in0.0 mm 0.00 in/hr0.0 mm/hr 0.17 in4.3 mm
11:11 PM 50.0°F10.0°C 44.1°F6.7°C 80% 1.5 mph S2.4 kmh S 4.8 mph7.7 kmh 29.82 in1009.8 mb 0.00 in0.0 mm 0.00 in/hr0.0 mm/hr 0.17 in4.3 mm
11:10 PM 50.2°F10.1°C 44.3°F6.8°C 80% 1.4 mph SSE2.3 kmh SSE 4.8 mph7.7 kmh 29.82 in1009.8 mb 0.00 in0.0 mm 0.00 in/hr0.0 mm/hr 0.17 in4.3 mm
11:09 PM 50.4°F10.2°C 44.4°F6.9°C 80% 1.3 mph SE2.1 kmh SE 4.8 mph7.7 kmh 29.82 in1009.8 mb 0.00 in0.0 mm 0.00 in/hr0.0 mm/hr 0.17 in4.3 mm
11:08 PM 50.4°F10.2°C 44.4°F6.9°C 80% 1.5 mph ESE2.4 kmh ESE 4.8 mph7.7 kmh 29.82 in1009.8 mb 0.00 in0.0 mm 0.00 in/hr0.0 mm/hr 0.17 in4.3 mm
11:07 PM 50.2°F10.1°C 44.3°F6.8°C 80% 1.7 mph N2.7 kmh N 7.2 mph11.6 kmh 29.81 in1009.5 mb 0.00 in0.0 mm 0.00 in/hr0.0 mm/hr 0.17 in4.3 mm
11:06 PM 50.7°F10.4°C 44.8°F7.1°C 80% 1.4 mph N2.3 kmh N 7.2 mph11.6 kmh 29.81 in1009.5 mb 0.00 in0.0 mm 0.00 in/hr0.0 mm/hr 0.17 in4.3 mm
11:05 PM 50.5°F10.3°C 44.6°F7.0°C 80% 1.4 mph N2.3 kmh N 7.2 mph11.6 kmh 29.82 in1009.8 mb 0.00 in0.0 mm 0.00 in/hr0.0 mm/hr 0.17 in4.3 mm
11:04 PM 50.5°F10.3°C 44.6°F7.0°C 80% 1.7 mph N2.7 kmh N 7.2 mph11.6 kmh 29.81 in1009.5 mb 0.00 in0.0 mm 0.00 in/hr0.0 mm/hr 0.17 in4.3 mm
11:03 PM 50.5°F10.3°C 44.6°F7.0°C 80% 1.8 mph N2.9 kmh N 7.2 mph11.6 kmh 29.82 in1009.8 mb 0.00 in0.0 mm 0.00 in/hr0.0 mm/hr 0.17 in4.3 mm
11:02 PM 50.5°F10.3°C 44.6°F7.0°C 80% 2.0 mph N3.2 kmh N 7.2 mph11.6 kmh 29.82 in1009.8 mb 0.00 in0.0 mm 0.00 in/hr0.0 mm/hr 0.17 in4.3 mm
11:01 PM 50.5°F10.3°C 44.6°F7.0°C 80% 2.2 mph N3.5 kmh N 7.2 mph11.6 kmh 29.81 in1009.5 mb 0.00 in0.0 mm 0.00 in/hr0.0 mm/hr 0.17 in4.3 mm
11:00 PM 50.5°F10.3°C 44.6°F7.0°C 80% 2.4 mph N3.9 kmh N 7.2 mph11.6 kmh 29.82 in1009.8 mb 0.00 in0.0 mm 0.00 in/hr0.0 mm/hr 0.17 in4.3 mm
10:59 PM 50.4°F10.2°C 44.8°F7.1°C 81% 2.5 mph N4.0 kmh N 7.2 mph11.6 kmh 29.81 in1009.5 mb 0.00 in0.0 mm 0.00 in/hr0.0 mm/hr 0.17 in4.3 mm
10:58 PM 50.2°F10.1°C 44.6°F7.0°C 81% 2.7 mph NNW4.3 kmh NNW 7.2 mph11.6 kmh 29.81 in1009.5 mb 0.00 in0.0 mm 0.00 in/hr0.0 mm/hr 0.17 in4.3 mm
10:57 PM 50.2°F10.1°C 44.6°F7.0°C 81% 2.4 mph NW3.9 kmh NW 4.8 mph7.7 kmh 29.81 in1009.5 mb 0.00 in0.0 mm 0.00 in/hr0.0 mm/hr 0.17 in4.3 mm
10:56 PM 50.2°F10.1°C 44.6°F7.0°C 81% 2.3 mph SW3.7 kmh SW 4.8 mph7.7 kmh 29.81 in1009.5 mb 0.00 in0.0 mm 0.00 in/hr0.0 mm/hr 0.17 in4.3 mm
10:55 PM 50.2°F10.1°C 44.6°F7.0°C 81% 2.3 mph SW3.7 kmh SW 4.8 mph7.7 kmh 29.81 in1009.5 mb 0.00 in0.0 mm 0.00 in/hr0.0 mm/hr 0.17 in4.3 mm
10:54 PM 50.2°F10.1°C 44.6°F7.0°C 81% 2.3 mph WSW3.7 kmh WSW 4.8 mph7.7 kmh 29.81 in1009.5 mb 0.00 in0.0 mm 0.00 in/hr0.0 mm/hr 0.17 in4.3 mm
10:53 PM 50.2°F10.1°C 44.6°F7.0°C 81% 2.5 mph W4.0 kmh W 4.8 mph7.7 kmh 29.81 in1009.5 mb 0.00 in0.0 mm 0.00 in/hr0.0 mm/hr 0.17 in4.3 mm
10:52 PM 50.2°F10.1°C 44.9°F7.2°C 82% 2.7 mph NW4.3 kmh NW 4.8 mph7.7 kmh 29.81 in1009.5 mb 0.00 in0.0 mm 0.00 in/hr0.0 mm/hr 0.17 in4.3 mm
10:51 PM 50.2°F10.1°C 44.9°F7.2°C 82% 2.8 mph NW4.5 kmh NW 4.8 mph7.7 kmh 29.81 in1009.5 mb 0.00 in0.0 mm 0.00 in/hr0.0 mm/hr 0.17 in4.3 mm
10:50 PM 50.0°F10.0°C 44.7°F7.1°C 82% 2.8 mph NW4.5 kmh NW 4.8 mph7.7 kmh 29.81 in1009.5 mb 0.00 in0.0 mm 0.00 in/hr0.0 mm/hr 0.17 in4.3 mm
10:49 PM 50.0°F10.0°C 44.7°F7.1°C 82% 2.8 mph NNW4.5 kmh NNW 4.8 mph7.7 kmh 29.81 in1009.5 mb 0.00 in0.0 mm 0.00 in/hr0.0 mm/hr 0.17 in4.3 mm
10:48 PM 50.0°F10.0°C 44.7°F7.1°C 82% 2.5 mph NNW4.0 kmh NNW 4.8 mph7.7 kmh 29.81 in1009.5 mb 0.00 in0.0 mm 0.00 in/hr0.0 mm/hr 0.17 in4.3 mm
10:47 PM 50.0°F10.0°C 44.7°F7.1°C 82% 2.3 mph NW3.7 kmh NW 3.2 mph5.1 kmh 29.81 in1009.5 mb 0.00 in0.0 mm 0.00 in/hr0.0 mm/hr 0.17 in4.3 mm
10:46 PM 50.0°F10.0°C 44.7°F7.1°C 82% 2.3 mph NNW3.7 kmh NNW 3.2 mph5.1 kmh 29.81 in1009.5 mb 0.00 in0.0 mm 0.00 in/hr0.0 mm/hr 0.17 in4.3 mm
10:45 PM 50.2°F10.1°C 44.9°F7.2°C 82% 2.3 mph N3.7 kmh N 3.2 mph5.1 kmh 29.81 in1009.5 mb 0.00 in0.0 mm 0.00 in/hr0.0 mm/hr 0.17 in4.3 mm
10:44 PM 50.2°F10.1°C 44.9°F7.2°C 82% 2.3 mph N3.7 kmh N 3.2 mph5.1 kmh 29.81 in1009.5 mb 0.00 in0.0 mm 0.00 in/hr0.0 mm/hr 0.17 in4.3 mm
10:43 PM 50.4°F10.2°C 45.4°F7.4°C 83% 2.4 mph N3.9 kmh N 4.0 mph6.4 kmh 29.81 in1009.5 mb 0.00 in0.0 mm 0.00 in/hr0.0 mm/hr 0.17 in4.3 mm
10:42 PM 50.0°F10.0°C 45.0°F7.2°C 83% 2.3 mph N3.7 kmh N 4.0 mph6.4 kmh 29.81 in1009.5 mb 0.00 in0.0 mm 0.00 in/hr0.0 mm/hr 0.17 in4.3 mm
10:41 PM 50.0°F10.0°C 45.0°F7.2°C 83% 2.2 mph NW3.5 kmh NW 4.0 mph6.4 kmh 29.81 in1009.5 mb 0.00 in0.0 mm 0.00 in/hr0.0 mm/hr 0.17 in4.3 mm
10:40 PM 50.0°F10.0°C 45.0°F7.2°C 83% 2.5 mph WSW4.0 kmh WSW 5.6 mph9.0 kmh 29.81 in1009.5 mb 0.00 in0.0 mm 0.00 in/hr0.0 mm/hr 0.17 in4.3 mm
10:39 PM 50.2°F10.1°C 45.2°F7.3°C 83% 2.4 mph SW3.9 kmh SW 5.6 mph9.0 kmh 29.81 in1009.5 mb 0.00 in0.0 mm 0.00 in/hr0.0 mm/hr 0.17 in4.3 mm
10:38 PM 50.5°F10.3°C 45.9°F7.7°C 84% 2.5 mph SSW4.0 kmh SSW 5.6 mph9.0 kmh 29.81 in1009.5 mb 0.00 in0.0 mm 0.00 in/hr0.0 mm/hr 0.17 in4.3 mm
10:37 PM 50.5°F10.3°C 45.9°F7.7°C 84% 2.5 mph SSW4.0 kmh SSW 5.6 mph9.0 kmh 29.81 in1009.5 mb 0.00 in0.0 mm 0.00 in/hr0.0 mm/hr 0.17 in4.3 mm
10:36 PM 50.9°F10.5°C 46.6°F8.1°C 85% 2.5 mph SW4.0 kmh SW 5.6 mph9.0 kmh 29.81 in1009.5 mb 0.00 in0.0 mm 0.00 in/hr0.0 mm/hr 0.17 in4.3 mm
10:35 PM 50.7°F10.4°C 46.7°F8.2°C 86% 2.5 mph WSW4.0 kmh WSW 5.6 mph9.0 kmh 29.81 in1009.5 mb 0.00 in0.0 mm 0.00 in/hr0.0 mm/hr 0.17 in4.3 mm
10:34 PM 49.5°F9.7°C 46.1°F7.8°C 88% 2.5 mph WSW4.0 kmh WSW 5.6 mph9.0 kmh 29.81 in1009.5 mb 0.00 in0.0 mm 0.00 in/hr0.0 mm/hr 0.17 in4.3 mm
10:33 PM 49.5°F9.7°C 46.4°F8.0°C 89% 2.3 mph WSW3.7 kmh WSW 5.6 mph9.0 kmh 29.81 in1009.5 mb 0.00 in0.0 mm 0.00 in/hr0.0 mm/hr 0.17 in4.3 mm
10:32 PM 49.6°F9.8°C 46.5°F8.1°C 89% 2.2 mph WSW3.5 kmh WSW 5.6 mph9.0 kmh 29.81 in1009.5 mb 0.00 in0.0 mm 0.00 in/hr0.0 mm/hr 0.17 in4.3 mm
10:31 PM 49.8°F9.9°C 46.7°F8.2°C 89% 2.1 mph WSW3.4 kmh WSW 5.6 mph9.0 kmh 29.81 in1009.5 mb 0.00 in0.0 mm 0.00 in/hr0.0 mm/hr 0.17 in4.3 mm
10:30 PM 49.6°F9.8°C 47.1°F8.4°C 91% 1.5 mph NW2.4 kmh NW 2.4 mph3.9 kmh 29.81 in1009.5 mb 0.00 in0.0 mm 0.00 in/hr0.0 mm/hr 0.17 in4.3 mm
10:29 PM 49.5°F9.7°C 46.9°F8.3°C 91% 1.4 mph NW2.3 kmh NW 2.4 mph3.9 kmh 29.81 in1009.5 mb 0.00 in0.0 mm 0.00 in/hr0.0 mm/hr 0.17 in4.3 mm
10:28 PM 49.1°F9.5°C 46.6°F8.1°C 91% 1.3 mph NW2.1 kmh NW 2.4 mph3.9 kmh 29.81 in1009.5 mb 0.00 in0.0 mm 0.00 in/hr0.0 mm/hr 0.17 in4.3 mm
10:27 PM 49.1°F9.5°C 46.9°F8.3°C 92% 1.3 mph WNW2.1 kmh WNW 2.4 mph3.9 kmh 29.81 in1009.5 mb 0.00 in0.0 mm 0.00 in/hr0.0 mm/hr 0.17 in4.3 mm
10:26 PM 48.7°F9.3°C 46.5°F8.1°C 92% 1.5 mph W2.4 kmh W 3.2 mph5.1 kmh 29.81 in1009.5 mb 0.00 in0.0 mm 0.00 in/hr0.0 mm/hr 0.17 in4.3 mm
10:25 PM 48.6°F9.2°C 46.3°F7.9°C 92% 1.3 mph WSW2.1 kmh WSW 3.2 mph5.1 kmh 29.81 in1009.5 mb 0.00 in0.0 mm 0.00 in/hr0.0 mm/hr 0.17 in4.3 mm
10:24 PM 48.4°F9.1°C 46.5°F8.1°C 93% 1.1 mph SW1.8 kmh SW 3.2 mph5.1 kmh 29.81 in1009.5 mb 0.00 in0.0 mm 0.00 in/hr0.0 mm/hr 0.17 in4.3 mm
10:23 PM 48.2°F9.0°C 46.3°F7.9°C 93% 0.9 mph SSW1.4 kmh SSW 3.2 mph5.1 kmh 29.81 in1009.5 mb 0.00 in0.0 mm 0.00 in/hr0.0 mm/hr 0.17 in4.3 mm
10:22 PM 48.0°F8.9°C 46.4°F8.0°C 94% 0.8 mph SSW1.3 kmh SSW 3.2 mph5.1 kmh 29.81 in1009.5 mb 0.00 in0.0 mm 0.00 in/hr0.0 mm/hr 0.17 in4.3 mm
10:21 PM 48.0°F8.9°C 46.4°F8.0°C 94% 0.8 mph SSW1.3 kmh SSW 3.2 mph5.1 kmh 29.82 in1009.8 mb 0.00 in0.0 mm 0.00 in/hr0.0 mm/hr 0.17 in4.3 mm
10:20 PM 48.0°F8.9°C 46.4°F8.0°C 94% 0.8 mph S1.3 kmh S 3.2 mph5.1 kmh 29.81 in1009.5 mb 0.00 in0.0 mm 0.00 in/hr0.0 mm/hr 0.17 in4.3 mm
10:19 PM 48.0°F8.9°C 46.7°F8.2°C 95% 0.9 mph S1.4 kmh S 3.2 mph5.1 kmh 29.81 in1009.5 mb 0.00 in0.0 mm 0.00 in/hr0.0 mm/hr 0.17 in4.3 mm
10:18 PM 47.8°F8.8°C 46.5°F8.1°C 95% 0.8 mph S1.3 kmh S 3.2 mph5.1 kmh 29.81 in1009.5 mb 0.00 in0.0 mm 0.00 in/hr0.0 mm/hr 0.17 in4.3 mm
10:17 PM 47.7°F8.7°C 46.3°F7.9°C 95% 0.6 mph S1.0 kmh S 3.2 mph5.1 kmh 29.81 in1009.5 mb 0.00 in0.0 mm 0.00 in/hr0.0 mm/hr 0.17 in4.3 mm
10:16 PM 47.5°F8.6°C 46.1°F7.8°C 95% 0.5 mph SW0.8 kmh SW 3.2 mph5.1 kmh 29.81 in1009.5 mb 0.00 in0.0 mm 0.00 in/hr0.0 mm/hr 0.17 in4.3 mm
10:15 PM 47.7°F8.7°C 46.3°F7.9°C 95% 0.6 mph SW1.0 kmh SW 3.2 mph5.1 kmh 29.81 in1009.5 mb 0.00 in0.0 mm 0.00 in/hr0.0 mm/hr 0.17 in4.3 mm
10:14 PM 46.9°F8.3°C 45.6°F7.6°C 95% 0.9 mph WSW1.4 kmh WSW 3.2 mph5.1 kmh 29.81 in1009.5 mb 0.00 in0.0 mm 0.00 in/hr0.0 mm/hr 0.17 in4.3 mm
10:13 PM 46.4°F8.0°C 45.0°F7.2°C 95% 1.0 mph WSW1.6 kmh WSW 3.2 mph5.1 kmh 29.81 in1009.5 mb 0.00 in0.0 mm 0.00 in/hr0.0 mm/hr 0.17 in4.3 mm
10:12 PM 46.4°F8.0°C 45.0°F7.2°C 95% 1.0 mph SW1.6 kmh SW 3.2 mph5.1 kmh 29.80 in1009.1 mb 0.00 in0.0 mm 0.00 in/hr0.0 mm/hr 0.17 in4.3 mm
10:11 PM 46.4°F8.0°C 45.0°F7.2°C 95% 1.0 mph SW1.6 kmh SW 3.2 mph5.1 kmh 29.81 in1009.5 mb 0.00 in0.0 mm 0.00 in/hr0.0 mm/hr 0.17 in4.3 mm
10:10 PM 46.2°F7.9°C 45.1°F7.3°C 96% 1.0 mph SW1.6 kmh SW 3.2 mph5.1 kmh 29.80 in1009.1 mb 0.00 in0.0 mm 0.00 in/hr0.0 mm/hr 0.17 in4.3 mm
10:09 PM 46.2°F7.9°C 45.1°F7.3°C 96% 1.2 mph SW1.9 kmh SW 3.2 mph5.1 kmh 29.81 in1009.5 mb 0.00 in0.0 mm 0.00 in/hr0.0 mm/hr 0.17 in4.3 mm
10:08 PM 46.2°F7.9°C 45.1°F7.3°C 96% 1.3 mph SW2.1 kmh SW 3.2 mph5.1 kmh 29.80 in1009.1 mb 0.00 in0.0 mm 0.00 in/hr0.0 mm/hr 0.17 in4.3 mm
10:07 PM 46.2°F7.9°C 45.1°F7.3°C 96% 1.4 mph SW2.3 kmh SW 3.2 mph5.1 kmh 29.80 in1009.1 mb 0.00 in0.0 mm 0.00 in/hr0.0 mm/hr 0.17 in4.3 mm
10:06 PM 46.0°F7.8°C 44.7°F7.1°C 95% 1.1 mph SSW1.8 kmh SSW 3.2 mph5.1 kmh 29.80 in1009.1 mb 0.00 in0.0 mm 0.00 in/hr0.0 mm/hr 0.17 in4.3 mm
10:05 PM 46.0°F7.8°C 44.7°F7.1°C 95% 0.9 mph SW1.4 kmh SW 3.2 mph5.1 kmh 29.80 in1009.1 mb 0.00 in0.0 mm 0.00 in/hr0.0 mm/hr 0.17 in4.3 mm
10:04 PM 46.0°F7.8°C 44.7°F7.1°C 95% 0.7 mph S1.1 kmh S 3.2 mph5.1 kmh 29.80 in1009.1 mb 0.00 in0.0 mm 0.00 in/hr0.0 mm/hr 0.17 in4.3 mm
10:03 PM 46.0°F7.8°C 44.7°F7.1°C 95% 0.5 mph S0.8 kmh S 3.2 mph5.1 kmh 29.81 in1009.5 mb 0.00 in0.0 mm 0.00 in/hr0.0 mm/hr 0.17 in4.3 mm
10:02 PM 46.0°F7.8°C 44.7°F7.1°C 95% 0.5 mph S0.8 kmh S 3.2 mph5.1 kmh 29.80 in1009.1 mb 0.00 in0.0 mm 0.00 in/hr0.0 mm/hr 0.17 in4.3 mm
10:01 PM 46.0°F7.8°C 44.4°F6.9°C 94% 0.5 mph S0.8 kmh S 3.2 mph5.1 kmh 29.81 in1009.5 mb 0.00 in0.0 mm 0.00 in/hr0.0 mm/hr 0.17 in4.3 mm
10:00 PM 46.0°F7.8°C 44.4°F6.9°C 94% 0.5 mph S0.8 kmh S 3.2 mph5.1 kmh 29.81 in1009.5 mb 0.00 in0.0 mm 0.00 in/hr0.0 mm/hr 0.17 in4.3 mm
09:59 PM 46.2°F7.9°C 44.6°F7.0°C 94% 0.3 mph S0.5 kmh S 3.2 mph5.1 kmh 29.80 in1009.1 mb 0.00 in0.0 mm 0.00 in/hr0.0 mm/hr 0.17 in4.3 mm
09:58 PM 46.2°F7.9°C 44.6°F7.0°C 94% 0.3 mph S0.5 kmh S 1.6 mph2.6 kmh 29.80 in1009.1 mb 0.00 in0.0 mm 0.00 in/hr0.0 mm/hr 0.17 in4.3 mm
09:57 PM 46.2°F7.9°C 44.6°F7.0°C 94% 0.5 mph N0.8 kmh N 2.4 mph3.9 kmh 29.80 in1009.1 mb 0.00 in0.0 mm 0.00 in/hr0.0 mm/hr 0.17 in4.3 mm
09:56 PM 46.2°F7.9°C 44.3°F6.8°C 93% 0.7 mph N1.1 kmh N 2.4 mph3.9 kmh 29.80 in1009.1 mb 0.00 in0.0 mm 0.00 in/hr0.0 mm/hr 0.17 in4.3 mm
09:55 PM 46.4°F8.0°C 44.5°F6.9°C 93% 0.7 mph N1.1 kmh N 2.4 mph3.9 kmh 29.80 in1009.1 mb 0.00 in0.0 mm 0.00 in/hr0.0 mm/hr 0.17 in4.3 mm
09:54 PM 46.6°F8.1°C 44.7°F7.1°C 93% 0.6 mph N1.0 kmh N 2.4 mph3.9 kmh 29.80 in1009.1 mb 0.00 in0.0 mm 0.00 in/hr0.0 mm/hr 0.17 in4.3 mm
09:53 PM 46.6°F8.1°C 44.4°F6.9°C 92% 0.6 mph N1.0 kmh N 2.4 mph3.9 kmh 29.81 in1009.5 mb 0.00 in0.0 mm 0.00 in/hr0.0 mm/hr 0.17 in4.3 mm
09:52 PM 46.8°F8.2°C 44.6°F7.0°C 92% 0.7 mph N1.1 kmh N 2.4 mph3.9 kmh 29.81 in1009.5 mb 0.00 in0.0 mm 0.00 in/hr0.0 mm/hr 0.17 in4.3 mm
09:51 PM 46.8°F8.2°C 44.6°F7.0°C 92% 0.7 mph N1.1 kmh N 2.4 mph3.9 kmh 29.80 in1009.1 mb 0.00 in0.0 mm 0.00 in/hr0.0 mm/hr 0.17 in4.3 mm
09:50 PM 47.1°F8.4°C 44.9°F7.2°C 92% 0.6 mph N1.0 kmh N 2.4 mph3.9 kmh 29.80 in1009.1 mb 0.00 in0.0 mm 0.00 in/hr0.0 mm/hr 0.17 in4.3 mm
09:49 PM 47.1°F8.4°C 44.9°F7.2°C 92% 0.6 mph N1.0 kmh N 2.4 mph3.9 kmh 29.80 in1009.1 mb 0.00 in0.0 mm 0.00 in/hr0.0 mm/hr 0.17 in4.3 mm
09:48 PM 47.5°F8.6°C 45.3°F7.4°C 92% 0.5 mph N0.8 kmh N 2.4 mph3.9 kmh 29.81 in1009.5 mb 0.00 in0.0 mm 0.00 in/hr0.0 mm/hr 0.17 in4.3 mm
09:47 PM 47.8°F8.8°C 45.6°F7.6°C 92% 0.3 mph NNW0.5 kmh NNW 2.4 mph3.9 kmh 29.81 in1009.5 mb 0.00 in0.0 mm 0.00 in/hr0.0 mm/hr 0.17 in4.3 mm
09:46 PM 48.6°F9.2°C 46.1°F7.8°C 91% 0.1 mph W0.2 kmh W 1.6 mph2.6 kmh 29.81 in1009.5 mb 0.00 in0.0 mm 0.00 in/hr0.0 mm/hr 0.17 in4.3 mm
09:45 PM 48.6°F9.2°C 46.1°F7.8°C 91% 0.1 mph W0.2 kmh W 1.6 mph2.6 kmh 29.80 in1009.1 mb 0.00 in0.0 mm 0.00 in/hr0.0 mm/hr 0.17 in4.3 mm
09:44 PM 48.7°F9.3°C 46.2°F7.9°C 91% 0.1 mph W0.2 kmh W 1.6 mph2.6 kmh 29.81 in1009.5 mb 0.00 in0.0 mm 0.00 in/hr0.0 mm/hr 0.17 in4.3 mm
09:43 PM 48.7°F9.3°C 46.2°F7.9°C 91% 0.1 mph W0.2 kmh W 1.6 mph2.6 kmh 29.81 in1009.5 mb 0.00 in0.0 mm 0.00 in/hr0.0 mm/hr 0.17 in4.3 mm
09:42 PM 48.6°F9.2°C 46.1°F7.8°C 91% Calm Calm -- 29.81 in1009.5 mb 0.00 in0.0 mm 0.00 in/hr0.0 mm/hr 0.17 in4.3 mm
09:41 PM 48.6°F9.2°C 46.1°F7.8°C 91% Calm Calm -- 29.81 in1009.5 mb 0.00 in0.0 mm 0.00 in/hr0.0 mm/hr 0.17 in4.3 mm
09:40 PM 48.4°F9.1°C 45.9°F7.7°C 91% 0.2 mph W0.3 kmh W 2.4 mph3.9 kmh 29.81 in1009.5 mb 0.00 in0.0 mm 0.00 in/hr0.0 mm/hr 0.17 in4.3 mm
09:39 PM 48.4°F9.1°C 45.9°F7.7°C 91% 0.4 mph SW0.6 kmh SW 3.2 mph5.1 kmh 29.81 in1009.5 mb 0.00 in0.0 mm 0.00 in/hr0.0 mm/hr 0.17 in4.3 mm
09:38 PM 48.6°F9.2°C 46.1°F7.8°C 91% 0.5 mph SW0.8 kmh SW 3.2 mph5.1 kmh 29.81 in1009.5 mb 0.00 in0.0 mm 0.00 in/hr0.0 mm/hr 0.17 in4.3 mm
09:37 PM 48.6°F9.2°C 46.1°F7.8°C 91% 0.8 mph W1.3 kmh W 3.2 mph5.1 kmh 29.80 in1009.1 mb 0.00 in0.0 mm 0.00 in/hr0.0 mm/hr 0.17 in4.3 mm
09:36 PM 48.6°F9.2°C 46.1°F7.8°C 91% 1.0 mph WSW1.6 kmh WSW 3.2 mph5.1 kmh 29.81 in1009.5 mb 0.00 in0.0 mm 0.00 in/hr0.0 mm/hr 0.17 in4.3 mm
09:35 PM 48.7°F9.3°C 46.5°F8.1°C 92% 1.1 mph WSW1.8 kmh WSW 3.2 mph5.1 kmh 29.80 in1009.1 mb 0.00 in0.0 mm 0.00 in/hr0.0 mm/hr 0.17 in4.3 mm
09:34 PM 48.6°F9.2°C 46.3°F7.9°C 92% 1.3 mph SW2.1 kmh SW 3.2 mph5.1 kmh 29.81 in1009.5 mb 0.00 in0.0 mm 0.00 in/hr0.0 mm/hr 0.17 in4.3 mm
09:33 PM 48.6°F9.2°C 46.3°F7.9°C 92% 1.5 mph SW2.4 kmh SW 3.2 mph5.1 kmh 29.80 in1009.1 mb 0.00 in0.0 mm 0.00 in/hr0.0 mm/hr 0.17 in4.3 mm
09:32 PM 48.6°F9.2°C 46.3°F7.9°C 92% 1.8 mph SW2.9 kmh SW 3.2 mph5.1 kmh 29.80 in1009.1 mb 0.00 in0.0 mm 0.00 in/hr0.0 mm/hr 0.17 in4.3 mm
09:31 PM 48.7°F9.3°C 46.5°F8.1°C 92% 1.9 mph SW3.1 kmh SW 3.2 mph5.1 kmh 29.81 in1009.5 mb 0.00 in0.0 mm 0.00 in/hr0.0 mm/hr 0.17 in4.3 mm
09:30 PM 48.6°F9.2°C 46.6°F8.1°C 93% 1.7 mph SW2.7 kmh SW 3.2 mph5.1 kmh 29.80 in1009.1 mb 0.00 in0.0 mm 0.00 in/hr0.0 mm/hr 0.17 in4.3 mm
09:29 PM 48.4°F9.1°C 46.5°F8.1°C 93% 1.5 mph SW2.4 kmh SW 3.2 mph5.1 kmh 29.81 in1009.5 mb 0.00 in0.0 mm 0.00 in/hr0.0 mm/hr 0.17 in4.3 mm
09:28 PM 48.2°F9.0°C 46.3°F7.9°C 93% 1.6 mph SSW2.6 kmh SSW 3.2 mph5.1 kmh 29.81 in1009.5 mb 0.00 in0.0 mm 0.00 in/hr0.0 mm/hr 0.17 in4.3 mm
09:27 PM 47.8°F8.8°C 46.2°F7.9°C 94% 1.6 mph SSW2.6 kmh SSW 3.2 mph5.1 kmh 29.80 in1009.1 mb 0.00 in0.0 mm 0.00 in/hr0.0 mm/hr 0.17 in4.3 mm
09:26 PM 47.8°F8.8°C 46.2°F7.9°C 94% 1.4 mph SSW2.3 kmh SSW 2.4 mph3.9 kmh 29.81 in1009.5 mb 0.00 in0.0 mm 0.00 in/hr0.0 mm/hr 0.17 in4.3 mm
09:25 PM 47.8°F8.8°C 46.2°F7.9°C 94% 1.4 mph SSW2.3 kmh SSW 2.4 mph3.9 kmh 29.81 in1009.5 mb 0.00 in0.0 mm 0.00 in/hr0.0 mm/hr 0.17 in4.3 mm
09:24 PM 47.8°F8.8°C 46.2°F7.9°C 94% 1.2 mph S1.9 kmh S 2.4 mph3.9 kmh 29.81 in1009.5 mb 0.00 in0.0 mm 0.00 in/hr0.0 mm/hr 0.17 in4.3 mm
09:23 PM 47.8°F8.8°C 46.2°F7.9°C 94% 1.0 mph S1.6 kmh S 2.4 mph3.9 kmh 29.81 in1009.5 mb 0.00 in0.0 mm 0.00 in/hr0.0 mm/hr 0.17 in4.3 mm
09:22 PM 47.3°F8.5°C 45.7°F7.6°C 94% 0.7 mph S1.1 kmh S 2.4 mph3.9 kmh 29.80 in1009.1 mb 0.00 in0.0 mm 0.00 in/hr0.0 mm/hr 0.17 in4.3 mm
09:21 PM 47.3°F8.5°C 45.7°F7.6°C 94% 0.6 mph S1.0 kmh S 2.4 mph3.9 kmh 29.80 in1009.1 mb 0.00 in0.0 mm 0.00 in/hr0.0 mm/hr 0.17 in4.3 mm
09:20 PM 47.3°F8.5°C 45.7°F7.6°C 94% 0.6 mph S1.0 kmh S 2.4 mph3.9 kmh 29.81 in1009.5 mb 0.00 in0.0 mm 0.00 in/hr0.0 mm/hr 0.17 in4.3 mm
09:19 PM 47.3°F8.5°C 45.4°F7.4°C 93% 0.5 mph S0.8 kmh S 2.4 mph3.9 kmh 29.80 in1009.1 mb 0.00 in0.0 mm 0.00 in/hr0.0 mm/hr 0.17 in4.3 mm
09:18 PM 47.5°F8.6°C 45.6°F7.6°C 93% 0.4 mph SSW0.6 kmh SSW 2.4 mph3.9 kmh 29.80 in1009.1 mb 0.00 in0.0 mm 0.00 in/hr0.0 mm/hr 0.17 in4.3 mm
09:17 PM 47.7°F8.7°C 45.7°F7.6°C 93% 0.2 mph S0.3 kmh S 2.4 mph3.9 kmh 29.80 in1009.1 mb 0.00 in0.0 mm 0.00 in/hr0.0 mm/hr 0.17 in4.3 mm
09:16 PM 47.5°F8.6°C 45.6°F7.6°C 93% Calm Calm -- 29.80 in1009.1 mb 0.00 in0.0 mm 0.00 in/hr0.0 mm/hr 0.17 in4.3 mm
09:15 PM 47.5°F8.6°C 45.6°F7.6°C 93% Calm Calm -- 29.80 in1009.1 mb 0.00 in0.0 mm 0.00 in/hr0.0 mm/hr 0.17 in4.3 mm
09:14 PM 47.7°F8.7°C 45.7°F7.6°C 93% Calm Calm -- 29.79 in1008.8 mb 0.00 in0.0 mm 0.00 in/hr0.0 mm/hr 0.17 in4.3 mm
09:13 PM 47.8°F8.8°C 45.6°F7.6°C 92% Calm Calm -- 29.80 in1009.1 mb 0.00 in0.0 mm 0.00 in/hr0.0 mm/hr 0.17 in4.3 mm
09:12 PM 47.8°F8.8°C 45.6°F7.6°C 92% Calm Calm -- 29.80 in1009.1 mb 0.00 in0.0 mm 0.00 in/hr0.0 mm/hr 0.17 in4.3 mm
09:11 PM 48.0°F8.9°C 45.8°F7.7°C 92% Calm Calm -- 29.79 in1008.8 mb 0.00 in0.0 mm 0.00 in/hr0.0 mm/hr 0.17 in4.3 mm
09:10 PM 48.2°F9.0°C 45.7°F7.6°C 91% Calm Calm -- 29.80 in1009.1 mb 0.00 in0.0 mm 0.00 in/hr0.0 mm/hr 0.17 in4.3 mm
09:09 PM 48.4°F9.1°C 45.9°F7.7°C 91% Calm Calm -- 29.80 in1009.1 mb 0.00 in0.0 mm 0.00 in/hr0.0 mm/hr 0.17 in4.3 mm
09:08 PM 48.4°F9.1°C 45.9°F7.7°C 91% Calm Calm -- 29.79 in1008.8 mb 0.00 in0.0 mm 0.00 in/hr0.0 mm/hr 0.17 in4.3 mm
09:07 PM 48.6°F9.2°C 46.1°F7.8°C 91% Calm Calm -- 29.80 in1009.1 mb 0.00 in0.0 mm 0.00 in/hr0.0 mm/hr 0.17 in4.3 mm
09:06 PM 48.6°F9.2°C 45.8°F7.7°C 90% Calm Calm -- 29.80 in1009.1 mb 0.00 in0.0 mm 0.00 in/hr0.0 mm/hr 0.17 in4.3 mm
09:05 PM 48.6°F9.2°C 45.8°F7.7°C 90% Calm Calm -- 29.79 in1008.8 mb 0.00 in0.0 mm 0.00 in/hr0.0 mm/hr 0.17 in4.3 mm
09:04 PM 48.6°F9.2°C 45.8°F7.7°C 90% Calm Calm -- 29.79 in1008.8 mb 0.00 in0.0 mm 0.00 in/hr0.0 mm/hr 0.17 in4.3 mm
09:03 PM 48.6°F9.2°C 45.8°F7.7°C 90% Calm Calm -- 29.79 in1008.8 mb 0.00 in0.0 mm 0.00 in/hr0.0 mm/hr 0.17 in4.3 mm
09:02 PM 48.6°F9.2°C 45.8°F7.7°C 90% Calm Calm -- 29.79 in1008.8 mb 0.00 in0.0 mm 0.00 in/hr0.0 mm/hr 0.17 in4.3 mm
09:01 PM 48.6°F9.2°C 45.8°F7.7°C 90% Calm Calm -- 29.79 in1008.8 mb 0.00 in0.0 mm 0.00 in/hr0.0 mm/hr 0.17 in4.3 mm
09:00 PM 48.6°F9.2°C 45.8°F7.7°C 90% Calm Calm -- 29.79 in1008.8 mb 0.00 in0.0 mm 0.00 in/hr0.0 mm/hr 0.17 in4.3 mm
08:59 PM 48.6°F9.2°C 46.1°F7.8°C 91% Calm Calm -- 29.79 in1008.8 mb 0.00 in0.0 mm 0.00 in/hr0.0 mm/hr 0.17 in4.3 mm
08:58 PM 48.6°F9.2°C 46.1°F7.8°C 91% Calm Calm -- 29.80 in1009.1 mb 0.00 in0.0 mm 0.00 in/hr0.0 mm/hr 0.17 in4.3 mm
08:57 PM 48.6°F9.2°C 46.1°F7.8°C 91% Calm Calm -- 29.79 in1008.8 mb 0.00 in0.0 mm 0.00 in/hr0.0 mm/hr 0.17 in4.3 mm
08:56 PM 48.6°F9.2°C 46.1°F7.8°C 91% Calm Calm -- 29.79 in1008.8 mb 0.00 in0.0 mm 0.00 in/hr0.0 mm/hr 0.17 in4.3 mm
08:55 PM 48.6°F9.2°C 46.1°F7.8°C 91% Calm Calm -- 29.80 in1009.1 mb 0.00 in0.0 mm 0.00 in/hr0.0 mm/hr 0.17 in4.3 mm
08:54 PM 48.6°F9.2°C 46.1°F7.8°C 91% Calm Calm -- 29.79 in1008.8 mb 0.00 in0.0 mm 0.00 in/hr0.0 mm/hr 0.17 in4.3 mm
08:53 PM 48.6°F9.2°C 46.1°F7.8°C 91% Calm Calm -- 29.79 in1008.8 mb 0.00 in0.0 mm 0.00 in/hr0.0 mm/hr 0.17 in4.3 mm
08:52 PM 48.6°F9.2°C 46.1°F7.8°C 91% Calm Calm -- 29.79 in1008.8 mb 0.00 in0.0 mm 0.00 in/hr0.0 mm/hr 0.17 in4.3 mm
08:51 PM 48.6°F9.2°C 46.1°F7.8°C 91% Calm Calm -- 29.79 in1008.8 mb 0.00 in0.0 mm 0.00 in/hr0.0 mm/hr 0.17 in4.3 mm
08:50 PM 48.6°F9.2°C 46.1°F7.8°C 91% Calm Calm -- 29.79 in1008.8 mb 0.00 in0.0 mm 0.00 in/hr0.0 mm/hr 0.17 in4.3 mm
08:49 PM 48.4°F9.1°C 45.9°F7.7°C 91% Calm Calm -- 29.79 in1008.8 mb 0.00 in0.0 mm 0.00 in/hr0.0 mm/hr 0.17 in4.3 mm
08:48 PM 48.4°F9.1°C 45.9°F7.7°C 91% Calm Calm -- 29.79 in1008.8 mb 0.00 in0.0 mm 0.00 in/hr0.0 mm/hr 0.17 in4.3 mm
08:47 PM 48.4°F9.1°C 45.9°F7.7°C 91% Calm Calm -- 29.80 in1009.1 mb 0.00 in0.0 mm 0.00 in/hr0.0 mm/hr 0.17 in4.3 mm
08:46 PM 48.6°F9.2°C 46.1°F7.8°C 91% Calm Calm -- 29.79 in1008.8 mb 0.00 in0.0 mm 0.00 in/hr0.0 mm/hr 0.17 in4.3 mm
08:45 PM 48.6°F9.2°C 46.1°F7.8°C 91% Calm Calm -- 29.80 in1009.1 mb 0.00 in0.0 mm 0.00 in/hr0.0 mm/hr 0.17 in4.3 mm
08:44 PM 48.6°F9.2°C 46.1°F7.8°C 91% Calm Calm -- 29.79 in1008.8 mb 0.00 in0.0 mm 0.00 in/hr0.0 mm/hr 0.17 in4.3 mm
08:43 PM 48.6°F9.2°C 46.1°F7.8°C 91% Calm Calm -- 29.79 in1008.8 mb 0.00 in0.0 mm 0.00 in/hr0.0 mm/hr 0.17 in4.3 mm
08:42 PM 48.6°F9.2°C 46.1°F7.8°C 91% Calm Calm -- 29.80 in1009.1 mb 0.00 in0.0 mm 0.00 in/hr0.0 mm/hr 0.17 in4.3 mm
08:41 PM 48.6°F9.2°C 46.1°F7.8°C 91% Calm Calm -- 29.80 in1009.1 mb 0.00 in0.0 mm 0.00 in/hr0.0 mm/hr 0.17 in4.3 mm
08:40 PM 48.6°F9.2°C 45.8°F7.7°C 90% Calm Calm -- 29.79 in1008.8 mb 0.00 in0.0 mm 0.00 in/hr0.0 mm/hr 0.17 in4.3 mm
08:39 PM 48.6°F9.2°C 45.8°F7.7°C 90% Calm Calm -- 29.80 in1009.1 mb 0.00 in0.0 mm 0.00 in/hr0.0 mm/hr 0.17 in4.3 mm
08:38 PM 48.6°F9.2°C 45.8°F7.7°C 90% Calm Calm -- 29.80 in1009.1 mb 0.00 in0.0 mm 0.00 in/hr0.0 mm/hr 0.17 in4.3 mm
08:37 PM 48.4°F9.1°C 45.6°F7.6°C 90% Calm Calm -- 29.80 in1009.1 mb 0.00 in0.0 mm 0.00 in/hr0.0 mm/hr 0.17 in4.3 mm
08:36 PM 48.4°F9.1°C 45.6°F7.6°C 90% Calm Calm -- 29.80 in1009.1 mb 0.00 in0.0 mm 0.00 in/hr0.0 mm/hr 0.17 in4.3 mm
08:35 PM 48.4°F9.1°C 45.6°F7.6°C 90% Calm Calm -- 29.80 in1009.1 mb 0.00 in0.0 mm 0.00 in/hr0.0 mm/hr 0.17 in4.3 mm
08:34 PM 48.4°F9.1°C 45.6°F7.6°C 90% Calm Calm -- 29.80 in1009.1 mb 0.00 in0.0 mm 0.00 in/hr0.0 mm/hr 0.17 in4.3 mm
08:33 PM 48.4°F9.1°C 45.6°F7.6°C 90% Calm Calm -- 29.80 in1009.1 mb 0.00 in0.0 mm 0.00 in/hr0.0 mm/hr 0.17 in4.3 mm
08:32 PM 48.4°F9.1°C 45.6°F7.6°C 90% Calm Calm -- 29.80 in1009.1 mb 0.00 in0.0 mm 0.00 in/hr0.0 mm/hr 0.17 in4.3 mm
08:31 PM 48.4°F9.1°C 45.6°F7.6°C 90% Calm Calm -- 29.80 in1009.1 mb 0.00 in0.0 mm 0.00 in/hr0.0 mm/hr 0.17 in4.3 mm
08:30 PM 48.4°F9.1°C 45.6°F7.6°C 90% Calm Calm -- 29.80 in1009.1 mb 0.00 in0.0 mm 0.00 in/hr0.0 mm/hr 0.17 in4.3 mm
08:29 PM 48.6°F9.2°C 45.8°F7.7°C 90% Calm Calm -- 29.80 in1009.1 mb 0.00 in0.0 mm 0.00 in/hr0.0 mm/hr 0.17 in4.3 mm
08:28 PM 48.4°F9.1°C 45.6°F7.6°C 90% Calm Calm -- 29.79 in1008.8 mb 0.00 in0.0 mm 0.00 in/hr0.0 mm/hr 0.17 in4.3 mm
08:27 PM 48.4°F9.1°C 45.6°F7.6°C 90% Calm Calm -- 29.79 in1008.8 mb 0.00 in0.0 mm 0.00 in/hr0.0 mm/hr 0.17 in4.3 mm
08:26 PM 48.6°F9.2°C 45.5°F7.5°C 89% Calm Calm -- 29.80 in1009.1 mb 0.00 in0.0 mm 0.00 in/hr0.0 mm/hr 0.17 in4.3 mm
08:25 PM 48.6°F9.2°C 45.5°F7.5°C 89% Calm Calm -- 29.79 in1008.8 mb 0.00 in0.0 mm 0.00 in/hr0.0 mm/hr 0.17 in4.3 mm
08:24 PM 48.6°F9.2°C 45.5°F7.5°C 89% Calm Calm -- 29.79 in1008.8 mb 0.00 in0.0 mm 0.00 in/hr0.0 mm/hr 0.17 in4.3 mm
08:23 PM 48.6°F9.2°C 45.5°F7.5°C 89% Calm Calm -- 29.79 in1008.8 mb 0.00 in0.0 mm 0.00 in/hr0.0 mm/hr 0.17 in4.3 mm
08:22 PM 48.6°F9.2°C 45.5°F7.5°C 89% Calm Calm -- 29.80 in1009.1 mb 0.00 in0.0 mm 0.00 in/hr0.0 mm/hr 0.17 in4.3 mm
08:21 PM 48.6°F9.2°C 45.5°F7.5°C 89% Calm Calm -- 29.80 in1009.1 mb 0.00 in0.0 mm 0.00 in/hr0.0 mm/hr 0.17 in4.3 mm
08:20 PM 48.7°F9.3°C 45.6°F7.6°C 89% Calm Calm -- 29.79 in1008.8 mb 0.00 in0.0 mm 0.00 in/hr0.0 mm/hr 0.17 in4.3 mm
08:19 PM 48.7°F9.3°C 45.6°F7.6°C 89% Calm Calm -- 29.79 in1008.8 mb 0.00 in0.0 mm 0.00 in/hr0.0 mm/hr 0.17 in4.3 mm
08:18 PM 48.7°F9.3°C 45.3°F7.4°C 88% Calm Calm -- 29.80 in1009.1 mb 0.00 in0.0 mm 0.00 in/hr0.0 mm/hr 0.17 in4.3 mm
08:17 PM 48.7°F9.3°C 45.3°F7.4°C 88% Calm Calm -- 29.79 in1008.8 mb 0.00 in0.0 mm 0.00 in/hr0.0 mm/hr 0.17 in4.3 mm
08:16 PM 48.7°F9.3°C 45.3°F7.4°C 88% Calm Calm -- 29.79 in1008.8 mb 0.00 in0.0 mm 0.00 in/hr0.0 mm/hr 0.17 in4.3 mm
08:15 PM 48.7°F9.3°C 45.3°F7.4°C 88% Calm Calm -- 29.79 in1008.8 mb 0.00 in0.0 mm 0.00 in/hr0.0 mm/hr 0.17 in4.3 mm
08:14 PM 48.7°F9.3°C 45.3°F7.4°C 88% Calm Calm -- 29.79 in1008.8 mb 0.00 in0.0 mm 0.00 in/hr0.0 mm/hr 0.17 in4.3 mm
08:13 PM 48.7°F9.3°C 45.3°F7.4°C 88% Calm Calm -- 29.79 in1008.8 mb 0.00 in0.0 mm 0.00 in/hr0.0 mm/hr 0.17 in4.3 mm
08:12 PM 48.7°F9.3°C 45.3°F7.4°C 88% Calm Calm -- 29.79 in1008.8 mb 0.00 in0.0 mm 0.00 in/hr0.0 mm/hr 0.17 in4.3 mm
08:11 PM 48.9°F9.4°C 45.5°F7.5°C 88% Calm Calm -- 29.80 in1009.1 mb 0.00 in0.0 mm 0.00 in/hr0.0 mm/hr 0.17 in4.3 mm
08:10 PM 48.9°F9.4°C 45.5°F7.5°C 88% Calm Calm -- 29.79 in1008.8 mb 0.00 in0.0 mm 0.00 in/hr0.0 mm/hr 0.17 in4.3 mm
08:09 PM 48.9°F9.4°C 45.5°F7.5°C 88% Calm Calm -- 29.79 in1008.8 mb 0.00 in0.0 mm 0.00 in/hr0.0 mm/hr 0.17 in4.3 mm
08:08 PM 48.9°F9.4°C 45.5°F7.5°C 88% Calm Calm -- 29.79 in1008.8 mb 0.00 in0.0 mm 0.00 in/hr0.0 mm/hr 0.17 in4.3 mm
08:07 PM 48.9°F9.4°C 45.5°F7.5°C 88% Calm Calm -- 29.79 in1008.8 mb 0.00 in0.0 mm 0.00 in/hr0.0 mm/hr 0.17 in4.3 mm
08:06 PM 49.1°F9.5°C 45.7°F7.6°C 88% Calm Calm -- 29.79 in1008.8 mb 0.00 in0.0 mm 0.00 in/hr0.0 mm/hr 0.17 in4.3 mm
08:05 PM 48.9°F9.4°C 45.5°F7.5°C 88% Calm Calm -- 29.79 in1008.8 mb 0.00 in0.0 mm 0.00 in/hr0.0 mm/hr 0.17 in4.3 mm
08:04 PM 48.9°F9.4°C 45.5°F7.5°C 88% Calm Calm -- 29.80 in1009.1 mb 0.00 in0.0 mm 0.00 in/hr0.0 mm/hr 0.17 in4.3 mm
08:03 PM 48.9°F9.4°C 45.5°F7.5°C 88% Calm Calm -- 29.79 in1008.8 mb 0.00 in0.0 mm 0.00 in/hr0.0 mm/hr 0.17 in4.3 mm
08:02 PM 49.1°F9.5°C 45.7°F7.6°C 88% Calm Calm -- 29.79 in1008.8 mb 0.00 in0.0 mm 0.00 in/hr0.0 mm/hr 0.17 in4.3 mm
08:01 PM 49.1°F9.5°C 45.7°F7.6°C 88% Calm Calm -- 29.79 in1008.8 mb 0.00 in0.0 mm 0.00 in/hr0.0 mm/hr 0.17 in4.3 mm
08:00 PM 49.1°F9.5°C 45.7°F7.6°C 88% Calm Calm -- 29.79 in1008.8 mb 0.00 in0.0 mm 0.00 in/hr0.0 mm/hr 0.17 in4.3 mm
07:59 PM 49.1°F9.5°C 45.7°F7.6°C 88% Calm Calm -- 29.79 in1008.8 mb 0.00 in0.0 mm 0.00 in/hr0.0 mm/hr 0.17 in4.3 mm
07:58 PM 49.1°F9.5°C 45.7°F7.6°C 88% Calm Calm -- 29.79 in1008.8 mb 0.00 in0.0 mm 0.00 in/hr0.0 mm/hr 0.17 in4.3 mm
07:57 PM 49.1°F9.5°C 45.7°F7.6°C 88% Calm Calm -- 29.79 in1008.8 mb 0.00 in0.0 mm 0.00 in/hr0.0 mm/hr 0.17 in4.3 mm
07:56 PM 49.1°F9.5°C 45.7°F7.6°C 88% Calm Calm -- 29.79 in1008.8 mb 0.00 in0.0 mm 0.00 in/hr0.0 mm/hr 0.17 in4.3 mm
07:55 PM 49.1°F9.5°C 45.7°F7.6°C 88% Calm Calm -- 29.79 in1008.8 mb 0.00 in0.0 mm 0.00 in/hr0.0 mm/hr 0.17 in4.3 mm
07:54 PM 49.3°F9.6°C 45.9°F7.7°C 88% Calm Calm -- 29.79 in1008.8 mb 0.00 in0.0 mm 0.00 in/hr0.0 mm/hr 0.17 in4.3 mm
07:53 PM 49.3°F9.6°C 45.9°F7.7°C 88% Calm Calm -- 29.78 in1008.5 mb 0.00 in0.0 mm 0.00 in/hr0.0 mm/hr 0.17 in4.3 mm
07:52 PM 49.1°F9.5°C 45.7°F7.6°C 88% Calm Calm -- 29.79 in1008.8 mb 0.00 in0.0 mm 0.00 in/hr0.0 mm/hr 0.17 in4.3 mm
07:51 PM 49.1°F9.5°C 45.7°F7.6°C 88% Calm Calm -- 29.79 in1008.8 mb 0.00 in0.0 mm 0.00 in/hr0.0 mm/hr 0.17 in4.3 mm
07:50 PM 49.1°F9.5°C 45.7°F7.6°C 88% Calm Calm -- 29.79 in1008.8 mb 0.00 in0.0 mm 0.00 in/hr0.0 mm/hr 0.17 in4.3 mm
07:49 PM 49.3°F9.6°C 45.9°F7.7°C 88% Calm Calm -- 29.79 in1008.8 mb 0.00 in0.0 mm 0.00 in/hr0.0 mm/hr 0.17 in4.3 mm
07:48 PM 49.3°F9.6°C 45.9°F7.7°C 88% Calm Calm -- 29.79 in1008.8 mb 0.00 in0.0 mm 0.00 in/hr0.0 mm/hr 0.17 in4.3 mm
07:47 PM 49.5°F9.7°C 46.1°F7.8°C 88% Calm Calm -- 29.79 in1008.8 mb 0.00 in0.0 mm 0.00 in/hr0.0 mm/hr 0.17 in4.3 mm
07:46 PM 49.5°F9.7°C 46.1°F7.8°C 88% Calm Calm -- 29.79 in1008.8 mb 0.00 in0.0 mm 0.00 in/hr0.0 mm/hr 0.17 in4.3 mm
07:45 PM 49.5°F9.7°C 46.1°F7.8°C 88% Calm Calm -- 29.79 in1008.8 mb 0.00 in0.0 mm 0.00 in/hr0.0 mm/hr 0.17 in4.3 mm
07:44 PM 49.5°F9.7°C 46.1°F7.8°C 88% Calm Calm -- 29.78 in1008.5 mb 0.00 in0.0 mm 0.00 in/hr0.0 mm/hr 0.17 in4.3 mm
07:43 PM 49.5°F9.7°C 46.1°F7.8°C 88% Calm Calm -- 29.78 in1008.5 mb 0.00 in0.0 mm 0.00 in/hr0.0 mm/hr 0.17 in4.3 mm
07:42 PM 49.5°F9.7°C 46.1°F7.8°C 88% Calm Calm -- 29.79 in1008.8 mb 0.00 in0.0 mm 0.00 in/hr0.0 mm/hr 0.17 in4.3 mm
07:41 PM 49.5°F9.7°C 45.8°F7.7°C 87% Calm Calm -- 29.79 in1008.8 mb 0.00 in0.0 mm 0.00 in/hr0.0 mm/hr 0.17 in4.3 mm
07:40 PM 49.6°F9.8°C 45.9°F7.7°C 87% Calm Calm -- 29.79 in1008.8 mb 0.00 in0.0 mm 0.00 in/hr0.0 mm/hr 0.17 in4.3 mm
07:39 PM 49.6°F9.8°C 45.9°F7.7°C 87% Calm Calm -- 29.79 in1008.8 mb 0.00 in0.0 mm 0.00 in/hr0.0 mm/hr 0.17 in4.3 mm
07:38 PM 49.6°F9.8°C 45.9°F7.7°C 87% Calm Calm -- 29.79 in1008.8 mb 0.00 in0.0 mm 0.00 in/hr0.0 mm/hr 0.17 in4.3 mm
07:37 PM 49.6°F9.8°C 45.6°F7.6°C 86% Calm Calm -- 29.79 in1008.8 mb 0.00 in0.0 mm 0.00 in/hr0.0 mm/hr 0.17 in4.3 mm
07:36 PM 49.6°F9.8°C 45.6°F7.6°C 86% Calm Calm -- 29.78 in1008.5 mb 0.00 in0.0 mm 0.00 in/hr0.0 mm/hr 0.17 in4.3 mm
07:35 PM 49.6°F9.8°C 45.6°F7.6°C 86% 0.2 mph S0.3 kmh S 2.4 mph3.9 kmh 29.79 in1008.8 mb 0.00 in0.0 mm 0.00 in/hr0.0 mm/hr 0.17 in4.3 mm
07:34 PM 49.8°F9.9°C 45.8°F7.7°C 86% 0.4 mph S0.6 kmh S 2.4 mph3.9 kmh 29.78 in1008.5 mb 0.00 in0.0 mm 0.00 in/hr0.0 mm/hr 0.17 in4.3 mm
07:33 PM 49.8°F9.9°C 45.8°F7.7°C 86% 0.5 mph S0.8 kmh S 2.4 mph3.9 kmh 29.79 in1008.8 mb 0.00 in0.0 mm 0.00 in/hr0.0 mm/hr 0.17 in4.3 mm
07:32 PM 49.8°F9.9°C 45.5°F7.5°C 85% 0.6 mph S1.0 kmh S 2.4 mph3.9 kmh 29.78 in1008.5 mb 0.00 in0.0 mm 0.00 in/hr0.0 mm/hr 0.17 in4.3 mm
07:31 PM 50.0°F10.0°C 45.4°F7.4°C 84% 0.7 mph SSW1.1 kmh SSW 2.4 mph3.9 kmh 29.79 in1008.8 mb 0.00 in0.0 mm 0.00 in/hr0.0 mm/hr 0.17 in4.3 mm
07:30 PM 50.0°F10.0°C 45.4°F7.4°C 84% 0.8 mph SW1.3 kmh SW 2.4 mph3.9 kmh 29.78 in1008.5 mb 0.00 in0.0 mm 0.00 in/hr0.0 mm/hr 0.17 in4.3 mm
07:29 PM 50.0°F10.0°C 45.4°F7.4°C 84% 0.8 mph SW1.3 kmh SW 2.4 mph3.9 kmh 29.78 in1008.5 mb 0.00 in0.0 mm 0.00 in/hr0.0 mm/hr 0.17 in4.3 mm
07:28 PM 50.0°F10.0°C 45.4°F7.4°C 84% 0.8 mph SW1.3 kmh SW 2.4 mph3.9 kmh 29.79 in1008.8 mb 0.00 in0.0 mm 0.00 in/hr0.0 mm/hr 0.17 in4.3 mm
07:27 PM 50.0°F10.0°C 45.4°F7.4°C 84% 0.9 mph SW1.4 kmh SW 2.4 mph3.9 kmh 29.79 in1008.8 mb 0.00 in0.0 mm 0.00 in/hr0.0 mm/hr 0.17 in4.3 mm
07:26 PM 50.2°F10.1°C 45.5°F7.5°C 84% 0.9 mph SW1.4 kmh SW 2.4 mph3.9 kmh 29.79 in1008.8 mb 0.00 in0.0 mm 0.00 in/hr0.0 mm/hr 0.17 in4.3 mm
07:25 PM 50.2°F10.1°C 45.5°F7.5°C 84% 0.6 mph SW1.0 kmh SW 2.4 mph3.9 kmh 29.79 in1008.8 mb 0.00 in0.0 mm 0.00 in/hr0.0 mm/hr 0.17 in4.3 mm
07:24 PM 50.2°F10.1°C 45.5°F7.5°C 84% 0.5 mph WSW0.8 kmh WSW 2.4 mph3.9 kmh 29.79 in1008.8 mb 0.00 in0.0 mm 0.00 in/hr0.0 mm/hr 0.17 in4.3 mm
07:23 PM 50.2°F10.1°C 45.5°F7.5°C 84% 0.3 mph W0.5 kmh W 2.4 mph3.9 kmh 29.79 in1008.8 mb 0.00 in0.0 mm 0.00 in/hr0.0 mm/hr 0.17 in4.3 mm
07:22 PM 50.2°F10.1°C 45.5°F7.5°C 84% 0.3 mph W0.5 kmh W 2.4 mph3.9 kmh 29.79 in1008.8 mb 0.00 in0.0 mm 0.00 in/hr0.0 mm/hr 0.17 in4.3 mm
07:21 PM 50.2°F10.1°C 45.5°F7.5°C 84% 0.1 mph W0.2 kmh W 2.4 mph3.9 kmh 29.79 in1008.8 mb 0.00 in0.0 mm 0.00 in/hr0.0 mm/hr 0.17 in4.3 mm
07:20 PM 50.2°F10.1°C 45.2°F7.3°C 83% Calm Calm -- 29.79 in1008.8 mb 0.00 in0.0 mm 0.00 in/hr0.0 mm/hr 0.17 in4.3 mm
07:19 PM 50.2°F10.1°C 45.2°F7.3°C 83% Calm Calm -- 29.79 in1008.8 mb 0.00 in0.0 mm 0.00 in/hr0.0 mm/hr 0.17 in4.3 mm
07:18 PM 50.4°F10.2°C 45.4°F7.4°C 83% Calm Calm -- 29.79 in1008.8 mb 0.00 in0.0 mm 0.00 in/hr0.0 mm/hr 0.17 in4.3 mm
07:17 PM 50.4°F10.2°C 45.4°F7.4°C 83% Calm Calm -- 29.78 in1008.5 mb 0.00 in0.0 mm 0.00 in/hr0.0 mm/hr 0.17 in4.3 mm
07:16 PM 50.5°F10.3°C 45.6°F7.6°C 83% Calm Calm -- 29.79 in1008.8 mb 0.00 in0.0 mm 0.00 in/hr0.0 mm/hr 0.17 in4.3 mm
07:15 PM 50.5°F10.3°C 45.6°F7.6°C 83% Calm Calm -- 29.79 in1008.8 mb 0.00 in0.0 mm 0.00 in/hr0.0 mm/hr 0.17 in4.3 mm
07:14 PM 50.5°F10.3°C 45.6°F7.6°C 83% Calm Calm -- 29.78 in1008.5 mb 0.00 in0.0 mm 0.00 in/hr0.0 mm/hr 0.17 in4.3 mm
07:13 PM 50.7°F10.4°C 45.8°F7.7°C 83% Calm Calm -- 29.79 in1008.8 mb 0.00 in0.0 mm 0.00 in/hr0.0 mm/hr 0.17 in4.3 mm
07:12 PM 50.7°F10.4°C 45.8°F7.7°C 83% Calm Calm -- 29.79 in1008.8 mb 0.00 in0.0 mm 0.00 in/hr0.0 mm/hr 0.17 in4.3 mm
07:11 PM 50.7°F10.4°C 45.8°F7.7°C 83% Calm Calm -- 29.78 in1008.5 mb 0.00 in0.0 mm 0.00 in/hr0.0 mm/hr 0.17 in4.3 mm
07:10 PM 50.9°F10.5°C 45.9°F7.7°C 83% Calm Calm -- 29.79 in1008.8 mb 0.00 in0.0 mm 0.00 in/hr0.0 mm/hr 0.17 in4.3 mm
07:09 PM 50.9°F10.5°C 45.9°F7.7°C 83% Calm Calm -- 29.79 in1008.8 mb 0.00 in0.0 mm 0.00 in/hr0.0 mm/hr 0.17 in4.3 mm
07:08 PM 50.9°F10.5°C 45.9°F7.7°C 83% Calm Calm -- 29.79 in1008.8 mb 0.00 in0.0 mm 0.00 in/hr0.0 mm/hr 0.17 in4.3 mm
07:07 PM 50.9°F10.5°C 45.9°F7.7°C 83% Calm Calm -- 29.79 in1008.8 mb 0.00 in0.0 mm 0.00 in/hr0.0 mm/hr 0.17 in4.3 mm
07:06 PM 51.1°F10.6°C 46.1°F7.8°C 83% Calm Calm -- 29.79 in1008.8 mb 0.00 in0.0 mm 0.00 in/hr0.0 mm/hr 0.17 in4.3 mm
07:05 PM 51.1°F10.6°C 46.1°F7.8°C 83% 0.3 mph W0.5 kmh W 4.0 mph6.4 kmh 29.79 in1008.8 mb 0.00 in0.0 mm 0.00 in/hr0.0 mm/hr 0.17 in4.3 mm
07:04 PM 51.1°F10.6°C 46.1°F7.8°C 83% 0.7 mph SW1.1 kmh SW 4.0 mph6.4 kmh 29.79 in1008.8 mb 0.00 in0.0 mm 0.00 in/hr0.0 mm/hr 0.17 in4.3 mm
07:03 PM 51.1°F10.6°C 46.1°F7.8°C 83% 0.7 mph SW1.1 kmh SW 4.0 mph6.4 kmh 29.79 in1008.8 mb 0.00 in0.0 mm 0.00 in/hr0.0 mm/hr 0.17 in4.3 mm
07:02 PM 51.1°F10.6°C 46.1°F7.8°C 83% 0.7 mph SW1.1 kmh SW 4.0 mph6.4 kmh 29.79 in1008.8 mb 0.00 in0.0 mm 0.00 in/hr0.0 mm/hr 0.17 in4.3 mm
07:01 PM 51.3°F10.7°C 46.3°F7.9°C 83% 0.7 mph SW1.1 kmh SW 4.0 mph6.4 kmh 29.78 in1008.5 mb 0.00 in0.0 mm 0.00 in/hr0.0 mm/hr 0.17 in4.3 mm
07:00 PM 51.3°F10.7°C 46.3°F7.9°C 83% 0.7 mph SW1.1 kmh SW 4.0 mph6.4 kmh 29.79 in1008.8 mb 0.00 in0.0 mm 0.00 in/hr0.0 mm/hr 0.17 in4.3 mm
06:59 PM 51.3°F10.7°C 46.3°F7.9°C 83% 0.7 mph SW1.1 kmh SW 4.0 mph6.4 kmh 29.79 in1008.8 mb 0.00 in0.0 mm 0.00 in/hr0.0 mm/hr 0.17 in4.3 mm
06:58 PM 51.4°F10.8°C 46.1°F7.8°C 82% 0.7 mph SW1.1 kmh SW 4.0 mph6.4 kmh 29.79 in1008.8 mb 0.00 in0.0 mm 0.00 in/hr0.0 mm/hr 0.17 in4.3 mm
06:57 PM 51.4°F10.8°C 46.1°F7.8°C 82% 0.7 mph SW1.1 kmh SW 4.0 mph6.4 kmh 29.79 in1008.8 mb 0.00 in0.0 mm 0.00 in/hr0.0 mm/hr 0.17 in4.3 mm
06:56 PM 51.4°F10.8°C 46.1°F7.8°C 82% 0.7 mph SW1.1 kmh SW 4.0 mph6.4 kmh 29.79 in1008.8 mb 0.00 in0.0 mm 0.00 in/hr0.0 mm/hr 0.17 in4.3 mm
06:55 PM 51.3°F10.7°C 46.0°F7.8°C 82% 0.5 mph S0.8 kmh S 4.0 mph6.4 kmh 29.79 in1008.8 mb 0.00 in0.0 mm 0.00 in/hr0.0 mm/hr 0.17 in4.3 mm
06:54 PM 51.3°F10.7°C 46.0°F7.8°C 82% 0.1 mph S0.2 kmh S 1.6 mph2.6 kmh 29.79 in1008.8 mb 0.00 in0.0 mm 0.00 in/hr0.0 mm/hr 0.17 in4.3 mm
06:53 PM 51.3°F10.7°C 46.0°F7.8°C 82% 0.2 mph S0.3 kmh S 1.6 mph2.6 kmh 29.79 in1008.8 mb 0.00 in0.0 mm 0.00 in/hr0.0 mm/hr 0.17 in4.3 mm
06:52 PM 51.3°F10.7°C 46.0°F7.8°C 82% 0.2 mph S0.3 kmh S 1.6 mph2.6 kmh 29.79 in1008.8 mb 0.00 in0.0 mm 0.00 in/hr0.0 mm/hr 0.17 in4.3 mm
06:51 PM 51.3°F10.7°C 46.3°F7.9°C 83% 0.2 mph S0.3 kmh S 1.6 mph2.6 kmh 29.79 in1008.8 mb 0.00 in0.0 mm 0.00 in/hr0.0 mm/hr 0.17 in4.3 mm
06:50 PM 51.4°F10.8°C 46.1°F7.8°C 82% 0.2 mph S0.3 kmh S 1.6 mph2.6 kmh 29.79 in1008.8 mb 0.00 in0.0 mm 0.00 in/hr0.0 mm/hr 0.17 in4.3 mm
06:49 PM 51.3°F10.7°C 46.0°F7.8°C 82% 0.2 mph S0.3 kmh S 1.6 mph2.6 kmh 29.79 in1008.8 mb 0.00 in0.0 mm 0.00 in/hr0.0 mm/hr 0.17 in4.3 mm
06:48 PM 51.4°F10.8°C 46.1°F7.8°C 82% 0.2 mph S0.3 kmh S 1.6 mph2.6 kmh 29.79 in1008.8 mb 0.00 in0.0 mm 0.00 in/hr0.0 mm/hr 0.17 in4.3 mm
06:47 PM 51.4°F10.8°C 46.1°F7.8°C 82% 0.2 mph S0.3 kmh S 1.6 mph2.6 kmh 29.80 in1009.1 mb 0.00 in0.0 mm 0.00 in/hr0.0 mm/hr 0.17 in4.3 mm
06:46 PM 51.4°F10.8°C 46.1°F7.8°C 82% 0.3 mph S0.5 kmh S 1.6 mph2.6 kmh 29.79 in1008.8 mb 0.00 in0.0 mm 0.00 in/hr0.0 mm/hr 0.17 in4.3 mm
06:45 PM 51.4°F10.8°C 46.1°F7.8°C 82% 0.3 mph S0.5 kmh S 1.6 mph2.6 kmh 29.79 in1008.8 mb 0.00 in0.0 mm 0.00 in/hr0.0 mm/hr 0.17 in4.3 mm
06:44 PM 51.3°F10.7°C 46.0°F7.8°C 82% 0.2 mph S0.3 kmh S 1.6 mph2.6 kmh 29.79 in1008.8 mb 0.00 in0.0 mm 0.00 in/hr0.0 mm/hr 0.17 in4.3 mm
06:43 PM 51.4°F10.8°C 46.1°F7.8°C 82% 0.1 mph N0.2 kmh N 0.8 mph1.3 kmh 29.79 in1008.8 mb 0.00 in0.0 mm 0.00 in/hr0.0 mm/hr 0.17 in4.3 mm
06:42 PM 51.3°F10.7°C 46.0°F7.8°C 82% 0.1 mph N0.2 kmh N 0.8 mph1.3 kmh 29.79 in1008.8 mb 0.00 in0.0 mm 0.00 in/hr0.0 mm/hr 0.17 in4.3 mm
06:41 PM 51.4°F10.8°C 46.1°F7.8°C 82% 0.2 mph WNW0.3 kmh WNW 2.4 mph3.9 kmh 29.79 in1008.8 mb 0.00 in0.0 mm 0.00 in/hr0.0 mm/hr 0.17 in4.3 mm
06:40 PM 51.4°F10.8°C 46.1°F7.8°C 82% 0.4 mph W0.6 kmh W 2.4 mph3.9 kmh 29.79 in1008.8 mb 0.00 in0.0 mm 0.00 in/hr0.0 mm/hr 0.17 in4.3 mm
06:39 PM 51.4°F10.8°C 46.1°F7.8°C 82% 0.5 mph WSW0.8 kmh WSW 2.4 mph3.9 kmh 29.79 in1008.8 mb 0.00 in0.0 mm 0.00 in/hr0.0 mm/hr 0.17 in4.3 mm
06:38 PM 51.4°F10.8°C 46.1°F7.8°C 82% 0.5 mph WSW0.8 kmh WSW 2.4 mph3.9 kmh 29.80 in1009.1 mb 0.00 in0.0 mm 0.00 in/hr0.0 mm/hr 0.17 in4.3 mm
06:37 PM 51.4°F10.8°C 46.1°F7.8°C 82% 0.5 mph WSW0.8 kmh WSW 2.4 mph3.9 kmh 29.79 in1008.8 mb 0.00 in0.0 mm 0.00 in/hr0.0 mm/hr 0.17 in4.3 mm
06:36 PM 51.4°F10.8°C 46.1°F7.8°C 82% 0.4 mph WSW0.6 kmh WSW 2.4 mph3.9 kmh 29.79 in1008.8 mb 0.00 in0.0 mm 0.00 in/hr0.0 mm/hr 0.17 in4.3 mm
06:35 PM 51.4°F10.8°C 46.1°F7.8°C 82% 0.6 mph WSW1.0 kmh WSW 2.4 mph3.9 kmh 29.79 in1008.8 mb 0.00 in0.0 mm 0.00 in/hr0.0 mm/hr 0.17 in4.3 mm
06:34 PM 51.6°F10.9°C 46.3°F7.9°C 82% 0.8 mph SW1.3 kmh SW 2.4 mph3.9 kmh 29.79 in1008.8 mb 0.00 in0.0 mm 0.00 in/hr0.0 mm/hr 0.17 in4.3 mm
06:33 PM 51.6°F10.9°C 46.3°F7.9°C 82% 0.9 mph SW1.4 kmh SW 2.4 mph3.9 kmh 29.79 in1008.8 mb 0.00 in0.0 mm 0.00 in/hr0.0 mm/hr 0.17 in4.3 mm
06:32 PM 51.6°F10.9°C 46.3°F7.9°C 82% 1.0 mph SW1.6 kmh SW 2.4 mph3.9 kmh 29.79 in1008.8 mb 0.00 in0.0 mm 0.00 in/hr0.0 mm/hr 0.17 in4.3 mm
06:31 PM 51.4°F10.8°C 46.1°F7.8°C 82% 1.0 mph SW1.6 kmh SW 2.4 mph3.9 kmh 29.79 in1008.8 mb 0.01 in0.3 mm 0.00 in/hr0.0 mm/hr 0.17 in4.3 mm
06:30 PM 51.4°F10.8°C 46.1°F7.8°C 82% 1.1 mph S1.8 kmh S 2.4 mph3.9 kmh 29.79 in1008.8 mb 0.01 in0.3 mm 0.00 in/hr0.0 mm/hr 0.17 in4.3 mm
06:29 PM 51.4°F10.8°C 45.8°F7.7°C 81% 1.0 mph S1.6 kmh S 2.4 mph3.9 kmh 29.79 in1008.8 mb 0.01 in0.3 mm 0.00 in/hr0.0 mm/hr 0.17 in4.3 mm
06:28 PM 51.4°F10.8°C 45.8°F7.7°C 81% 1.1 mph S1.8 kmh S 2.4 mph3.9 kmh 29.79 in1008.8 mb 0.01 in0.3 mm 0.00 in/hr0.0 mm/hr 0.17 in4.3 mm
06:27 PM 51.4°F10.8°C 45.8°F7.7°C 81% 1.2 mph SSW1.9 kmh SSW 2.4 mph3.9 kmh 29.79 in1008.8 mb 0.01 in0.3 mm 0.00 in/hr0.0 mm/hr 0.17 in4.3 mm
06:26 PM 51.4°F10.8°C 45.8°F7.7°C 81% 1.3 mph SSW2.1 kmh SSW 2.4 mph3.9 kmh 29.79 in1008.8 mb 0.01 in0.3 mm 0.00 in/hr0.0 mm/hr 0.17 in4.3 mm
06:25 PM 51.4°F10.8°C 45.8°F7.7°C 81% 1.2 mph S1.9 kmh S 2.4 mph3.9 kmh 29.79 in1008.8 mb 0.01 in0.3 mm 0.00 in/hr0.0 mm/hr 0.17 in4.3 mm
06:24 PM 51.4°F10.8°C 45.8°F7.7°C 81% 1.2 mph SSW1.9 kmh SSW 2.4 mph3.9 kmh 29.78 in1008.5 mb 0.01 in0.3 mm 0.00 in/hr0.0 mm/hr 0.17 in4.3 mm
06:23 PM 51.4°F10.8°C 45.8°F7.7°C 81% 1.2 mph SSW1.9 kmh SSW 2.4 mph3.9 kmh 29.78 in1008.5 mb 0.01 in0.3 mm 0.00 in/hr0.0 mm/hr 0.17 in4.3 mm
06:22 PM 51.6°F10.9°C 46.0°F7.8°C 81% 1.1 mph SSW1.8 kmh SSW 2.4 mph3.9 kmh 29.78 in1008.5 mb 0.01 in0.3 mm 0.00 in/hr0.0 mm/hr 0.17 in4.3 mm
06:21 PM 51.6°F10.9°C 46.0°F7.8°C 81% 0.9 mph SSW1.4 kmh SSW 2.4 mph3.9 kmh 29.78 in1008.5 mb 0.01 in0.3 mm 0.00 in/hr0.0 mm/hr 0.17 in4.3 mm
06:20 PM 51.6°F10.9°C 46.3°F7.9°C 82% 0.7 mph SW1.1 kmh SW 2.4 mph3.9 kmh 29.79 in1008.8 mb 0.01 in0.3 mm 0.00 in/hr0.0 mm/hr 0.17 in4.3 mm
06:19 PM 51.4°F10.8°C 46.1°F7.8°C 82% 0.6 mph SW1.0 kmh SW 2.4 mph3.9 kmh 29.79 in1008.8 mb 0.01 in0.3 mm 0.00 in/hr0.0 mm/hr 0.17 in4.3 mm
06:18 PM 51.3°F10.7°C 46.0°F7.8°C 82% 0.7 mph WSW1.1 kmh WSW 2.4 mph3.9 kmh 29.78 in1008.5 mb 0.01 in0.3 mm 0.00 in/hr0.0 mm/hr 0.17 in4.3 mm
06:17 PM 51.3°F10.7°C 46.0°F7.8°C 82% 0.8 mph SW1.3 kmh SW 2.4 mph3.9 kmh 29.78 in1008.5 mb 0.01 in0.3 mm 0.00 in/hr0.0 mm/hr 0.17 in4.3 mm
06:16 PM 51.3°F10.7°C 46.0°F7.8°C 82% 0.6 mph SSW1.0 kmh SSW 2.4 mph3.9 kmh 29.78 in1008.5 mb 0.01 in0.3 mm 0.00 in/hr0.0 mm/hr 0.17 in4.3 mm
06:15 PM 51.3°F10.7°C 46.0°F7.8°C 82% 0.6 mph SSW1.0 kmh SSW 2.4 mph3.9 kmh 29.79 in1008.8 mb 0.01 in0.3 mm 0.00 in/hr0.0 mm/hr 0.17 in4.3 mm
06:14 PM 51.4°F10.8°C 46.1°F7.8°C 82% 0.8 mph S1.3 kmh S 2.4 mph3.9 kmh 29.79 in1008.8 mb 0.01 in0.3 mm 0.00 in/hr0.0 mm/hr 0.17 in4.3 mm
06:13 PM 51.4°F10.8°C 46.1°F7.8°C 82% 0.7 mph S1.1 kmh S 2.4 mph3.9 kmh 29.79 in1008.8 mb 0.01 in0.3 mm 0.00 in/hr0.0 mm/hr 0.17 in4.3 mm
06:12 PM 51.6°F10.9°C 46.0°F7.8°C 81% 0.7 mph S1.1 kmh S 2.4 mph3.9 kmh 29.78 in1008.5 mb 0.01 in0.3 mm 0.00 in/hr0.0 mm/hr 0.17 in4.3 mm
06:11 PM 51.4°F10.8°C 45.8°F7.7°C 81% 0.7 mph S1.1 kmh S 2.4 mph3.9 kmh 29.78 in1008.5 mb 0.01 in0.3 mm 0.00 in/hr0.0 mm/hr 0.17 in4.3 mm
06:10 PM 51.6°F10.9°C 46.0°F7.8°C 81% 0.7 mph S1.1 kmh S 2.4 mph3.9 kmh 29.78 in1008.5 mb 0.01 in0.3 mm 0.00 in/hr0.0 mm/hr 0.17 in4.3 mm
06:09 PM 51.6°F10.9°C 46.0°F7.8°C 81% 0.7 mph S1.1 kmh S 2.4 mph3.9 kmh 29.78 in1008.5 mb 0.01 in0.3 mm 0.00 in/hr0.0 mm/hr 0.17 in4.3 mm
06:08 PM 51.4°F10.8°C 45.8°F7.7°C 81% 0.6 mph S1.0 kmh S 2.4 mph3.9 kmh 29.79 in1008.8 mb 0.01 in0.3 mm 0.00 in/hr0.0 mm/hr 0.17 in4.3 mm
06:07 PM 51.4°F10.8°C 45.8°F7.7°C 81% 0.4 mph S0.6 kmh S 2.4 mph3.9 kmh 29.79 in1008.8 mb 0.01 in0.3 mm 0.00 in/hr0.0 mm/hr 0.17 in4.3 mm
06:06 PM 51.4°F10.8°C 45.8°F7.7°C 81% 0.4 mph S0.6 kmh S 2.4 mph3.9 kmh 29.79 in1008.8 mb 0.01 in0.3 mm 0.00 in/hr0.0 mm/hr 0.17 in4.3 mm
06:05 PM 51.4°F10.8°C 45.8°F7.7°C 81% 0.5 mph S0.8 kmh S 2.4 mph3.9 kmh 29.78 in1008.5 mb 0.01 in0.3 mm 0.00 in/hr0.0 mm/hr 0.17 in4.3 mm
06:04 PM 51.4°F10.8°C 45.8°F7.7°C 81% 0.3 mph S0.5 kmh S 2.4 mph3.9 kmh 29.79 in1008.8 mb 0.01 in0.3 mm 0.00 in/hr0.0 mm/hr 0.17 in4.3 mm
06:03 PM 51.4°F10.8°C 45.8°F7.7°C 81% 0.3 mph NW0.5 kmh NW 1.6 mph2.6 kmh 29.79 in1008.8 mb 0.01 in0.3 mm 0.00 in/hr0.0 mm/hr 0.17 in4.3 mm
06:02 PM 51.4°F10.8°C 46.1°F7.8°C 82% 0.5 mph NW0.8 kmh NW 1.6 mph2.6 kmh 29.78 in1008.5 mb 0.01 in0.3 mm 0.00 in/hr0.0 mm/hr 0.17 in4.3 mm
06:01 PM 51.4°F10.8°C 46.1°F7.8°C 82% 0.7 mph SSW1.1 kmh SSW 2.4 mph3.9 kmh 29.79 in1008.8 mb 0.01 in0.3 mm 0.00 in/hr0.0 mm/hr 0.17 in4.3 mm
06:00 PM 51.4°F10.8°C 46.1°F7.8°C 82% 0.8 mph SW1.3 kmh SW 2.4 mph3.9 kmh 29.79 in1008.8 mb 0.01 in0.3 mm 0.00 in/hr0.0 mm/hr 0.17 in4.3 mm
05:59 PM 51.4°F10.8°C 46.1°F7.8°C 82% 1.0 mph NW1.6 kmh NW 2.4 mph3.9 kmh 29.78 in1008.5 mb 0.01 in0.3 mm 0.00 in/hr0.0 mm/hr 0.17 in4.3 mm
05:58 PM 51.4°F10.8°C 46.1°F7.8°C 82% 1.1 mph SW1.8 kmh SW 2.4 mph3.9 kmh 29.78 in1008.5 mb 0.01 in0.3 mm 0.00 in/hr0.0 mm/hr 0.17 in4.3 mm
05:57 PM 51.4°F10.8°C 46.1°F7.8°C 82% 1.1 mph SW1.8 kmh SW 2.4 mph3.9 kmh 29.78 in1008.5 mb 0.01 in0.3 mm 0.00 in/hr0.0 mm/hr 0.17 in4.3 mm
05:56 PM 51.4°F10.8°C 46.1°F7.8°C 82% 1.2 mph SSW1.9 kmh SSW 2.4 mph3.9 kmh 29.79 in1008.8 mb 0.01 in0.3 mm 0.00 in/hr0.0 mm/hr 0.17 in4.3 mm
05:55 PM 51.4°F10.8°C 46.1°F7.8°C 82% 1.1 mph SW1.8 kmh SW 2.4 mph3.9 kmh 29.78 in1008.5 mb 0.01 in0.3 mm 0.00 in/hr0.0 mm/hr 0.17 in4.3 mm
05:54 PM 51.6°F10.9°C 46.3°F7.9°C 82% 1.2 mph SSW1.9 kmh SSW 2.4 mph3.9 kmh 29.78 in1008.5 mb 0.01 in0.3 mm 0.00 in/hr0.0 mm/hr 0.17 in4.3 mm
05:53 PM 51.8°F11.0°C 46.2°F7.9°C 81% 1.3 mph SW2.1 kmh SW 2.4 mph3.9 kmh 29.78 in1008.5 mb 0.01 in0.3 mm 0.00 in/hr0.0 mm/hr 0.17 in4.3 mm
05:52 PM 51.8°F11.0°C 45.8°F7.7°C 80% 1.2 mph SW1.9 kmh SW 2.4 mph3.9 kmh 29.78 in1008.5 mb 0.01 in0.3 mm 0.00 in/hr0.0 mm/hr 0.17 in4.3 mm
05:51 PM 51.8°F11.0°C 45.8°F7.7°C 80% 0.9 mph WSW1.4 kmh WSW 2.4 mph3.9 kmh 29.78 in1008.5 mb 0.01 in0.3 mm 0.00 in/hr0.0 mm/hr 0.17 in4.3 mm
05:50 PM 52.0°F11.1°C 46.0°F7.8°C 80% 1.0 mph WSW1.6 kmh WSW 2.4 mph3.9 kmh 29.78 in1008.5 mb 0.01 in0.3 mm 0.00 in/hr0.0 mm/hr 0.17 in4.3 mm
05:49 PM 51.8°F11.0°C 46.2°F7.9°C 81% 0.9 mph SW1.4 kmh SW 2.4 mph3.9 kmh 29.78 in1008.5 mb 0.01 in0.3 mm 0.00 in/hr0.0 mm/hr 0.17 in4.3 mm
05:48 PM 52.0°F11.1°C 46.3°F7.9°C 81% 1.1 mph NNW1.8 kmh NNW 4.0 mph6.4 kmh 29.78 in1008.5 mb 0.01 in0.3 mm 0.00 in/hr0.0 mm/hr 0.17 in4.3 mm
05:47 PM 52.0°F11.1°C 46.0°F7.8°C 80% 1.5 mph W2.4 kmh W 4.0 mph6.4 kmh 29.78 in1008.5 mb 0.01 in0.3 mm 0.00 in/hr0.0 mm/hr 0.17 in4.3 mm
05:46 PM 52.0°F11.1°C 46.3°F7.9°C 81% 1.5 mph NW2.4 kmh NW 4.0 mph6.4 kmh 29.78 in1008.5 mb 0.01 in0.3 mm 0.00 in/hr0.0 mm/hr 0.17 in4.3 mm
05:45 PM 51.8°F11.0°C 46.2°F7.9°C 81% 1.4 mph NNW2.3 kmh NNW 4.0 mph6.4 kmh 29.78 in1008.5 mb 0.01 in0.3 mm 0.00 in/hr0.0 mm/hr 0.17 in4.3 mm
05:44 PM 52.0°F11.1°C 46.3°F7.9°C 81% 1.3 mph N2.1 kmh N 4.0 mph6.4 kmh 29.78 in1008.5 mb 0.01 in0.3 mm 0.00 in/hr0.0 mm/hr 0.17 in4.3 mm
05:43 PM 52.0°F11.1°C 46.0°F7.8°C 80% 1.3 mph NNE2.1 kmh NNE 4.0 mph6.4 kmh 29.78 in1008.5 mb 0.01 in0.3 mm 0.00 in/hr0.0 mm/hr 0.17 in4.3 mm
05:42 PM 52.0°F11.1°C 46.0°F7.8°C 80% 1.4 mph NNE2.3 kmh NNE 4.0 mph6.4 kmh 29.78 in1008.5 mb 0.01 in0.3 mm 0.00 in/hr0.0 mm/hr 0.17 in4.3 mm
05:41 PM 52.0°F11.1°C 46.0°F7.8°C 80% 1.5 mph NNE2.4 kmh NNE 4.0 mph6.4 kmh 29.78 in1008.5 mb 0.01 in0.3 mm 0.00 in/hr0.0 mm/hr 0.17 in4.3 mm
05:40 PM 52.2°F11.2°C 46.2°F7.9°C 80% 1.6 mph NNE2.6 kmh NNE 4.0 mph6.4 kmh 29.78 in1008.5 mb 0.01 in0.3 mm 0.00 in/hr0.0 mm/hr 0.17 in4.3 mm
05:39 PM 52.0°F11.1°C 46.0°F7.8°C 80% 1.5 mph NNE2.4 kmh NNE 4.0 mph6.4 kmh 29.79 in1008.8 mb 0.01 in0.3 mm 0.00 in/hr0.0 mm/hr 0.17 in4.3 mm
05:38 PM 52.0°F11.1°C 46.0°F7.8°C 80% 1.2 mph NW1.9 kmh NW 4.0 mph6.4 kmh 29.78 in1008.5 mb 0.01 in0.3 mm 0.00 in/hr0.0 mm/hr 0.17 in4.3 mm
05:37 PM 52.0°F11.1°C 46.0°F7.8°C 80% 0.6 mph ENE1.0 kmh ENE 2.4 mph3.9 kmh 29.78 in1008.5 mb 0.01 in0.3 mm 0.00 in/hr0.0 mm/hr 0.17 in4.3 mm
05:36 PM 52.0°F11.1°C 46.0°F7.8°C 80% 0.4 mph N0.6 kmh N 2.4 mph3.9 kmh 29.78 in1008.5 mb 0.01 in0.3 mm 0.00 in/hr0.0 mm/hr 0.17 in4.3 mm
05:35 PM 52.0°F11.1°C 46.0°F7.8°C 80% 0.5 mph N0.8 kmh N 2.4 mph3.9 kmh 29.78 in1008.5 mb 0.01 in0.3 mm 0.00 in/hr0.0 mm/hr 0.17 in4.3 mm
05:34 PM 52.0°F11.1°C 46.0°F7.8°C 80% 0.6 mph N1.0 kmh N 2.4 mph3.9 kmh 29.77 in1008.1 mb 0.01 in0.3 mm 0.30 in/hr7.6 mm/hr 0.17 in4.3 mm
05:32 PM 50.9°F10.5°C 45.0°F7.2°C 80% 2.9 mph SE4.7 kmh SE 4.8 mph7.7 kmh 29.77 in1008.1 mb 0.00 in0.0 mm 0.00 in/hr0.0 mm/hr 0.15 in3.8 mm
05:31 PM 50.9°F10.5°C 45.0°F7.2°C 80% 2.9 mph SE4.7 kmh SE 4.8 mph7.7 kmh 29.77 in1008.1 mb 0.00 in0.0 mm 0.00 in/hr0.0 mm/hr 0.15 in3.8 mm
05:30 PM 50.9°F10.5°C 45.0°F7.2°C 80% 2.9 mph SE4.7 kmh SE 4.8 mph7.7 kmh 29.77 in1008.1 mb 0.00 in0.0 mm 0.00 in/hr0.0 mm/hr 0.15 in3.8 mm
05:29 PM 50.9°F10.5°C 45.0°F7.2°C 80% 2.9 mph SE4.7 kmh SE 4.8 mph7.7 kmh 29.77 in1008.1 mb 0.00 in0.0 mm 0.00 in/hr0.0 mm/hr 0.15 in3.8 mm
05:28 PM 50.9°F10.5°C 45.0°F7.2°C 80% 2.9 mph SE4.7 kmh SE 4.8 mph7.7 kmh 29.77 in1008.1 mb 0.00 in0.0 mm 0.00 in/hr0.0 mm/hr 0.15 in3.8 mm
05:27 PM 50.9°F10.5°C 45.0°F7.2°C 80% 2.9 mph SE4.7 kmh SE 4.8 mph7.7 kmh 29.77 in1008.1 mb 0.00 in0.0 mm 0.00 in/hr0.0 mm/hr 0.15 in3.8 mm
05:26 PM 50.9°F10.5°C 45.0°F7.2°C 80% 2.9 mph SE4.7 kmh SE 4.8 mph7.7 kmh 29.77 in1008.1 mb 0.00 in0.0 mm 0.00 in/hr0.0 mm/hr 0.15 in3.8 mm
05:25 PM 50.9°F10.5°C 45.0°F7.2°C 80% 2.9 mph SE4.7 kmh SE 4.8 mph7.7 kmh 29.77 in1008.1 mb 0.00 in0.0 mm 0.00 in/hr0.0 mm/hr 0.15 in3.8 mm
05:24 PM 50.9°F10.5°C 45.0°F7.2°C 80% 2.9 mph SE4.7 kmh SE 4.8 mph7.7 kmh 29.77 in1008.1 mb 0.00 in0.0 mm 0.00 in/hr0.0 mm/hr 0.15 in3.8 mm
05:23 PM 50.9°F10.5°C 45.0°F7.2°C 80% 2.9 mph SE4.7 kmh SE 4.8 mph7.7 kmh 29.77 in1008.1 mb 0.00 in0.0 mm 0.00 in/hr0.0 mm/hr 0.15 in3.8 mm
05:22 PM 50.9°F10.5°C 45.0°F7.2°C 80% 2.9 mph SE4.7 kmh SE 4.8 mph7.7 kmh 29.77 in1008.1 mb 0.00 in0.0 mm 0.00 in/hr0.0 mm/hr 0.15 in3.8 mm
05:21 PM 50.9°F10.5°C 45.0°F7.2°C 80% 2.9 mph SE4.7 kmh SE 4.8 mph7.7 kmh 29.77 in1008.1 mb 0.00 in0.0 mm 0.00 in/hr0.0 mm/hr 0.15 in3.8 mm
05:20 PM 50.9°F10.5°C 45.0°F7.2°C 80% 2.9 mph SE4.7 kmh SE 4.8 mph7.7 kmh 29.77 in1008.1 mb 0.00 in0.0 mm 0.00 in/hr0.0 mm/hr 0.15 in3.8 mm
05:19 PM 50.9°F10.5°C 45.0°F7.2°C 80% 2.9 mph SE4.7 kmh SE 4.8 mph7.7 kmh 29.77 in1008.1 mb 0.00 in0.0 mm 0.00 in/hr0.0 mm/hr 0.15 in3.8 mm
05:18 PM 50.9°F10.5°C 45.0°F7.2°C 80% 2.9 mph SE4.7 kmh SE 4.8 mph7.7 kmh 29.77 in1008.1 mb 0.00 in0.0 mm 0.00 in/hr0.0 mm/hr 0.15 in3.8 mm
05:17 PM 50.9°F10.5°C 45.0°F7.2°C 80% 2.9 mph SE4.7 kmh SE 4.8 mph7.7 kmh 29.77 in1008.1 mb 0.00 in0.0 mm 0.00 in/hr0.0 mm/hr 0.15 in3.8 mm
05:16 PM 50.9°F10.5°C 45.0°F7.2°C 80% 2.9 mph SE4.7 kmh SE 4.8 mph7.7 kmh 29.77 in1008.1 mb 0.00 in0.0 mm 0.00 in/hr0.0 mm/hr 0.15 in3.8 mm
05:15 PM 50.9°F10.5°C 45.0°F7.2°C 80% 2.9 mph SE4.7 kmh SE 4.8 mph7.7 kmh 29.77 in1008.1 mb 0.00 in0.0 mm 0.00 in/hr0.0 mm/hr 0.15 in3.8 mm
05:14 PM 50.9°F10.5°C 45.0°F7.2°C 80% 2.9 mph SE4.7 kmh SE 4.8 mph7.7 kmh 29.77 in1008.1 mb 0.00 in0.0 mm 0.00 in/hr0.0 mm/hr 0.15 in3.8 mm
05:13 PM 50.9°F10.5°C 45.0°F7.2°C 80% 2.9 mph SE4.7 kmh SE 4.8 mph7.7 kmh 29.77 in1008.1 mb 0.00 in0.0 mm 0.00 in/hr0.0 mm/hr 0.15 in3.8 mm
05:12 PM 50.9°F10.5°C 45.0°F7.2°C 80% 2.9 mph SE4.7 kmh SE 4.8 mph7.7 kmh 29.77 in1008.1 mb 0.00 in0.0 mm 0.00 in/hr0.0 mm/hr 0.15 in3.8 mm
05:11 PM 50.9°F10.5°C 45.0°F7.2°C 80% 2.9 mph SE4.7 kmh SE 4.8 mph7.7 kmh 29.77 in1008.1 mb 0.00 in0.0 mm 0.00 in/hr0.0 mm/hr 0.15 in3.8 mm
05:10 PM 50.9°F10.5°C 45.0°F7.2°C 80% 2.9 mph SE4.7 kmh SE 4.8 mph7.7 kmh 29.77 in1008.1 mb 0.00 in0.0 mm 0.00 in/hr0.0 mm/hr 0.15 in3.8 mm
05:09 PM 50.9°F10.5°C 45.0°F7.2°C 80% 2.9 mph SE4.7 kmh SE 4.8 mph7.7 kmh 29.77 in1008.1 mb 0.00 in0.0 mm 0.00 in/hr0.0 mm/hr 0.15 in3.8 mm
05:08 PM 50.9°F10.5°C 45.0°F7.2°C 80% 2.9 mph SE4.7 kmh SE 4.8 mph7.7 kmh 29.77 in1008.1 mb 0.00 in0.0 mm 0.00 in/hr0.0 mm/hr 0.15 in3.8 mm
05:07 PM 50.9°F10.5°C 45.0°F7.2°C 80% 2.9 mph SE4.7 kmh SE 4.8 mph7.7 kmh 29.77 in1008.1 mb 0.00 in0.0 mm 0.00 in/hr0.0 mm/hr 0.15 in3.8 mm
05:06 PM 50.9°F10.5°C 45.0°F7.2°C 80% 2.9 mph SE4.7 kmh SE 4.8 mph7.7 kmh 29.77 in1008.1 mb 0.00 in0.0 mm 0.00 in/hr0.0 mm/hr 0.15 in3.8 mm
05:05 PM 50.9°F10.5°C 45.0°F7.2°C 80% 2.9 mph SE4.7 kmh SE 4.8 mph7.7 kmh 29.77 in1008.1 mb 0.00 in0.0 mm 0.00 in/hr0.0 mm/hr 0.15 in3.8 mm
05:04 PM 50.9°F10.5°C 45.0°F7.2°C 80% 2.9 mph SE4.7 kmh SE 4.8 mph7.7 kmh 29.77 in1008.1 mb 0.00 in0.0 mm 0.00 in/hr0.0 mm/hr 0.15 in3.8 mm
05:03 PM 50.9°F10.5°C 45.0°F7.2°C 80% 2.9 mph SE4.7 kmh SE 4.8 mph7.7 kmh 29.77 in1008.1 mb 0.00 in0.0 mm 0.00 in/hr0.0 mm/hr 0.15 in3.8 mm
05:02 PM 50.9°F10.5°C 45.0°F7.2°C 80% 2.9 mph SE4.7 kmh SE 4.8 mph7.7 kmh 29.77 in1008.1 mb 0.00 in0.0 mm 0.00 in/hr0.0 mm/hr 0.15 in3.8 mm
05:01 PM 50.9°F10.5°C 45.0°F7.2°C 80% 2.9 mph SE4.7 kmh SE 4.8 mph7.7 kmh 29.77 in1008.1 mb 0.00 in0.0 mm 0.00 in/hr0.0 mm/hr 0.15 in3.8 mm
05:00 PM 50.9°F10.5°C 45.0°F7.2°C 80% 2.9 mph SE4.7 kmh SE 4.8 mph7.7 kmh 29.77 in1008.1 mb 0.00 in0.0 mm 0.00 in/hr0.0 mm/hr 0.15 in3.8 mm
04:59 PM 50.9°F10.5°C 45.0°F7.2°C 80% 2.9 mph SE4.7 kmh SE 4.8 mph7.7 kmh 29.77 in1008.1 mb 0.00 in0.0 mm 0.00 in/hr0.0 mm/hr 0.15 in3.8 mm
04:58 PM 50.9°F10.5°C 45.0°F7.2°C 80% 2.9 mph SE4.7 kmh SE 4.8 mph7.7 kmh 29.77 in1008.1 mb 0.00 in0.0 mm 0.00 in/hr0.0 mm/hr 0.15 in3.8 mm
04:57 PM 50.9°F10.5°C 45.0°F7.2°C 80% 2.9 mph SE4.7 kmh SE 4.8 mph7.7 kmh 29.77 in1008.1 mb 0.00 in0.0 mm 0.00 in/hr0.0 mm/hr 0.15 in3.8 mm
04:56 PM 50.9°F10.5°C 45.0°F7.2°C 80% 2.9 mph SE4.7 kmh SE 4.8 mph7.7 kmh 29.77 in1008.1 mb 0.00 in0.0 mm 0.00 in/hr0.0 mm/hr 0.15 in3.8 mm
04:55 PM 50.9°F10.5°C 45.0°F7.2°C 80% 2.9 mph SE4.7 kmh SE 4.8 mph7.7 kmh 29.77 in1008.1 mb 0.00 in0.0 mm 0.00 in/hr0.0 mm/hr 0.15 in3.8 mm
04:54 PM 50.9°F10.5°C 45.0°F7.2°C 80% 2.9 mph SE4.7 kmh SE 4.8 mph7.7 kmh 29.77 in1008.1 mb 0.00 in0.0 mm 0.00 in/hr0.0 mm/hr 0.15 in3.8 mm
04:53 PM 50.9°F10.5°C 45.0°F7.2°C 80% 2.9 mph SE4.7 kmh SE 4.8 mph7.7 kmh 29.77 in1008.1 mb 0.00 in0.0 mm 0.00 in/hr0.0 mm/hr 0.15 in3.8 mm
04:52 PM 50.9°F10.5°C 45.0°F7.2°C 80% 2.9 mph SE4.7 kmh SE 4.8 mph7.7 kmh 29.77 in1008.1 mb 0.00 in0.0 mm 0.00 in/hr0.0 mm/hr 0.15 in3.8 mm
04:51 PM 50.9°F10.5°C 45.0°F7.2°C 80% 2.9 mph SE4.7 kmh SE 4.8 mph7.7 kmh 29.77 in1008.1 mb 0.00 in0.0 mm 0.00 in/hr0.0 mm/hr 0.15 in3.8 mm
04:50 PM 50.9°F10.5°C 45.0°F7.2°C 80% 2.9 mph SE4.7 kmh SE 4.8 mph7.7 kmh 29.77 in1008.1 mb 0.00 in0.0 mm 0.00 in/hr0.0 mm/hr 0.15 in3.8 mm
04:49 PM 50.9°F10.5°C 45.0°F7.2°C 80% 2.9 mph SE4.7 kmh SE 4.8 mph7.7 kmh 29.77 in1008.1 mb 0.00 in0.0 mm 0.00 in/hr0.0 mm/hr 0.15 in3.8 mm
04:48 PM 50.9°F10.5°C 45.0°F7.2°C 80% 2.9 mph SE4.7 kmh SE 4.8 mph7.7 kmh 29.77 in1008.1 mb 0.00 in0.0 mm 0.00 in/hr0.0 mm/hr 0.15 in3.8 mm
04:47 PM 50.9°F10.5°C 45.0°F7.2°C 80% 2.9 mph SE4.7 kmh SE 4.8 mph7.7 kmh 29.77 in1008.1 mb 0.00 in0.0 mm 0.00 in/hr0.0 mm/hr 0.15 in3.8 mm
04:46 PM 50.9°F10.5°C 45.0°F7.2°C 80% 2.9 mph SE4.7 kmh SE 4.8 mph7.7 kmh 29.77 in1008.1 mb 0.00 in0.0 mm 0.00 in/hr0.0 mm/hr 0.15 in3.8 mm
04:45 PM 50.9°F10.5°C 45.0°F7.2°C 80% 2.9 mph SE4.7 kmh SE 4.8 mph7.7 kmh 29.77 in1008.1 mb 0.00 in0.0 mm 0.00 in/hr0.0 mm/hr 0.15 in3.8 mm
04:44 PM 50.9°F10.5°C 45.0°F7.2°C 80% 2.9 mph SE4.7 kmh SE 4.8 mph7.7 kmh 29.77 in1008.1 mb 0.00 in0.0 mm 0.00 in/hr0.0 mm/hr 0.15 in3.8 mm
04:43 PM 50.9°F10.5°C 45.0°F7.2°C 80% 2.9 mph SE4.7 kmh SE 4.8 mph7.7 kmh 29.77 in1008.1 mb 0.00 in0.0 mm 0.00 in/hr0.0 mm/hr 0.15 in3.8 mm
04:42 PM 50.9°F10.5°C 45.0°F7.2°C 80% 2.9 mph SE4.7 kmh SE 4.8 mph7.7 kmh 29.77 in1008.1 mb 0.00 in0.0 mm 0.00 in/hr0.0 mm/hr 0.15 in3.8 mm
04:41 PM 50.9°F10.5°C 45.0°F7.2°C 80% 2.9 mph SE4.7 kmh SE 4.8 mph7.7 kmh 29.77 in1008.1 mb 0.00 in0.0 mm 0.00 in/hr0.0 mm/hr 0.15 in3.8 mm
04:40 PM 50.9°F10.5°C 45.0°F7.2°C 80% 2.9 mph SE4.7 kmh SE 4.8 mph7.7 kmh 29.77 in1008.1 mb 0.00 in0.0 mm 0.00 in/hr0.0 mm/hr 0.15 in3.8 mm
04:39 PM 50.9°F10.5°C 45.0°F7.2°C 80% 2.9 mph SE4.7 kmh SE 4.8 mph7.7 kmh 29.77 in1008.1 mb 0.00 in0.0 mm 0.00 in/hr0.0 mm/hr 0.15 in3.8 mm
04:38 PM 50.9°F10.5°C 45.0°F7.2°C 80% 2.9 mph SE4.7 kmh SE 4.8 mph7.7 kmh 29.77 in1008.1 mb 0.00 in0.0 mm 0.00 in/hr0.0 mm/hr 0.15 in3.8 mm
04:37 PM 50.9°F10.5°C 45.0°F7.2°C 80% 2.9 mph SE4.7 kmh SE 4.8 mph7.7 kmh 29.77 in1008.1 mb 0.00 in0.0 mm 0.00 in/hr0.0 mm/hr 0.15 in3.8 mm
04:36 PM 50.9°F10.5°C 45.0°F7.2°C 80% 2.9 mph SE4.7 kmh SE 4.8 mph7.7 kmh 29.77 in1008.1 mb 0.00 in0.0 mm 0.00 in/hr0.0 mm/hr 0.15 in3.8 mm
04:35 PM 50.9°F10.5°C 45.0°F7.2°C 80% 2.9 mph SE4.7 kmh SE 4.8 mph7.7 kmh 29.77 in1008.1 mb 0.00 in0.0 mm 0.00 in/hr0.0 mm/hr 0.15 in3.8 mm
04:34 PM 50.9°F10.5°C 45.0°F7.2°C 80% 2.9 mph SE4.7 kmh SE 4.8 mph7.7 kmh 29.77 in1008.1 mb 0.00 in0.0 mm 0.00 in/hr0.0 mm/hr 0.15 in3.8 mm
04:33 PM 50.9°F10.5°C 45.0°F7.2°C 80% 2.9 mph SE4.7 kmh SE 4.8 mph7.7 kmh 29.77 in1008.1 mb 0.00 in0.0 mm 0.00 in/hr0.0 mm/hr 0.15 in3.8 mm
04:32 PM 50.9°F10.5°C 45.0°F7.2°C 80% 2.9 mph SE4.7 kmh SE 4.8 mph7.7 kmh 29.77 in1008.1 mb 0.00 in0.0 mm 0.00 in/hr0.0 mm/hr 0.15 in3.8 mm
04:31 PM 50.9°F10.5°C 45.0°F7.2°C 80% 2.9 mph SE4.7 kmh SE 4.8 mph7.7 kmh 29.77 in1008.1 mb 0.00 in0.0 mm 0.00 in/hr0.0 mm/hr 0.15 in3.8 mm
04:30 PM 50.9°F10.5°C 45.0°F7.2°C 80% 2.9 mph SE4.7 kmh SE 4.8 mph7.7 kmh 29.77 in1008.1 mb 0.00 in0.0 mm 0.00 in/hr0.0 mm/hr 0.15 in3.8 mm
04:29 PM 50.9°F10.5°C 45.0°F7.2°C 80% 2.9 mph SE4.7 kmh SE 4.8 mph7.7 kmh 29.77 in1008.1 mb 0.00 in0.0 mm 0.00 in/hr0.0 mm/hr 0.15 in3.8 mm
04:28 PM 50.9°F10.5°C 45.0°F7.2°C 80% 2.9 mph SE4.7 kmh SE 4.8 mph7.7 kmh 29.77 in1008.1 mb 0.00 in0.0 mm 0.00 in/hr0.0 mm/hr 0.15 in3.8 mm
04:27 PM 50.9°F10.5°C 45.0°F7.2°C 80% 2.9 mph SE4.7 kmh SE 4.8 mph7.7 kmh 29.77 in1008.1 mb 0.00 in0.0 mm 0.00 in/hr0.0 mm/hr 0.15 in3.8 mm
04:26 PM 50.9°F10.5°C 45.0°F7.2°C 80% 2.9 mph SE4.7 kmh SE 4.8 mph7.7 kmh 29.77 in1008.1 mb 0.00 in0.0 mm 0.00 in/hr0.0 mm/hr 0.15 in3.8 mm
04:25 PM 50.9°F10.5°C 45.0°F7.2°C 80% 2.9 mph SE4.7 kmh SE 4.8 mph7.7 kmh 29.77 in1008.1 mb 0.00 in0.0 mm 0.00 in/hr0.0 mm/hr 0.15 in3.8 mm
04:24 PM 50.9°F10.5°C 45.0°F7.2°C 80% 2.9 mph SE4.7 kmh SE 4.8 mph7.7 kmh 29.77 in1008.1 mb 0.00 in0.0 mm 0.00 in/hr0.0 mm/hr 0.15 in3.8 mm
04:23 PM 50.9°F10.5°C 45.0°F7.2°C 80% 2.9 mph SE4.7 kmh SE 4.8 mph7.7 kmh 29.77 in1008.1 mb 0.00 in0.0 mm 0.00 in/hr0.0 mm/hr 0.15 in3.8 mm
04:22 PM 50.9°F10.5°C 45.0°F7.2°C 80% 2.9 mph SE4.7 kmh SE 4.8 mph7.7 kmh 29.77 in1008.1 mb 0.00 in0.0 mm 0.00 in/hr0.0 mm/hr 0.15 in3.8 mm
04:21 PM 50.9°F10.5°C 45.0°F7.2°C 80% 2.9 mph SE4.7 kmh SE 4.8 mph7.7 kmh 29.77 in1008.1 mb 0.00 in0.0 mm 0.00 in/hr0.0 mm/hr 0.15 in3.8 mm
04:20 PM 50.9°F10.5°C 45.0°F7.2°C 80% 2.9 mph SE4.7 kmh SE 4.8 mph7.7 kmh 29.77 in1008.1 mb 0.00 in0.0 mm 0.00 in/hr0.0 mm/hr 0.15 in3.8 mm
04:19 PM 50.9°F10.5°C 45.0°F7.2°C 80% 2.9 mph SE4.7 kmh SE 4.8 mph7.7 kmh 29.77 in1008.1 mb 0.00 in0.0 mm 0.00 in/hr0.0 mm/hr 0.15 in3.8 mm
04:18 PM 50.9°F10.5°C 45.0°F7.2°C 80% 2.9 mph SE4.7 kmh SE 4.8 mph7.7 kmh 29.77 in1008.1 mb 0.00 in0.0 mm 0.00 in/hr0.0 mm/hr 0.15 in3.8 mm
04:17 PM 50.9°F10.5°C 45.0°F7.2°C 80% 2.9 mph SE4.7 kmh SE 4.8 mph7.7 kmh 29.77 in1008.1 mb 0.00 in0.0 mm 0.00 in/hr0.0 mm/hr 0.15 in3.8 mm
04:16 PM 50.9°F10.5°C 45.0°F7.2°C 80% 2.9 mph SE4.7 kmh SE 4.8 mph7.7 kmh 29.77 in1008.1 mb 0.00 in0.0 mm 0.00 in/hr0.0 mm/hr 0.15 in3.8 mm
04:15 PM 50.9°F10.5°C 45.0°F7.2°C 80% 2.9 mph SE4.7 kmh SE 4.8 mph7.7 kmh 29.77 in1008.1 mb 0.00 in0.0 mm 0.00 in/hr0.0 mm/hr 0.15 in3.8 mm
04:14 PM 50.9°F10.5°C 45.0°F7.2°C 80% 2.9 mph SE4.7 kmh SE 4.8 mph7.7 kmh 29.77 in1008.1 mb 0.00 in0.0 mm 0.00 in/hr0.0 mm/hr 0.15 in3.8 mm
04:13 PM 50.9°F10.5°C 45.0°F7.2°C 80% 2.9 mph SE4.7 kmh SE 4.8 mph7.7 kmh 29.77 in1008.1 mb 0.00 in0.0 mm 0.00 in/hr0.0 mm/hr 0.15 in3.8 mm
04:12 PM 50.9°F10.5°C 45.0°F7.2°C 80% 2.9 mph SE4.7 kmh SE 4.8 mph7.7 kmh 29.77 in1008.1 mb 0.00 in0.0 mm 0.00 in/hr0.0 mm/hr 0.15 in3.8 mm
04:11 PM 50.9°F10.5°C 45.0°F7.2°C 80% 2.9 mph SE4.7 kmh SE 4.8 mph7.7 kmh 29.77 in1008.1 mb 0.00 in0.0 mm 0.00 in/hr0.0 mm/hr 0.15 in3.8 mm
04:10 PM 50.9°F10.5°C 45.0°F7.2°C 80% 2.9 mph SE4.7 kmh SE 4.8 mph7.7 kmh 29.77 in1008.1 mb 0.00 in0.0 mm 0.00 in/hr0.0 mm/hr 0.15 in3.8 mm
04:09 PM 50.9°F10.5°C 45.0°F7.2°C 80% 2.9 mph SE4.7 kmh SE 4.8 mph7.7 kmh 29.77 in1008.1 mb 0.00 in0.0 mm 0.00 in/hr0.0 mm/hr 0.15 in3.8 mm
04:08 PM 50.9°F10.5°C 45.0°F7.2°C 80% 2.9 mph SE4.7 kmh SE 4.8 mph7.7 kmh 29.77 in1008.1 mb 0.00 in0.0 mm 0.00 in/hr0.0 mm/hr 0.15 in3.8 mm
04:07 PM 50.9°F10.5°C 45.0°F7.2°C 80% 2.9 mph SE4.7 kmh SE 4.8 mph7.7 kmh 29.77 in1008.1 mb 0.00 in0.0 mm 0.00 in/hr0.0 mm/hr 0.15 in3.8 mm
04:06 PM 50.9°F10.5°C 45.0°F7.2°C 80% 2.9 mph SE4.7 kmh SE 4.8 mph7.7 kmh 29.77 in1008.1 mb 0.00 in0.0 mm 0.00 in/hr0.0 mm/hr 0.15 in3.8 mm
04:05 PM 50.9°F10.5°C 45.0°F7.2°C 80% 2.9 mph SE4.7 kmh SE 4.8 mph7.7 kmh 29.77 in1008.1 mb 0.00 in0.0 mm 0.00 in/hr0.0 mm/hr 0.15 in3.8 mm
04:04 PM 50.9°F10.5°C 45.0°F7.2°C 80% 2.9 mph SE4.7 kmh SE 4.8 mph7.7 kmh 29.77 in1008.1 mb 0.00 in0.0 mm 0.00 in/hr0.0 mm/hr 0.15 in3.8 mm
04:03 PM 50.9°F10.5°C 45.0°F7.2°C 80% 2.9 mph SE4.7 kmh SE 4.8 mph7.7 kmh 29.77 in1008.1 mb 0.00 in0.0 mm 0.00 in/hr0.0 mm/hr 0.15 in3.8 mm
04:02 PM 50.9°F10.5°C 45.0°F7.2°C 80% 2.9 mph SE4.7 kmh SE 4.8 mph7.7 kmh 29.77 in1008.1 mb 0.00 in0.0 mm 0.00 in/hr0.0 mm/hr 0.15 in3.8 mm
04:01 PM 50.9°F10.5°C 45.0°F7.2°C 80% 2.9 mph SE4.7 kmh SE 4.8 mph7.7 kmh 29.77 in1008.1 mb 0.00 in0.0 mm 0.00 in/hr0.0 mm/hr 0.15 in3.8 mm
04:00 PM 50.9°F10.5°C 45.0°F7.2°C 80% 2.9 mph SE4.7 kmh SE 4.8 mph7.7 kmh 29.77 in1008.1 mb 0.00 in0.0 mm 0.00 in/hr0.0 mm/hr 0.15 in3.8 mm
03:59 PM 50.9°F10.5°C 45.0°F7.2°C 80% 2.9 mph SE4.7 kmh SE 4.8 mph7.7 kmh 29.77 in1008.1 mb 0.00 in0.0 mm 0.00 in/hr0.0 mm/hr 0.15 in3.8 mm
03:58 PM 50.9°F10.5°C 45.0°F7.2°C 80% 2.9 mph SE4.7 kmh SE 4.8 mph7.7 kmh 29.77 in1008.1 mb 0.00 in0.0 mm 0.00 in/hr0.0 mm/hr 0.15 in3.8 mm
03:57 PM 50.9°F10.5°C 45.0°F7.2°C 80% 2.9 mph SE4.7 kmh SE 4.8 mph7.7 kmh 29.77 in1008.1 mb 0.00 in0.0 mm 0.00 in/hr0.0 mm/hr 0.15 in3.8 mm
03:56 PM 50.9°F10.5°C 45.0°F7.2°C 80% 2.9 mph SE4.7 kmh SE 4.8 mph7.7 kmh 29.77 in1008.1 mb 0.00 in0.0 mm 0.00 in/hr0.0 mm/hr 0.15 in3.8 mm
03:55 PM 50.9°F10.5°C 45.0°F7.2°C 80% 2.9 mph SE4.7 kmh SE 4.8 mph7.7 kmh 29.77 in1008.1 mb 0.00 in0.0 mm 0.00 in/hr0.0 mm/hr 0.15 in3.8 mm
03:54 PM 50.9°F10.5°C 45.0°F7.2°C 80% 2.9 mph SE4.7 kmh SE 4.8 mph7.7 kmh 29.77 in1008.1 mb 0.00 in0.0 mm 0.00 in/hr0.0 mm/hr 0.15 in3.8 mm
03:53 PM 50.9°F10.5°C 45.0°F7.2°C 80% 2.9 mph SE4.7 kmh SE 4.8 mph7.7 kmh 29.77 in1008.1 mb 0.00 in0.0 mm 0.00 in/hr0.0 mm/hr 0.15 in3.8 mm
03:52 PM 50.9°F10.5°C 45.0°F7.2°C 80% 2.9 mph SE4.7 kmh SE 4.8 mph7.7 kmh 29.77 in1008.1 mb 0.00 in0.0 mm 0.00 in/hr0.0 mm/hr 0.15 in3.8 mm
03:51 PM 50.9°F10.5°C 45.0°F7.2°C 80% 2.9 mph SE4.7 kmh SE 4.8 mph7.7 kmh 29.77 in1008.1 mb 0.00 in0.0 mm 0.00 in/hr0.0 mm/hr 0.15 in3.8 mm
03:50 PM 50.9°F10.5°C 45.0°F7.2°C 80% 2.9 mph SE4.7 kmh SE 4.8 mph7.7 kmh 29.77 in1008.1 mb 0.00 in0.0 mm 0.00 in/hr0.0 mm/hr 0.15 in3.8 mm
03:49 PM 50.9°F10.5°C 45.0°F7.2°C 80% 2.9 mph SE4.7 kmh SE 4.8 mph7.7 kmh 29.77 in1008.1 mb 0.00 in0.0 mm 0.00 in/hr0.0 mm/hr 0.15 in3.8 mm
03:48 PM 50.9°F10.5°C 45.0°F7.2°C 80% 2.9 mph SE4.7 kmh SE 4.8 mph7.7 kmh 29.77 in1008.1 mb 0.00 in0.0 mm 0.00 in/hr0.0 mm/hr 0.15 in3.8 mm
03:47 PM 50.9°F10.5°C 45.0°F7.2°C 80% 2.9 mph SE4.7 kmh SE 4.8 mph7.7 kmh 29.77 in1008.1 mb 0.00 in0.0 mm 0.00 in/hr0.0 mm/hr 0.15 in3.8 mm
03:46 PM 50.9°F10.5°C 45.0°F7.2°C 80% 2.9 mph SE4.7 kmh SE 4.8 mph7.7 kmh 29.77 in1008.1 mb 0.00 in0.0 mm 0.00 in/hr0.0 mm/hr 0.15 in3.8 mm
03:45 PM 50.9°F10.5°C 45.0°F7.2°C 80% 2.9 mph SE4.7 kmh SE 4.8 mph7.7 kmh 29.77 in1008.1 mb 0.00 in0.0 mm 0.00 in/hr0.0 mm/hr 0.15 in3.8 mm
03:44 PM 50.9°F10.5°C 45.0°F7.2°C 80% 2.9 mph SE4.7 kmh SE 4.8 mph7.7 kmh 29.77 in1008.1 mb 0.00 in0.0 mm 0.00 in/hr0.0 mm/hr 0.15 in3.8 mm
03:43 PM 50.9°F10.5°C 45.0°F7.2°C 80% 2.9 mph SE4.7 kmh SE 4.8 mph7.7 kmh 29.77 in1008.1 mb 0.00 in0.0 mm 0.00 in/hr0.0 mm/hr 0.15 in3.8 mm
03:42 PM 50.9°F10.5°C 45.0°F7.2°C 80% 2.9 mph SE4.7 kmh SE 4.8 mph7.7 kmh 29.77 in1008.1 mb 0.00 in0.0 mm 0.00 in/hr0.0 mm/hr 0.15 in3.8 mm
03:41 PM 50.9°F10.5°C 45.0°F7.2°C 80% 2.9 mph SE4.7 kmh SE 4.8 mph7.7 kmh 29.77 in1008.1 mb 0.00 in0.0 mm 0.00 in/hr0.0 mm/hr 0.15 in3.8 mm
03:40 PM 50.9°F10.5°C 45.0°F7.2°C 80% 2.9 mph SE4.7 kmh SE 4.8 mph7.7 kmh 29.77 in1008.1 mb 0.00 in0.0 mm 0.00 in/hr0.0 mm/hr 0.15 in3.8 mm
03:39 PM 50.9°F10.5°C 45.0°F7.2°C 80% 2.9 mph SE4.7 kmh SE 4.8 mph7.7 kmh 29.77 in1008.1 mb 0.00 in0.0 mm 0.00 in/hr0.0 mm/hr 0.15 in3.8 mm
03:38 PM 50.9°F10.5°C 45.0°F7.2°C 80% 2.9 mph SE4.7 kmh SE 4.8 mph7.7 kmh 29.77 in1008.1 mb 0.00 in0.0 mm 0.00 in/hr0.0 mm/hr 0.15 in3.8 mm
03:37 PM 50.9°F10.5°C 45.0°F7.2°C 80% 2.9 mph SE4.7 kmh SE 4.8 mph7.7 kmh 29.77 in1008.1 mb 0.00 in0.0 mm 0.00 in/hr0.0 mm/hr 0.15 in3.8 mm
03:36 PM 50.9°F10.5°C 45.0°F7.2°C 80% 2.9 mph SE4.7 kmh SE 4.8 mph7.7 kmh 29.77 in1008.1 mb 0.00 in0.0 mm 0.00 in/hr0.0 mm/hr 0.15 in3.8 mm
03:35 PM 50.9°F10.5°C 45.0°F7.2°C 80% 2.9 mph SE4.7 kmh SE 4.8 mph7.7 kmh 29.77 in1008.1 mb 0.00 in0.0 mm 0.00 in/hr0.0 mm/hr 0.15 in3.8 mm
03:34 PM 50.9°F10.5°C 45.0°F7.2°C 80% 2.9 mph SE4.7 kmh SE 4.8 mph7.7 kmh 29.77 in1008.1 mb 0.00 in0.0 mm 0.00 in/hr0.0 mm/hr 0.15 in3.8 mm
03:33 PM 50.9°F10.5°C 45.0°F7.2°C 80% 2.9 mph SE4.7 kmh SE 4.8 mph7.7 kmh 29.77 in1008.1 mb 0.00 in0.0 mm 0.00 in/hr0.0 mm/hr 0.15 in3.8 mm
03:32 PM 50.9°F10.5°C 45.0°F7.2°C 80% 2.9 mph SE4.7 kmh SE 4.8 mph7.7 kmh 29.77 in1008.1 mb 0.00 in0.0 mm 0.00 in/hr0.0 mm/hr 0.15 in3.8 mm
03:31 PM 50.9°F10.5°C 45.0°F7.2°C 80% 2.9 mph SE4.7 kmh SE 4.8 mph7.7 kmh 29.77 in1008.1 mb 0.00 in0.0 mm 0.00 in/hr0.0 mm/hr 0.15 in3.8 mm
03:30 PM 50.9°F10.5°C 45.0°F7.2°C 80% 2.9 mph SE4.7 kmh SE 4.8 mph7.7 kmh 29.77 in1008.1 mb 0.00 in0.0 mm 0.00 in/hr0.0 mm/hr 0.15 in3.8 mm
03:29 PM 50.9°F10.5°C 45.0°F7.2°C 80% 2.9 mph SE4.7 kmh SE 4.8 mph7.7 kmh 29.77 in1008.1 mb 0.00 in0.0 mm 0.00 in/hr0.0 mm/hr 0.15 in3.8 mm
03:28 PM 50.9°F10.5°C 45.0°F7.2°C 80% 2.9 mph SE4.7 kmh SE 4.8 mph7.7 kmh 29.77 in1008.1 mb 0.00 in0.0 mm 0.00 in/hr0.0 mm/hr 0.15 in3.8 mm
03:27 PM 50.9°F10.5°C 45.0°F7.2°C 80% 2.9 mph SE4.7 kmh SE 4.8 mph7.7 kmh 29.77 in1008.1 mb 0.00 in0.0 mm 0.00 in/hr0.0 mm/hr 0.15 in3.8 mm
03:26 PM 50.9°F10.5°C 45.0°F7.2°C 80% 2.9 mph SE4.7 kmh SE 4.8 mph7.7 kmh 29.77 in1008.1 mb 0.00 in0.0 mm 0.00 in/hr0.0 mm/hr 0.15 in3.8 mm
03:25 PM 50.9°F10.5°C 45.0°F7.2°C 80% 2.9 mph SE4.7 kmh SE 4.8 mph7.7 kmh 29.77 in1008.1 mb 0.00 in0.0 mm 0.00 in/hr0.0 mm/hr 0.15 in3.8 mm
03:24 PM 50.9°F10.5°C 45.0°F7.2°C 80% 2.9 mph SE4.7 kmh SE 4.8 mph7.7 kmh 29.77 in1008.1 mb 0.00 in0.0 mm 0.00 in/hr0.0 mm/hr 0.15 in3.8 mm
03:23 PM 50.9°F10.5°C 45.0°F7.2°C 80% 2.9 mph SE4.7 kmh SE 4.8 mph7.7 kmh 29.77 in1008.1 mb 0.00 in0.0 mm 0.00 in/hr0.0 mm/hr 0.15 in3.8 mm
03:22 PM 50.9°F10.5°C 45.0°F7.2°C 80% 2.9 mph SE4.7 kmh SE 4.8 mph7.7 kmh 29.77 in1008.1 mb 0.00 in0.0 mm 0.00 in/hr0.0 mm/hr 0.15 in3.8 mm
03:21 PM 50.9°F10.5°C 45.0°F7.2°C 80% 2.9 mph SE4.7 kmh SE 4.8 mph7.7 kmh 29.77 in1008.1 mb 0.00 in0.0 mm 0.00 in/hr0.0 mm/hr 0.15 in3.8 mm
03:20 PM 50.9°F10.5°C 45.0°F7.2°C 80% 2.9 mph SE4.7 kmh SE 4.8 mph7.7 kmh 29.77 in1008.1 mb 0.00 in0.0 mm 0.00 in/hr0.0 mm/hr 0.15 in3.8 mm
03:19 PM 50.9°F10.5°C 45.0°F7.2°C 80% 2.9 mph SE4.7 kmh SE 4.8 mph7.7 kmh 29.77 in1008.1 mb 0.00 in0.0 mm 0.00 in/hr0.0 mm/hr 0.15 in3.8 mm
03:18 PM 50.9°F10.5°C 45.0°F7.2°C 80% 2.9 mph SE4.7 kmh SE 4.8 mph7.7 kmh 29.77 in1008.1 mb 0.00 in0.0 mm 0.00 in/hr0.0 mm/hr 0.15 in3.8 mm
03:17 PM 50.9°F10.5°C 45.0°F7.2°C 80% 2.9 mph SE4.7 kmh SE 4.8 mph7.7 kmh 29.77 in1008.1 mb 0.00 in0.0 mm 0.00 in/hr0.0 mm/hr 0.15 in3.8 mm
03:16 PM 50.9°F10.5°C 45.0°F7.2°C 80% 2.9 mph SE4.7 kmh SE 4.8 mph7.7 kmh 29.77 in1008.1 mb 0.00 in0.0 mm 0.00 in/hr0.0 mm/hr 0.15 in3.8 mm
03:15 PM 50.9°F10.5°C 45.0°F7.2°C 80% 2.9 mph SE4.7 kmh SE 4.8 mph7.7 kmh 29.77 in1008.1 mb 0.00 in0.0 mm 0.00 in/hr0.0 mm/hr 0.15 in3.8 mm
03:14 PM 50.9°F10.5°C 45.0°F7.2°C 80% 2.9 mph SE4.7 kmh SE 4.8 mph7.7 kmh 29.77 in1008.1 mb 0.00 in0.0 mm 0.00 in/hr0.0 mm/hr 0.15 in3.8 mm
03:13 PM 50.9°F10.5°C 45.0°F7.2°C 80% 2.9 mph SE4.7 kmh SE 4.8 mph7.7 kmh 29.77 in1008.1 mb 0.00 in0.0 mm 0.00 in/hr0.0 mm/hr 0.15 in3.8 mm
03:12 PM 50.9°F10.5°C 45.0°F7.2°C 80% 2.9 mph SE4.7 kmh SE 4.8 mph7.7 kmh 29.77 in1008.1 mb 0.00 in0.0 mm 0.00 in/hr0.0 mm/hr 0.15 in3.8 mm
03:11 PM 50.9°F10.5°C 45.0°F7.2°C 80% 2.9 mph SE4.7 kmh SE 4.8 mph7.7 kmh 29.77 in1008.1 mb 0.00 in0.0 mm 0.00 in/hr0.0 mm/hr 0.15 in3.8 mm
03:10 PM 50.9°F10.5°C 45.0°F7.2°C 80% 2.9 mph SE4.7 kmh SE 4.8 mph7.7 kmh 29.77 in1008.1 mb 0.00 in0.0 mm 0.00 in/hr0.0 mm/hr 0.15 in3.8 mm
03:09 PM 50.9°F10.5°C 45.0°F7.2°C 80% 2.9 mph SE4.7 kmh SE 4.8 mph7.7 kmh 29.77 in1008.1 mb 0.00 in0.0 mm 0.00 in/hr0.0 mm/hr 0.15 in3.8 mm
03:08 PM 50.9°F10.5°C 45.0°F7.2°C 80% 2.9 mph SE4.7 kmh SE 4.8 mph7.7 kmh 29.77 in1008.1 mb 0.00 in0.0 mm 0.00 in/hr0.0 mm/hr 0.15 in3.8 mm
03:07 PM 50.9°F10.5°C 45.0°F7.2°C 80% 2.9 mph SE4.7 kmh SE 4.8 mph7.7 kmh 29.77 in1008.1 mb 0.00 in0.0 mm 0.00 in/hr0.0 mm/hr 0.15 in3.8 mm
03:06 PM 50.9°F10.5°C 45.0°F7.2°C 80% 2.9 mph SE4.7 kmh SE 4.8 mph7.7 kmh 29.77 in1008.1 mb 0.00 in0.0 mm 0.00 in/hr0.0 mm/hr 0.15 in3.8 mm
03:05 PM 50.9°F10.5°C 45.0°F7.2°C 80% 2.9 mph SE4.7 kmh SE 4.8 mph7.7 kmh 29.77 in1008.1 mb 0.00 in0.0 mm 0.00 in/hr0.0 mm/hr 0.15 in3.8 mm
03:04 PM 50.9°F10.5°C 45.0°F7.2°C 80% 2.9 mph SE4.7 kmh SE 4.8 mph7.7 kmh 29.77 in1008.1 mb 0.00 in0.0 mm 0.00 in/hr0.0 mm/hr 0.15 in3.8 mm
03:03 PM 50.9°F10.5°C 45.0°F7.2°C 80% 2.9 mph SE4.7 kmh SE 4.8 mph7.7 kmh 29.77 in1008.1 mb 0.00 in0.0 mm 0.00 in/hr0.0 mm/hr 0.15 in3.8 mm
03:02 PM 50.9°F10.5°C 45.0°F7.2°C 80% 2.9 mph SE4.7 kmh SE 4.8 mph7.7 kmh 29.77 in1008.1 mb 0.00 in0.0 mm 0.00 in/hr0.0 mm/hr 0.15 in3.8 mm
03:01 PM 50.9°F10.5°C 45.0°F7.2°C 80% 2.9 mph SE4.7 kmh SE 4.8 mph7.7 kmh 29.77 in1008.1 mb 0.00 in0.0 mm 0.00 in/hr0.0 mm/hr 0.15 in3.8 mm
03:00 PM 50.9°F10.5°C 45.0°F7.2°C 80% 2.9 mph SE4.7 kmh SE 4.8 mph7.7 kmh 29.77 in1008.1 mb 0.00 in0.0 mm 0.00 in/hr0.0 mm/hr 0.15 in3.8 mm
02:59 PM 50.9°F10.5°C 45.0°F7.2°C 80% 2.9 mph SE4.7 kmh SE 4.8 mph7.7 kmh 29.77 in1008.1 mb 0.00 in0.0 mm 0.00 in/hr0.0 mm/hr 0.15 in3.8 mm
02:58 PM 50.9°F10.5°C 45.0°F7.2°C 80% 2.9 mph SE4.7 kmh SE 4.8 mph7.7 kmh 29.77 in1008.1 mb 0.00 in0.0 mm 0.00 in/hr0.0 mm/hr 0.15 in3.8 mm
02:57 PM 50.9°F10.5°C 45.0°F7.2°C 80% 2.9 mph SE4.7 kmh SE 4.8 mph7.7 kmh 29.77 in1008.1 mb 0.00 in0.0 mm 0.00 in/hr0.0 mm/hr 0.15 in3.8 mm
02:56 PM 50.9°F10.5°C 45.0°F7.2°C 80% 2.9 mph SE4.7 kmh SE 4.8 mph7.7 kmh 29.77 in1008.1 mb 0.00 in0.0 mm 0.00 in/hr0.0 mm/hr 0.15 in3.8 mm
02:55 PM 50.9°F10.5°C 45.0°F7.2°C 80% 2.9 mph SE4.7 kmh SE 4.8 mph7.7 kmh 29.77 in1008.1 mb 0.00 in0.0 mm 0.00 in/hr0.0 mm/hr 0.15 in3.8 mm
02:54 PM 50.9°F10.5°C 45.0°F7.2°C 80% 2.9 mph SE4.7 kmh SE 4.8 mph7.7 kmh 29.77 in1008.1 mb 0.00 in0.0 mm 0.00 in/hr0.0 mm/hr 0.15 in3.8 mm
02:53 PM 50.9°F10.5°C 45.0°F7.2°C 80% 2.9 mph SE4.7 kmh SE 4.8 mph7.7 kmh 29.77 in1008.1 mb 0.00 in0.0 mm 0.00 in/hr0.0 mm/hr 0.15 in3.8 mm
02:52 PM 50.9°F10.5°C 45.0°F7.2°C 80% 2.9 mph SE4.7 kmh SE 4.8 mph7.7 kmh 29.77 in1008.1 mb 0.00 in0.0 mm 0.00 in/hr0.0 mm/hr 0.15 in3.8 mm
02:51 PM 50.9°F10.5°C 45.0°F7.2°C 80% 2.9 mph SE4.7 kmh SE 4.8 mph7.7 kmh 29.77 in1008.1 mb 0.00 in0.0 mm 0.00 in/hr0.0 mm/hr 0.15 in3.8 mm
02:50 PM 50.9°F10.5°C 45.0°F7.2°C 80% 2.9 mph SE4.7 kmh SE 4.8 mph7.7 kmh 29.77 in1008.1 mb 0.00 in0.0 mm 0.00 in/hr0.0 mm/hr 0.15 in3.8 mm
02:49 PM 50.9°F10.5°C 45.0°F7.2°C 80% 2.9 mph SE4.7 kmh SE 4.8 mph7.7 kmh 29.77 in1008.1 mb 0.00 in0.0 mm 0.00 in/hr0.0 mm/hr 0.15 in3.8 mm
02:48 PM 50.9°F10.5°C 45.0°F7.2°C 80% 2.9 mph SE4.7 kmh SE 4.8 mph7.7 kmh 29.77 in1008.1 mb 0.00 in0.0 mm 0.00 in/hr0.0 mm/hr 0.15 in3.8 mm
02:47 PM 50.9°F10.5°C 45.0°F7.2°C 80% 2.9 mph SE4.7 kmh SE 4.8 mph7.7 kmh 29.77 in1008.1 mb 0.00 in0.0 mm 0.00 in/hr0.0 mm/hr 0.15 in3.8 mm
02:46 PM 50.9°F10.5°C 45.0°F7.2°C 80% 2.9 mph SE4.7 kmh SE 4.8 mph7.7 kmh 29.77 in1008.1 mb 0.00 in0.0 mm 0.00 in/hr0.0 mm/hr 0.15 in3.8 mm
02:45 PM 50.9°F10.5°C 45.0°F7.2°C 80% 2.9 mph SE4.7 kmh SE 4.8 mph7.7 kmh 29.77 in1008.1 mb 0.00 in0.0 mm 0.00 in/hr0.0 mm/hr 0.15 in3.8 mm
02:44 PM 50.9°F10.5°C 45.0°F7.2°C 80% 2.9 mph SE4.7 kmh SE 4.8 mph7.7 kmh 29.77 in1008.1 mb 0.00 in0.0 mm 0.00 in/hr0.0 mm/hr 0.15 in3.8 mm
02:43 PM 50.9°F10.5°C 45.0°F7.2°C 80% 2.9 mph SE4.7 kmh SE 4.8 mph7.7 kmh 29.77 in1008.1 mb 0.00 in0.0 mm 0.00 in/hr0.0 mm/hr 0.15 in3.8 mm
02:42 PM 50.9°F10.5°C 45.0°F7.2°C 80% 2.9 mph SE4.7 kmh SE 4.8 mph7.7 kmh 29.77 in1008.1 mb 0.00 in0.0 mm 0.00 in/hr0.0 mm/hr 0.15 in3.8 mm
02:41 PM 50.9°F10.5°C 45.0°F7.2°C 80% 2.9 mph SE4.7 kmh SE 4.8 mph7.7 kmh 29.77 in1008.1 mb 0.00 in0.0 mm 0.00 in/hr0.0 mm/hr 0.15 in3.8 mm
02:40 PM 50.9°F10.5°C 45.0°F7.2°C 80% 2.9 mph SE4.7 kmh SE 4.8 mph7.7 kmh 29.77 in1008.1 mb 0.00 in0.0 mm 0.00 in/hr0.0 mm/hr 0.15 in3.8 mm
02:39 PM 50.9°F10.5°C 45.0°F7.2°C 80% 2.9 mph SE4.7 kmh SE 4.8 mph7.7 kmh 29.77 in1008.1 mb 0.00 in0.0 mm 0.00 in/hr0.0 mm/hr 0.15 in3.8 mm
02:38 PM 50.9°F10.5°C 45.0°F7.2°C 80% 3.1 mph SE5.0 kmh SE 4.8 mph7.7 kmh 29.77 in1008.1 mb 0.00 in0.0 mm 0.00 in/hr0.0 mm/hr 0.15 in3.8 mm
02:37 PM 50.9°F10.5°C 45.0°F7.2°C 80% 3.3 mph E5.3 kmh E 5.6 mph9.0 kmh 29.77 in1008.1 mb 0.00 in0.0 mm 0.00 in/hr0.0 mm/hr 0.15 in3.8 mm
02:36 PM 51.1°F10.6°C 45.1°F7.3°C 80% 3.3 mph ENE5.3 kmh ENE 5.6 mph9.0 kmh 29.77 in1008.1 mb 0.00 in0.0 mm 0.00 in/hr0.0 mm/hr 0.15 in3.8 mm
02:35 PM 51.1°F10.6°C 45.1°F7.3°C 80% 3.2 mph ENE5.1 kmh ENE 5.6 mph9.0 kmh 29.77 in1008.1 mb 0.00 in0.0 mm 0.00 in/hr0.0 mm/hr 0.15 in3.8 mm
02:34 PM 51.1°F10.6°C 45.1°F7.3°C 80% 3.3 mph E5.3 kmh E 5.6 mph9.0 kmh 29.77 in1008.1 mb 0.00 in0.0 mm 0.00 in/hr0.0 mm/hr 0.15 in3.8 mm
02:33 PM 50.9°F10.5°C 45.0°F7.2°C 80% 3.3 mph E5.3 kmh E 5.6 mph9.0 kmh 29.77 in1008.1 mb 0.00 in0.0 mm 0.00 in/hr0.0 mm/hr 0.15 in3.8 mm
02:32 PM 50.9°F10.5°C 45.0°F7.2°C 80% 3.4 mph ESE5.5 kmh ESE 5.6 mph9.0 kmh 29.77 in1008.1 mb 0.00 in0.0 mm 0.00 in/hr0.0 mm/hr 0.15 in3.8 mm
02:31 PM 51.1°F10.6°C 45.1°F7.3°C 80% 3.4 mph E5.5 kmh E 5.6 mph9.0 kmh 29.77 in1008.1 mb 0.00 in0.0 mm 0.00 in/hr0.0 mm/hr 0.15 in3.8 mm
02:30 PM 50.7°F10.4°C 44.8°F7.1°C 80% 3.5 mph NE5.6 kmh NE 5.6 mph9.0 kmh 29.77 in1008.1 mb 0.00 in0.0 mm 0.00 in/hr0.0 mm/hr 0.15 in3.8 mm
02:29 PM 50.7°F10.4°C 44.8°F7.1°C 80% 3.7 mph NE6.0 kmh NE 5.6 mph9.0 kmh 29.77 in1008.1 mb 0.00 in0.0 mm 0.00 in/hr0.0 mm/hr 0.15 in3.8 mm
02:28 PM 50.7°F10.4°C 44.8°F7.1°C 80% 4.2 mph E6.8 kmh E 10.5 mph16.9 kmh 29.77 in1008.1 mb 0.00 in0.0 mm 0.00 in/hr0.0 mm/hr 0.15 in3.8 mm
02:27 PM 50.9°F10.5°C 45.0°F7.2°C 80% 4.2 mph NE6.8 kmh NE 10.5 mph16.9 kmh 29.77 in1008.1 mb 0.00 in0.0 mm 0.00 in/hr0.0 mm/hr 0.15 in3.8 mm
02:26 PM 50.7°F10.4°C 44.8°F7.1°C 80% 4.3 mph NNE6.9 kmh NNE 10.5 mph16.9 kmh 29.78 in1008.5 mb 0.00 in0.0 mm 0.00 in/hr0.0 mm/hr 0.15 in3.8 mm
02:25 PM 50.5°F10.3°C 44.6°F7.0°C 80% 4.2 mph N6.8 kmh N 10.5 mph16.9 kmh 29.77 in1008.1 mb 0.00 in0.0 mm 0.00 in/hr0.0 mm/hr 0.15 in3.8 mm
02:24 PM 50.5°F10.3°C 44.6°F7.0°C 80% 4.0 mph N6.4 kmh N 10.5 mph16.9 kmh 29.77 in1008.1 mb 0.00 in0.0 mm 0.00 in/hr0.0 mm/hr 0.15 in3.8 mm
02:23 PM 50.7°F10.4°C 44.8°F7.1°C 80% 4.0 mph N6.4 kmh N 10.5 mph16.9 kmh 29.77 in1008.1 mb 0.00 in0.0 mm 0.00 in/hr0.0 mm/hr 0.15 in3.8 mm
02:22 PM 50.5°F10.3°C 44.6°F7.0°C 80% 4.2 mph N6.8 kmh N 10.5 mph16.9 kmh 29.77 in1008.1 mb 0.00 in0.0 mm 0.00 in/hr0.0 mm/hr 0.15 in3.8 mm
02:21 PM 50.7°F10.4°C 44.8°F7.1°C 80% 4.2 mph NW6.8 kmh NW 10.5 mph16.9 kmh 29.77 in1008.1 mb 0.00 in0.0 mm 0.00 in/hr0.0 mm/hr 0.15 in3.8 mm
02:20 PM 50.7°F10.4°C 44.8°F7.1°C 80% 4.2 mph NW6.8 kmh NW 10.5 mph16.9 kmh 29.77 in1008.1 mb 0.00 in0.0 mm 0.00 in/hr0.0 mm/hr 0.15 in3.8 mm
02:19 PM 50.5°F10.3°C 44.6°F7.0°C 80% 4.0 mph N6.4 kmh N 10.5 mph16.9 kmh 29.77 in1008.1 mb 0.00 in0.0 mm 0.00 in/hr0.0 mm/hr 0.15 in3.8 mm
02:18 PM 50.5°F10.3°C 44.6°F7.0°C 80% 3.5 mph N5.6 kmh N 5.6 mph9.0 kmh 29.77 in1008.1 mb 0.00 in0.0 mm 0.00 in/hr0.0 mm/hr 0.15 in3.8 mm
02:17 PM 50.7°F10.4°C 44.8°F7.1°C 80% 3.3 mph NNE5.3 kmh NNE 5.6 mph9.0 kmh 29.77 in1008.1 mb 0.00 in0.0 mm 0.00 in/hr0.0 mm/hr 0.15 in3.8 mm
02:16 PM 50.9°F10.5°C 45.3°F7.4°C 81% 3.4 mph E5.5 kmh E 5.6 mph9.0 kmh 29.77 in1008.1 mb 0.00 in0.0 mm 0.00 in/hr0.0 mm/hr 0.15 in3.8 mm
02:15 PM 50.9°F10.5°C 45.3°F7.4°C 81% 3.6 mph SE5.8 kmh SE 5.6 mph9.0 kmh 29.77 in1008.1 mb 0.00 in0.0 mm 0.00 in/hr0.0 mm/hr 0.15 in3.8 mm
02:14 PM 50.9°F10.5°C 45.3°F7.4°C 81% 3.9 mph SE6.3 kmh SE 8.1 mph13.0 kmh 29.77 in1008.1 mb 0.00 in0.0 mm 0.00 in/hr0.0 mm/hr 0.15 in3.8 mm
02:13 PM 50.9°F10.5°C 45.3°F7.4°C 81% 4.3 mph SE6.9 kmh SE 8.1 mph13.0 kmh 29.77 in1008.1 mb 0.00 in0.0 mm 0.00 in/hr0.0 mm/hr 0.15 in3.8 mm
02:12 PM 50.7°F10.4°C 44.8°F7.1°C 80% 4.5 mph E7.2 kmh E 8.1 mph13.0 kmh 29.77 in1008.1 mb 0.00 in0.0 mm 0.00 in/hr0.0 mm/hr 0.15 in3.8 mm
02:11 PM 50.7°F10.4°C 44.8°F7.1°C 80% 4.3 mph NE6.9 kmh NE 8.1 mph13.0 kmh 29.77 in1008.1 mb 0.00 in0.0 mm 0.00 in/hr0.0 mm/hr 0.15 in3.8 mm
02:10 PM 50.7°F10.4°C 44.8°F7.1°C 80% 4.3 mph NE6.9 kmh NE 8.1 mph13.0 kmh 29.77 in1008.1 mb 0.00 in0.0 mm 0.00 in/hr0.0 mm/hr 0.15 in3.8 mm
02:09 PM 50.5°F10.3°C 44.6°F7.0°C 80% 4.4 mph N7.1 kmh N 8.1 mph13.0 kmh 29.77 in1008.1 mb 0.00 in0.0 mm 0.00 in/hr0.0 mm/hr 0.15 in3.8 mm
02:08 PM 50.5°F10.3°C 44.6°F7.0°C 80% 4.5 mph N7.2 kmh N 8.1 mph13.0 kmh 29.77 in1008.1 mb 0.00 in0.0 mm 0.00 in/hr0.0 mm/hr 0.15 in3.8 mm
02:07 PM 50.7°F10.4°C 44.8°F7.1°C 80% 4.9 mph NW7.9 kmh NW 8.1 mph13.0 kmh 29.77 in1008.1 mb 0.00 in0.0 mm 0.00 in/hr0.0 mm/hr 0.15 in3.8 mm
02:06 PM 50.5°F10.3°C 44.3°F6.8°C 79% 4.8 mph NNW7.7 kmh NNW 8.1 mph13.0 kmh 29.77 in1008.1 mb 0.00 in0.0 mm 0.00 in/hr0.0 mm/hr 0.15 in3.8 mm
02:05 PM 50.7°F10.4°C 44.5°F6.9°C 79% 4.5 mph NNW7.2 kmh NNW 8.1 mph13.0 kmh 29.77 in1008.1 mb 0.00 in0.0 mm 0.00 in/hr0.0 mm/hr 0.15 in3.8 mm
02:04 PM 50.9°F10.5°C 44.6°F7.0°C 79% 4.7 mph NNW7.6 kmh NNW 9.7 mph15.6 kmh 29.77 in1008.1 mb 0.00 in0.0 mm 0.00 in/hr0.0 mm/hr 0.15 in3.8 mm
02:03 PM 50.9°F10.5°C 45.0°F7.2°C 80% 4.7 mph NNW7.6 kmh NNW 9.7 mph15.6 kmh 29.77 in1008.1 mb 0.00 in0.0 mm 0.00 in/hr0.0 mm/hr 0.15 in3.8 mm
02:02 PM 50.9°F10.5°C 45.0°F7.2°C 80% 4.6 mph NNW7.4 kmh NNW 9.7 mph15.6 kmh 29.77 in1008.1 mb 0.00 in0.0 mm 0.00 in/hr0.0 mm/hr 0.15 in3.8 mm
02:01 PM 51.1°F10.6°C 45.1°F7.3°C 80% 4.7 mph N7.6 kmh N 9.7 mph15.6 kmh 29.77 in1008.1 mb 0.00 in0.0 mm 0.00 in/hr0.0 mm/hr 0.15 in3.8 mm
02:00 PM 50.7°F10.4°C 44.5°F6.9°C 79% 4.6 mph NNW7.4 kmh NNW 9.7 mph15.6 kmh 29.77 in1008.1 mb 0.00 in0.0 mm 0.00 in/hr0.0 mm/hr 0.15 in3.8 mm
01:59 PM 50.9°F10.5°C 44.6°F7.0°C 79% 4.8 mph N7.7 kmh N 9.7 mph15.6 kmh 29.77 in1008.1 mb 0.00 in0.0 mm 0.00 in/hr0.0 mm/hr 0.15 in3.8 mm
01:58 PM 50.7°F10.4°C 44.5°F6.9°C 79% 4.7 mph N7.6 kmh N 9.7 mph15.6 kmh 29.77 in1008.1 mb 0.00 in0.0 mm 0.00 in/hr0.0 mm/hr 0.15 in3.8 mm
01:57 PM 51.1°F10.6°C 44.8°F7.1°C 79% 4.3 mph N6.9 kmh N 9.7 mph15.6 kmh 29.77 in1008.1 mb 0.00 in0.0 mm 0.00 in/hr0.0 mm/hr 0.15 in3.8 mm
01:56 PM 51.1°F10.6°C 44.5°F6.9°C 78% 4.2 mph N6.8 kmh N 9.7 mph15.6 kmh 29.77 in1008.1 mb 0.00 in0.0 mm 0.00 in/hr0.0 mm/hr 0.15 in3.8 mm
01:55 PM 50.9°F10.5°C 44.3°F6.8°C 78% 4.4 mph N7.1 kmh N 9.7 mph15.6 kmh 29.77 in1008.1 mb 0.00 in0.0 mm 0.00 in/hr0.0 mm/hr 0.15 in3.8 mm
01:54 PM 51.1°F10.6°C 44.1°F6.7°C 77% 4.1 mph NNE6.6 kmh NNE 6.4 mph10.3 kmh 29.77 in1008.1 mb 0.00 in0.0 mm 0.00 in/hr0.0 mm/hr 0.15 in3.8 mm
01:53 PM 51.4°F10.8°C 44.5°F6.9°C 77% 4.0 mph NNE6.4 kmh NNE 5.6 mph9.0 kmh 29.77 in1008.1 mb 0.00 in0.0 mm 0.00 in/hr0.0 mm/hr 0.15 in3.8 mm
01:52 PM 51.4°F10.8°C 44.5°F6.9°C 77% 3.9 mph NNE6.3 kmh NNE 4.8 mph7.7 kmh 29.77 in1008.1 mb 0.00 in0.0 mm 0.00 in/hr0.0 mm/hr 0.15 in3.8 mm
01:51 PM 51.4°F10.8°C 44.5°F6.9°C 77% 3.9 mph NE6.3 kmh NE 4.8 mph7.7 kmh 29.77 in1008.1 mb 0.00 in0.0 mm 0.00 in/hr0.0 mm/hr 0.15 in3.8 mm
01:50 PM 51.8°F11.0°C 44.8°F7.1°C 77% 4.0 mph NE6.4 kmh NE 4.8 mph7.7 kmh 29.77 in1008.1 mb 0.00 in0.0 mm 0.00 in/hr0.0 mm/hr 0.15 in3.8 mm
01:49 PM 52.0°F11.1°C 45.3°F7.4°C 78% 3.8 mph NE6.1 kmh NE 4.8 mph7.7 kmh 29.77 in1008.1 mb 0.00 in0.0 mm 0.00 in/hr0.0 mm/hr 0.15 in3.8 mm
01:48 PM 52.2°F11.2°C 45.5°F7.5°C 78% 3.8 mph NE6.1 kmh NE 4.8 mph7.7 kmh 29.77 in1008.1 mb 0.00 in0.0 mm 0.00 in/hr0.0 mm/hr 0.15 in3.8 mm
01:47 PM 51.8°F11.0°C 44.8°F7.1°C 77% 4.0 mph NE6.4 kmh NE 5.6 mph9.0 kmh 29.76 in1007.8 mb 0.00 in0.0 mm 0.00 in/hr0.0 mm/hr 0.15 in3.8 mm
01:46 PM 51.6°F10.9°C 44.7°F7.1°C 77% 4.2 mph NE6.8 kmh NE 6.4 mph10.3 kmh 29.76 in1007.8 mb 0.00 in0.0 mm 0.00 in/hr0.0 mm/hr 0.15 in3.8 mm
01:45 PM 51.4°F10.8°C 44.5°F6.9°C 77% 4.0 mph ENE6.4 kmh ENE 6.4 mph10.3 kmh 29.77 in1008.1 mb 0.00 in0.0 mm 0.00 in/hr0.0 mm/hr 0.15 in3.8 mm
01:44 PM 51.8°F11.0°C 44.5°F6.9°C 76% 3.9 mph ENE6.3 kmh ENE 6.4 mph10.3 kmh 29.77 in1008.1 mb 0.00 in0.0 mm 0.00 in/hr0.0 mm/hr 0.15 in3.8 mm
01:43 PM 52.2°F11.2°C 44.8°F7.1°C 76% 3.9 mph ENE6.3 kmh ENE 6.4 mph10.3 kmh 29.77 in1008.1 mb 0.00 in0.0 mm 0.00 in/hr0.0 mm/hr 0.15 in3.8 mm
01:42 PM 52.2°F11.2°C 44.8°F7.1°C 76% 4.0 mph NE6.4 kmh NE 6.4 mph10.3 kmh 29.77 in1008.1 mb 0.00 in0.0 mm 0.00 in/hr0.0 mm/hr 0.15 in3.8 mm
01:41 PM 52.2°F11.2°C 44.8°F7.1°C 76% 4.0 mph NE6.4 kmh NE 6.4 mph10.3 kmh 29.77 in1008.1 mb 0.00 in0.0 mm 0.00 in/hr0.0 mm/hr 0.15 in3.8 mm
01:40 PM 52.3°F11.3°C 45.4°F7.4°C 77% 4.0 mph ENE6.4 kmh ENE 6.4 mph10.3 kmh 29.77 in1008.1 mb 0.00 in0.0 mm 0.00 in/hr0.0 mm/hr 0.15 in3.8 mm
01:39 PM 52.5°F11.4°C 45.2°F7.3°C 76% 4.0 mph ENE6.4 kmh ENE 6.4 mph10.3 kmh 29.76 in1007.8 mb 0.00 in0.0 mm 0.00 in/hr0.0 mm/hr 0.15 in3.8 mm
01:38 PM 52.3°F11.3°C 45.0°F7.2°C 76% 4.0 mph ENE6.4 kmh ENE 6.4 mph10.3 kmh 29.77 in1008.1 mb 0.00 in0.0 mm 0.00 in/hr0.0 mm/hr 0.15 in3.8 mm
01:37 PM 52.7°F11.5°C 45.4°F7.4°C 76% 3.8 mph NE6.1 kmh NE 6.4 mph10.3 kmh 29.77 in1008.1 mb 0.00 in0.0 mm 0.00 in/hr0.0 mm/hr 0.15 in3.8 mm
01:36 PM 52.5°F11.4°C 44.8°F7.1°C 75% 3.6 mph NE5.8 kmh NE 5.6 mph9.0 kmh 29.77 in1008.1 mb 0.00 in0.0 mm 0.00 in/hr0.0 mm/hr 0.15 in3.8 mm
01:35 PM 52.3°F11.3°C 45.0°F7.2°C 76% 3.6 mph ENE5.8 kmh ENE 5.6 mph9.0 kmh 29.77 in1008.1 mb 0.00 in0.0 mm 0.00 in/hr0.0 mm/hr 0.15 in3.8 mm
01:34 PM 52.5°F11.4°C 45.2°F7.3°C 76% 3.6 mph NE5.8 kmh NE 5.6 mph9.0 kmh 29.77 in1008.1 mb 0.00 in0.0 mm 0.00 in/hr0.0 mm/hr 0.15 in3.8 mm
01:33 PM 52.5°F11.4°C 45.2°F7.3°C 76% 3.4 mph ENE5.5 kmh ENE 5.6 mph9.0 kmh 29.77 in1008.1 mb 0.00 in0.0 mm 0.00 in/hr0.0 mm/hr 0.15 in3.8 mm
01:32 PM 52.7°F11.5°C 45.7°F7.6°C 77% 3.0 mph E4.8 kmh E 5.6 mph9.0 kmh 29.77 in1008.1 mb 0.00 in0.0 mm 0.00 in/hr0.0 mm/hr 0.15 in3.8 mm
01:31 PM 52.7°F11.5°C 45.7°F7.6°C 77% 2.8 mph E4.5 kmh E 4.0 mph6.4 kmh 29.77 in1008.1 mb 0.00 in0.0 mm 0.00 in/hr0.0 mm/hr 0.15 in3.8 mm
01:30 PM 52.5°F11.4°C 45.5°F7.5°C 77% 2.6 mph ENE4.2 kmh ENE 4.0 mph6.4 kmh 29.77 in1008.1 mb 0.00 in0.0 mm 0.00 in/hr0.0 mm/hr 0.15 in3.8 mm
01:29 PM 52.3°F11.3°C 45.4°F7.4°C 77% 2.9 mph NE4.7 kmh NE 6.4 mph10.3 kmh 29.77 in1008.1 mb 0.00 in0.0 mm 0.00 in/hr0.0 mm/hr 0.15 in3.8 mm
01:28 PM 52.0°F11.1°C 45.0°F7.2°C 77% 3.3 mph ENE5.3 kmh ENE 9.7 mph15.6 kmh 29.77 in1008.1 mb 0.00 in0.0 mm 0.00 in/hr0.0 mm/hr 0.15 in3.8 mm
01:27 PM 52.3°F11.3°C 45.4°F7.4°C 77% 3.5 mph ENE5.6 kmh ENE 9.7 mph15.6 kmh 29.77 in1008.1 mb 0.00 in0.0 mm 0.00 in/hr0.0 mm/hr 0.15 in3.8 mm
01:26 PM 52.5°F11.4°C 45.5°F7.5°C 77% 3.7 mph SE6.0 kmh SE 9.7 mph15.6 kmh 29.77 in1008.1 mb 0.00 in0.0 mm 0.00 in/hr0.0 mm/hr 0.15 in3.8 mm
01:25 PM 52.5°F11.4°C 45.5°F7.5°C 77% 4.0 mph ESE6.4 kmh ESE 9.7 mph15.6 kmh 29.77 in1008.1 mb 0.00 in0.0 mm 0.00 in/hr0.0 mm/hr 0.15 in3.8 mm
01:24 PM 52.3°F11.3°C 45.4°F7.4°C 77% 4.2 mph E6.8 kmh E 9.7 mph15.6 kmh 29.77 in1008.1 mb 0.00 in0.0 mm 0.00 in/hr0.0 mm/hr 0.15 in3.8 mm
01:23 PM 52.5°F11.4°C 45.9°F7.7°C 78% 4.3 mph NE6.9 kmh NE 9.7 mph15.6 kmh 29.77 in1008.1 mb 0.00 in0.0 mm 0.00 in/hr0.0 mm/hr 0.15 in3.8 mm
01:22 PM 52.2°F11.2°C 45.2°F7.3°C 77% 4.5 mph NE7.2 kmh NE 9.7 mph15.6 kmh 29.77 in1008.1 mb 0.00 in0.0 mm 0.00 in/hr0.0 mm/hr 0.15 in3.8 mm
01:21 PM 52.2°F11.2°C 44.8°F7.1°C 76% 4.6 mph E7.4 kmh E 9.7 mph15.6 kmh 29.77 in1008.1 mb 0.00 in0.0 mm 0.00 in/hr0.0 mm/hr 0.15 in3.8 mm
01:20 PM 52.3°F11.3°C 45.4°F7.4°C 77% 5.3 mph NNE8.5 kmh NNE 9.7 mph15.6 kmh 29.77 in1008.1 mb 0.00 in0.0 mm 0.00 in/hr0.0 mm/hr 0.15 in3.8 mm
01:19 PM 52.3°F11.3°C 45.4°F7.4°C 77% 5.5 mph SSW8.9 kmh SSW 9.7 mph15.6 kmh 29.77 in1008.1 mb 0.00 in0.0 mm 0.00 in/hr0.0 mm/hr 0.15 in3.8 mm
01:18 PM 52.3°F11.3°C 45.0°F7.2°C 76% 5.3 mph WNW8.5 kmh WNW 9.7 mph15.6 kmh 29.77 in1008.1 mb 0.00 in0.0 mm 0.00 in/hr0.0 mm/hr 0.15 in3.8 mm
01:17 PM 52.3°F11.3°C 45.4°F7.4°C 77% 5.4 mph NW8.7 kmh NW 9.7 mph15.6 kmh 29.77 in1008.1 mb 0.00 in0.0 mm 0.00 in/hr0.0 mm/hr 0.15 in3.8 mm
01:16 PM 52.3°F11.3°C 45.0°F7.2°C 76% 5.4 mph NNW8.7 kmh NNW 9.7 mph15.6 kmh 29.77 in1008.1 mb 0.00 in0.0 mm 0.00 in/hr0.0 mm/hr 0.15 in3.8 mm
01:15 PM 52.3°F11.3°C 45.4°F7.4°C 77% 5.6 mph N9.0 kmh N 9.7 mph15.6 kmh 29.77 in1008.1 mb 0.00 in0.0 mm 0.00 in/hr0.0 mm/hr 0.15 in3.8 mm
01:14 PM 52.2°F11.2°C 44.8°F7.1°C 76% 5.7 mph NNW9.2 kmh NNW 9.7 mph15.6 kmh 29.77 in1008.1 mb 0.00 in0.0 mm 0.00 in/hr0.0 mm/hr 0.15 in3.8 mm
01:13 PM 52.0°F11.1°C 44.7°F7.1°C 76% 5.9 mph NNW9.5 kmh NNW 9.7 mph15.6 kmh 29.77 in1008.1 mb 0.00 in0.0 mm 0.00 in/hr0.0 mm/hr 0.15 in3.8 mm
01:12 PM 52.3°F11.3°C 45.0°F7.2°C 76% 6.0 mph N9.7 kmh N 9.7 mph15.6 kmh 29.77 in1008.1 mb 0.00 in0.0 mm 0.00 in/hr0.0 mm/hr 0.15 in3.8 mm
01:11 PM 52.3°F11.3°C 45.0°F7.2°C 76% 6.1 mph NNW9.8 kmh NNW 9.7 mph15.6 kmh 29.77 in1008.1 mb 0.00 in0.0 mm 0.00 in/hr0.0 mm/hr 0.15 in3.8 mm
01:10 PM 52.0°F11.1°C 44.7°F7.1°C 76% 5.6 mph N9.0 kmh N 8.1 mph13.0 kmh 29.77 in1008.1 mb 0.00 in0.0 mm 0.00 in/hr0.0 mm/hr 0.15 in3.8 mm
01:09 PM 51.8°F11.0°C 44.5°F6.9°C 76% 5.3 mph N8.5 kmh N 7.2 mph11.6 kmh 29.77 in1008.1 mb 0.00 in0.0 mm 0.00 in/hr0.0 mm/hr 0.15 in3.8 mm
01:08 PM 51.8°F11.0°C 44.5°F6.9°C 76% 5.2 mph N8.4 kmh N 7.2 mph11.6 kmh 29.77 in1008.1 mb 0.00 in0.0 mm 0.00 in/hr0.0 mm/hr 0.15 in3.8 mm
01:07 PM 52.0°F11.1°C 44.7°F7.1°C 76% 5.1 mph NNE8.2 kmh NNE 7.2 mph11.6 kmh 29.77 in1008.1 mb 0.00 in0.0 mm 0.00 in/hr0.0 mm/hr 0.15 in3.8 mm
01:06 PM 52.5°F11.4°C 45.5°F7.5°C 77% 4.8 mph NNE7.7 kmh NNE 7.2 mph11.6 kmh 29.77 in1008.1 mb 0.00 in0.0 mm 0.00 in/hr0.0 mm/hr 0.15 in3.8 mm
01:05 PM 52.3°F11.3°C 45.4°F7.4°C 77% 4.4 mph NNE7.1 kmh NNE 7.2 mph11.6 kmh 29.77 in1008.1 mb 0.00 in0.0 mm 0.00 in/hr0.0 mm/hr 0.15 in3.8 mm
01:04 PM 52.0°F11.1°C 44.7°F7.1°C 76% 4.3 mph NNE6.9 kmh NNE 7.2 mph11.6 kmh 29.77 in1008.1 mb 0.00 in0.0 mm 0.00 in/hr0.0 mm/hr 0.15 in3.8 mm
01:03 PM 52.3°F11.3°C 45.4°F7.4°C 77% 4.0 mph NE6.4 kmh NE 5.6 mph9.0 kmh 29.77 in1008.1 mb 0.00 in0.0 mm 0.00 in/hr0.0 mm/hr 0.15 in3.8 mm
01:02 PM 52.5°F11.4°C 45.9°F7.7°C 78% 4.0 mph NE6.4 kmh NE 5.6 mph9.0 kmh 29.77 in1008.1 mb 0.00 in0.0 mm 0.00 in/hr0.0 mm/hr 0.15 in3.8 mm
01:01 PM 52.7°F11.5°C 46.0°F7.8°C 78% 4.0 mph NE6.4 kmh NE 5.6 mph9.0 kmh 29.77 in1008.1 mb 0.00 in0.0 mm 0.00 in/hr0.0 mm/hr 0.15 in3.8 mm
01:00 PM 52.0°F11.1°C 45.0°F7.2°C 77% 3.8 mph NE6.1 kmh NE 5.6 mph9.0 kmh 29.77 in1008.1 mb 0.00 in0.0 mm 0.00 in/hr0.0 mm/hr 0.15 in3.8 mm
12:59 PM 52.2°F11.2°C 45.5°F7.5°C 78% 3.8 mph NE6.1 kmh NE 5.6 mph9.0 kmh 29.77 in1008.1 mb 0.00 in0.0 mm 0.00 in/hr0.0 mm/hr 0.15 in3.8 mm
12:58 PM 52.2°F11.2°C 45.9°F7.7°C 79% 3.9 mph NE6.3 kmh NE 5.6 mph9.0 kmh 29.77 in1008.1 mb 0.00 in0.0 mm 0.00 in/hr0.0 mm/hr 0.15 in3.8 mm
12:57 PM 52.3°F11.3°C 46.0°F7.8°C 79% 4.0 mph NE6.4 kmh NE 6.4 mph10.3 kmh 29.77 in1008.1 mb 0.00 in0.0 mm 0.00 in/hr0.0 mm/hr 0.15 in3.8 mm
12:56 PM 52.0°F11.1°C 45.7°F7.6°C 79% 4.5 mph NE7.2 kmh NE 8.1 mph13.0 kmh 29.77 in1008.1 mb 0.00 in0.0 mm 0.00 in/hr0.0 mm/hr 0.15 in3.8 mm
12:55 PM 51.1°F10.6°C 45.1°F7.3°C 80% 4.8 mph NE7.7 kmh NE 8.1 mph13.0 kmh 29.77 in1008.1 mb 0.00 in0.0 mm 0.00 in/hr0.0 mm/hr 0.15 in3.8 mm
12:54 PM 51.1°F10.6°C 45.1°F7.3°C 80% 4.7 mph NE7.6 kmh NE 8.1 mph13.0 kmh 29.77 in1008.1 mb 0.00 in0.0 mm 0.00 in/hr0.0 mm/hr 0.15 in3.8 mm
12:53 PM 51.4°F10.8°C 45.5°F7.5°C 80% 4.8 mph NNE7.7 kmh NNE 8.1 mph13.0 kmh 29.77 in1008.1 mb 0.00 in0.0 mm 0.00 in/hr0.0 mm/hr 0.15 in3.8 mm
12:52 PM 51.1°F10.6°C 45.1°F7.3°C 80% 4.5 mph NE7.2 kmh NE 8.1 mph13.0 kmh 29.77 in1008.1 mb 0.00 in0.0 mm 0.00 in/hr0.0 mm/hr 0.15 in3.8 mm
12:51 PM 51.1°F10.6°C 45.1°F7.3°C 80% 4.8 mph NE7.7 kmh NE 8.1 mph13.0 kmh 29.77 in1008.1 mb 0.00 in0.0 mm 0.00 in/hr0.0 mm/hr 0.15 in3.8 mm
12:50 PM 50.5°F10.3°C 44.6°F7.0°C 80% 5.1 mph NE8.2 kmh NE 8.1 mph13.0 kmh 29.78 in1008.5 mb 0.00 in0.0 mm 0.00 in/hr0.0 mm/hr 0.15 in3.8 mm
12:49 PM 50.7°F10.4°C 44.8°F7.1°C 80% 5.0 mph NNE8.0 kmh NNE 8.1 mph13.0 kmh 29.78 in1008.5 mb 0.00 in0.0 mm 0.00 in/hr0.0 mm/hr 0.15 in3.8 mm
12:48 PM 51.1°F10.6°C 45.1°F7.3°C 80% 4.7 mph NNE7.6 kmh NNE 8.1 mph13.0 kmh 29.78 in1008.5 mb 0.00 in0.0 mm 0.00 in/hr0.0 mm/hr 0.15 in3.8 mm
12:47 PM 50.9°F10.5°C 45.0°F7.2°C 80% 4.3 mph NNE6.9 kmh NNE 8.1 mph13.0 kmh 29.78 in1008.5 mb 0.00 in0.0 mm 0.00 in/hr0.0 mm/hr 0.15 in3.8 mm
12:46 PM 51.1°F10.6°C 45.1°F7.3°C 80% 3.8 mph N6.1 kmh N 6.4 mph10.3 kmh 29.78 in1008.5 mb 0.00 in0.0 mm 0.00 in/hr0.0 mm/hr 0.15 in3.8 mm
12:45 PM 51.1°F10.6°C 45.1°F7.3°C 80% 3.5 mph NNE5.6 kmh NNE 6.4 mph10.3 kmh 29.78 in1008.5 mb 0.00 in0.0 mm 0.00 in/hr0.0 mm/hr 0.15 in3.8 mm
12:44 PM 51.1°F10.6°C 45.1°F7.3°C 80% 3.4 mph NNE5.5 kmh NNE 6.4 mph10.3 kmh 29.78 in1008.5 mb 0.00 in0.0 mm 0.00 in/hr0.0 mm/hr 0.15 in3.8 mm
12:43 PM 51.1°F10.6°C 45.1°F7.3°C 80% 3.2 mph NNE5.1 kmh NNE 6.4 mph10.3 kmh 29.78 in1008.5 mb 0.00 in0.0 mm 0.00 in/hr0.0 mm/hr 0.15 in3.8 mm
12:42 PM 50.9°F10.5°C 45.0°F7.2°C 80% 3.2 mph NNE5.1 kmh NNE 6.4 mph10.3 kmh 29.78 in1008.5 mb 0.00 in0.0 mm 0.00 in/hr0.0 mm/hr 0.15 in3.8 mm
12:41 PM 51.1°F10.6°C 45.1°F7.3°C 80% 3.1 mph NE5.0 kmh NE 5.6 mph9.0 kmh 29.78 in1008.5 mb 0.00 in0.0 mm 0.00 in/hr0.0 mm/hr 0.15 in3.8 mm
12:40 PM 51.4°F10.8°C 45.8°F7.7°C 81% 2.9 mph NE4.7 kmh NE 5.6 mph9.0 kmh 29.78 in1008.5 mb 0.00 in0.0 mm 0.00 in/hr0.0 mm/hr 0.15 in3.8 mm
12:39 PM 51.8°F11.0°C 45.8°F7.7°C 80% 2.7 mph NE4.3 kmh NE 5.6 mph9.0 kmh 29.79 in1008.8 mb 0.00 in0.0 mm 0.00 in/hr0.0 mm/hr 0.15 in3.8 mm
12:38 PM 51.1°F10.6°C 45.5°F7.5°C 81% 2.9 mph NE4.7 kmh NE 5.6 mph9.0 kmh 29.78 in1008.5 mb 0.00 in0.0 mm 0.00 in/hr0.0 mm/hr 0.15 in3.8 mm
12:37 PM 51.4°F10.8°C 45.8°F7.7°C 81% 3.1 mph NE5.0 kmh NE 5.6 mph9.0 kmh 29.78 in1008.5 mb 0.00 in0.0 mm 0.00 in/hr0.0 mm/hr 0.15 in3.8 mm
12:36 PM 51.8°F11.0°C 45.8°F7.7°C 80% 3.2 mph NE5.1 kmh NE 5.6 mph9.0 kmh 29.78 in1008.5 mb 0.00 in0.0 mm 0.00 in/hr0.0 mm/hr 0.15 in3.8 mm
12:35 PM 51.4°F10.8°C 45.8°F7.7°C 81% 3.5 mph NE5.6 kmh NE 5.6 mph9.0 kmh 29.78 in1008.5 mb 0.00 in0.0 mm 0.00 in/hr0.0 mm/hr 0.15 in3.8 mm
12:34 PM 51.4°F10.8°C 45.8°F7.7°C 81% 3.6 mph NNE5.8 kmh NNE 5.6 mph9.0 kmh 29.79 in1008.8 mb 0.00 in0.0 mm 0.00 in/hr0.0 mm/hr 0.15 in3.8 mm
12:33 PM 51.8°F11.0°C 45.8°F7.7°C 80% 3.6 mph NE5.8 kmh NE 5.6 mph9.0 kmh 29.79 in1008.8 mb 0.00 in0.0 mm 0.00 in/hr0.0 mm/hr 0.15 in3.8 mm
12:32 PM 51.4°F10.8°C 45.5°F7.5°C 80% 3.6 mph NE5.8 kmh NE 5.6 mph9.0 kmh 29.79 in1008.8 mb 0.00 in0.0 mm 0.00 in/hr0.0 mm/hr 0.15 in3.8 mm
12:31 PM 51.4°F10.8°C 45.8°F7.7°C 81% 3.6 mph N5.8 kmh N 5.6 mph9.0 kmh 29.78 in1008.5 mb 0.00 in0.0 mm 0.00 in/hr0.0 mm/hr 0.15 in3.8 mm
12:30 PM 51.4°F10.8°C 45.8°F7.7°C 81% 3.7 mph N6.0 kmh N 4.8 mph7.7 kmh 29.79 in1008.8 mb 0.00 in0.0 mm 0.00 in/hr0.0 mm/hr 0.15 in3.8 mm
12:29 PM 51.4°F10.8°C 45.8°F7.7°C 81% 4.1 mph NE6.6 kmh NE 5.6 mph9.0 kmh 29.78 in1008.5 mb 0.00 in0.0 mm 0.00 in/hr0.0 mm/hr 0.15 in3.8 mm
12:28 PM 51.4°F10.8°C 45.8°F7.7°C 81% 4.1 mph NE6.6 kmh NE 5.6 mph9.0 kmh 29.78 in1008.5 mb 0.00 in0.0 mm 0.00 in/hr0.0 mm/hr 0.15 in3.8 mm
12:27 PM 51.4°F10.8°C 45.8°F7.7°C 81% 4.0 mph NE6.4 kmh NE 5.6 mph9.0 kmh 29.79 in1008.8 mb 0.00 in0.0 mm 0.00 in/hr0.0 mm/hr 0.15 in3.8 mm
12:26 PM 51.1°F10.6°C 45.5°F7.5°C 81% 3.8 mph NE6.1 kmh NE 5.6 mph9.0 kmh 29.79 in1008.8 mb 0.00 in0.0 mm 0.00 in/hr0.0 mm/hr 0.15 in3.8 mm
12:25 PM 51.1°F10.6°C 45.5°F7.5°C 81% 3.7 mph ENE6.0 kmh ENE 5.6 mph9.0 kmh 29.79 in1008.8 mb 0.00 in0.0 mm 0.00 in/hr0.0 mm/hr 0.15 in3.8 mm
12:24 PM 50.9°F10.5°C 45.3°F7.4°C 81% 3.7 mph E6.0 kmh E 5.6 mph9.0 kmh 29.79 in1008.8 mb 0.00 in0.0 mm 0.00 in/hr0.0 mm/hr 0.15 in3.8 mm
12:23 PM 50.7°F10.4°C 45.1°F7.3°C 81% 4.1 mph ENE6.6 kmh ENE 8.9 mph14.3 kmh 29.79 in1008.8 mb 0.00 in0.0 mm 0.00 in/hr0.0 mm/hr 0.15 in3.8 mm
12:22 PM 50.7°F10.4°C 45.1°F7.3°C 81% 4.3 mph NE6.9 kmh NE 8.9 mph14.3 kmh 29.79 in1008.8 mb 0.00 in0.0 mm 0.00 in/hr0.0 mm/hr 0.15 in3.8 mm
12:21 PM 50.9°F10.5°C 45.6°F7.6°C 82% 4.3 mph NE6.9 kmh NE 8.9 mph14.3 kmh 29.79 in1008.8 mb 0.00 in0.0 mm 0.00 in/hr0.0 mm/hr 0.15 in3.8 mm
12:20 PM 50.7°F10.4°C 45.4°F7.4°C 82% 4.3 mph NE6.9 kmh NE 8.9 mph14.3 kmh 29.79 in1008.8 mb 0.00 in0.0 mm 0.00 in/hr0.0 mm/hr 0.15 in3.8 mm
12:19 PM 50.9°F10.5°C 45.6°F7.6°C 82% 4.2 mph NNE6.8 kmh NNE 8.9 mph14.3 kmh 29.79 in1008.8 mb 0.00 in0.0 mm 0.00 in/hr0.0 mm/hr 0.15 in3.8 mm
12:18 PM 50.9°F10.5°C 45.9°F7.7°C 83% 4.3 mph N6.9 kmh N 8.9 mph14.3 kmh 29.79 in1008.8 mb 0.00 in0.0 mm 0.00 in/hr0.0 mm/hr 0.15 in3.8 mm
12:17 PM 50.9°F10.5°C 45.6°F7.6°C 82% 4.4 mph N7.1 kmh N 8.9 mph14.3 kmh 29.79 in1008.8 mb 0.00 in0.0 mm 0.00 in/hr0.0 mm/hr 0.15 in3.8 mm
12:16 PM 50.7°F10.4°C 45.4°F7.4°C 82% 4.8 mph N7.7 kmh N 8.9 mph14.3 kmh 29.79 in1008.8 mb 0.00 in0.0 mm 0.00 in/hr0.0 mm/hr 0.15 in3.8 mm
12:15 PM 50.5°F10.3°C 45.3°F7.4°C 82% 4.9 mph NNE7.9 kmh NNE 8.9 mph14.3 kmh 29.79 in1008.8 mb 0.00 in0.0 mm 0.00 in/hr0.0 mm/hr 0.15 in3.8 mm
12:14 PM 50.5°F10.3°C 45.3°F7.4°C 82% 5.1 mph NNE8.2 kmh NNE 8.9 mph14.3 kmh 29.79 in1008.8 mb 0.00 in0.0 mm 0.00 in/hr0.0 mm/hr 0.15 in3.8 mm
12:13 PM 50.5°F10.3°C 45.3°F7.4°C 82% 5.0 mph N8.0 kmh N 8.9 mph14.3 kmh 29.79 in1008.8 mb 0.00 in0.0 mm 0.00 in/hr0.0 mm/hr 0.15 in3.8 mm
12:12 PM 50.5°F10.3°C 45.3°F7.4°C 82% 5.0 mph NE8.0 kmh NE 7.2 mph11.6 kmh 29.80 in1009.1 mb 0.00 in0.0 mm 0.00 in/hr0.0 mm/hr 0.15 in3.8 mm
12:11 PM 50.9°F10.5°C 45.6°F7.6°C 82% 5.4 mph E8.7 kmh E 8.1 mph13.0 kmh 29.80 in1009.1 mb 0.00 in0.0 mm 0.00 in/hr0.0 mm/hr 0.15 in3.8 mm
12:10 PM 50.5°F10.3°C 44.9°F7.2°C 81% 5.3 mph SE8.5 kmh SE 8.1 mph13.0 kmh 29.79 in1008.8 mb 0.00 in0.0 mm 0.00 in/hr0.0 mm/hr 0.15 in3.8 mm
12:09 PM 50.5°F10.3°C 44.9°F7.2°C 81% 5.0 mph SE8.0 kmh SE 8.1 mph13.0 kmh 29.79 in1008.8 mb 0.00 in0.0 mm 0.00 in/hr0.0 mm/hr 0.15 in3.8 mm
12:08 PM 50.2°F10.1°C 44.6°F7.0°C 81% 4.8 mph SE7.7 kmh SE 8.1 mph13.0 kmh 29.79 in1008.8 mb 0.00 in0.0 mm 0.00 in/hr0.0 mm/hr 0.15 in3.8 mm
12:07 PM 50.2°F10.1°C 44.6°F7.0°C 81% 4.4 mph SE7.1 kmh SE 8.1 mph13.0 kmh 29.79 in1008.8 mb 0.00 in0.0 mm 0.00 in/hr0.0 mm/hr 0.15 in3.8 mm
12:06 PM 50.4°F10.2°C 44.8°F7.1°C 81% 4.2 mph SE6.8 kmh SE 8.1 mph13.0 kmh 29.80 in1009.1 mb 0.00 in0.0 mm 0.00 in/hr0.0 mm/hr 0.15 in3.8 mm
12:05 PM 50.5°F10.3°C 44.9°F7.2°C 81% 4.2 mph SE6.8 kmh SE 8.1 mph13.0 kmh 29.79 in1008.8 mb 0.00 in0.0 mm 0.00 in/hr0.0 mm/hr 0.15 in3.8 mm
12:04 PM 50.7°F10.4°C 45.1°F7.3°C 81% 4.4 mph ESE7.1 kmh ESE 8.9 mph14.3 kmh 29.79 in1008.8 mb 0.00 in0.0 mm 0.00 in/hr0.0 mm/hr 0.15 in3.8 mm
12:03 PM 50.5°F10.3°C 44.9°F7.2°C 81% 4.1 mph E6.6 kmh E 8.9 mph14.3 kmh 29.79 in1008.8 mb 0.00 in0.0 mm 0.00 in/hr0.0 mm/hr 0.15 in3.8 mm
12:02 PM 51.1°F10.6°C 45.5°F7.5°C 81% 4.1 mph ENE6.6 kmh ENE 8.9 mph14.3 kmh 29.80 in1009.1 mb 0.00 in0.0 mm 0.00 in/hr0.0 mm/hr 0.15 in3.8 mm
12:01 PM 50.9°F10.5°C 45.3°F7.4°C 81% 4.1 mph ENE6.6 kmh ENE 8.9 mph14.3 kmh 29.80 in1009.1 mb 0.00 in0.0 mm 0.00 in/hr0.0 mm/hr 0.15 in3.8 mm
12:00 PM 50.9°F10.5°C 45.3°F7.4°C 81% 4.1 mph ENE6.6 kmh ENE 8.9 mph14.3 kmh 29.79 in1008.8 mb 0.00 in0.0 mm 0.00 in/hr0.0 mm/hr 0.15 in3.8 mm
11:59 AM 50.9°F10.5°C 45.3°F7.4°C 81% 4.4 mph ENE7.1 kmh ENE 8.9 mph14.3 kmh 29.80 in1009.1 mb 0.00 in0.0 mm 0.00 in/hr0.0 mm/hr 0.15 in3.8 mm
11:58 AM 50.9°F10.5°C 45.3°F7.4°C 81% 4.6 mph NE7.4 kmh NE 8.9 mph14.3 kmh 29.80 in1009.1 mb 0.00 in0.0 mm 0.00 in/hr0.0 mm/hr 0.15 in3.8 mm
11:57 AM 50.9°F10.5°C 45.3°F7.4°C 81% 4.7 mph ENE7.6 kmh ENE 8.9 mph14.3 kmh 29.80 in1009.1 mb 0.00 in0.0 mm 0.00 in/hr0.0 mm/hr 0.15 in3.8 mm
11:56 AM 50.9°F10.5°C 45.3°F7.4°C 81% 4.8 mph NE7.7 kmh NE 8.9 mph14.3 kmh 29.80 in1009.1 mb 0.00 in0.0 mm 0.00 in/hr0.0 mm/hr 0.15 in3.8 mm
11:55 AM 51.1°F10.6°C 45.5°F7.5°C 81% 4.6 mph NE7.4 kmh NE 8.9 mph14.3 kmh 29.79 in1008.8 mb 0.00 in0.0 mm 0.00 in/hr0.0 mm/hr 0.15 in3.8 mm
11:54 AM 51.1°F10.6°C 45.8°F7.7°C 82% 4.0 mph NE6.4 kmh NE 8.1 mph13.0 kmh 29.80 in1009.1 mb 0.00 in0.0 mm 0.00 in/hr0.0 mm/hr 0.15 in3.8 mm
11:53 AM 51.1°F10.6°C 45.5°F7.5°C 81% 4.1 mph NE6.6 kmh NE 8.1 mph13.0 kmh 29.80 in1009.1 mb 0.00 in0.0 mm 0.00 in/hr0.0 mm/hr 0.15 in3.8 mm
11:52 AM 51.1°F10.6°C 45.8°F7.7°C 82% 4.2 mph NE6.8 kmh NE 8.1 mph13.0 kmh 29.79 in1008.8 mb 0.00 in0.0 mm 0.00 in/hr0.0 mm/hr 0.15 in3.8 mm
11:51 AM 50.9°F10.5°C 45.3°F7.4°C 81% 4.0 mph NE6.4 kmh NE 8.1 mph13.0 kmh 29.79 in1008.8 mb 0.00 in0.0 mm 0.00 in/hr0.0 mm/hr 0.15 in3.8 mm
11:50 AM 51.1°F10.6°C 45.8°F7.7°C 82% 4.1 mph NNE6.6 kmh NNE 6.4 mph10.3 kmh 29.80 in1009.1 mb 0.00 in0.0 mm 0.00 in/hr0.0 mm/hr 0.15 in3.8 mm
11:48 AM 50.9°F10.5°C 45.3°F7.4°C 81% 3.8 mph N6.1 kmh N 6.4 mph10.3 kmh 29.80 in1009.1 mb 0.00 in0.0 mm 0.00 in/hr0.0 mm/hr 0.15 in3.8 mm
11:47 AM 50.7°F10.4°C 45.4°F7.4°C 82% 3.8 mph N6.1 kmh N 6.4 mph10.3 kmh 29.79 in1008.8 mb 0.00 in0.0 mm 0.00 in/hr0.0 mm/hr 0.15 in3.8 mm
11:46 AM 50.9°F10.5°C 45.6°F7.6°C 82% 3.8 mph N6.1 kmh N 8.9 mph14.3 kmh 29.80 in1009.1 mb 0.00 in0.0 mm 0.00 in/hr0.0 mm/hr 0.15 in3.8 mm
11:45 AM 50.9°F10.5°C 45.3°F7.4°C 81% 4.1 mph N6.6 kmh N 8.9 mph14.3 kmh 29.80 in1009.1 mb 0.00 in0.0 mm 0.00 in/hr0.0 mm/hr 0.15 in3.8 mm
11:44 AM 50.9°F10.5°C 45.3°F7.4°C 81% 4.3 mph N6.9 kmh N 8.9 mph14.3 kmh 29.79 in1008.8 mb 0.00 in0.0 mm 0.00 in/hr0.0 mm/hr 0.15 in3.8 mm
11:43 AM 50.5°F10.3°C 45.3°F7.4°C 82% 4.5 mph N7.2 kmh N 8.9 mph14.3 kmh 29.80 in1009.1 mb 0.00 in0.0 mm 0.00 in/hr0.0 mm/hr 0.15 in3.8 mm
11:42 AM 50.9°F10.5°C 45.6°F7.6°C 82% 4.4 mph N7.1 kmh N 8.9 mph14.3 kmh 29.79 in1008.8 mb 0.00 in0.0 mm 0.00 in/hr0.0 mm/hr 0.15 in3.8 mm
11:41 AM 50.7°F10.4°C 45.4°F7.4°C 82% 4.1 mph N6.6 kmh N 8.9 mph14.3 kmh 29.80 in1009.1 mb 0.00 in0.0 mm 0.00 in/hr0.0 mm/hr 0.15 in3.8 mm
11:40 AM 50.9°F10.5°C 45.6°F7.6°C 82% 3.9 mph N6.3 kmh N 8.9 mph14.3 kmh 29.79 in1008.8 mb 0.00 in0.0 mm 0.00 in/hr0.0 mm/hr 0.15 in3.8 mm
11:39 AM 50.9°F10.5°C 45.6°F7.6°C 82% 3.7 mph N6.0 kmh N 8.9 mph14.3 kmh 29.79 in1008.8 mb 0.00 in0.0 mm 0.00 in/hr0.0 mm/hr 0.15 in3.8 mm
11:38 AM 50.9°F10.5°C 45.6°F7.6°C 82% 3.8 mph N6.1 kmh N 8.9 mph14.3 kmh 29.79 in1008.8 mb 0.00 in0.0 mm 0.00 in/hr0.0 mm/hr 0.15 in3.8 mm
11:37 AM 50.9°F10.5°C 45.6°F7.6°C 82% 3.8 mph N6.1 kmh N 8.9 mph14.3 kmh 29.80 in1009.1 mb 0.00 in0.0 mm 0.00 in/hr0.0 mm/hr 0.15 in3.8 mm
11:36 AM 51.1°F10.6°C 45.8°F7.7°C 82% 3.4 mph NNE5.5 kmh NNE 8.9 mph14.3 kmh 29.80 in1009.1 mb 0.00 in0.0 mm 0.00 in/hr0.0 mm/hr 0.15 in3.8 mm
11:35 AM 51.1°F10.6°C 45.8°F7.7°C 82% 3.3 mph NE5.3 kmh NE 6.4 mph10.3 kmh 29.80 in1009.1 mb 0.00 in0.0 mm 0.00 in/hr0.0 mm/hr 0.15 in3.8 mm
11:34 AM 51.1°F10.6°C 46.1°F7.8°C 83% 3.3 mph NE5.3 kmh NE 6.4 mph10.3 kmh 29.80 in1009.1 mb 0.00 in0.0 mm 0.00 in/hr0.0 mm/hr 0.15 in3.8 mm
11:33 AM 51.3°F10.7°C 46.3°F7.9°C 83% 3.3 mph ENE5.3 kmh ENE 6.4 mph10.3 kmh 29.79 in1008.8 mb 0.00 in0.0 mm 0.00 in/hr0.0 mm/hr 0.15 in3.8 mm
11:32 AM 51.1°F10.6°C 45.8°F7.7°C 82% 3.1 mph ENE5.0 kmh ENE 4.8 mph7.7 kmh 29.80 in1009.1 mb 0.00 in0.0 mm 0.00 in/hr0.0 mm/hr 0.15 in3.8 mm
11:31 AM 51.1°F10.6°C 46.1°F7.8°C 83% 3.2 mph NE5.1 kmh NE 4.8 mph7.7 kmh 29.80 in1009.1 mb 0.00 in0.0 mm 0.00 in/hr0.0 mm/hr 0.15 in3.8 mm
11:30 AM 50.7°F10.4°C 45.8°F7.7°C 83% 3.1 mph NE5.0 kmh NE 4.8 mph7.7 kmh 29.80 in1009.1 mb 0.00 in0.0 mm 0.00 in/hr0.0 mm/hr 0.15 in3.8 mm
11:29 AM 50.5°F10.3°C 45.9°F7.7°C 84% 3.2 mph NNE5.1 kmh NNE 5.6 mph9.0 kmh 29.80 in1009.1 mb 0.00 in0.0 mm 0.00 in/hr0.0 mm/hr 0.15 in3.8 mm
11:28 AM 50.7°F10.4°C 46.1°F7.8°C 84% 3.6 mph NE5.8 kmh NE 5.6 mph9.0 kmh 29.80 in1009.1 mb 0.00 in0.0 mm 0.00 in/hr0.0 mm/hr 0.15 in3.8 mm
11:27 AM 50.4°F10.2°C 45.7°F7.6°C 84% 3.7 mph NE6.0 kmh NE 5.6 mph9.0 kmh 29.80 in1009.1 mb 0.00 in0.0 mm 0.00 in/hr0.0 mm/hr 0.15 in3.8 mm
11:26 AM 50.2°F10.1°C 45.5°F7.5°C 84% 3.9 mph NE6.3 kmh NE 5.6 mph9.0 kmh 29.80 in1009.1 mb 0.00 in0.0 mm 0.00 in/hr0.0 mm/hr 0.15 in3.8 mm
11:25 AM 50.2°F10.1°C 45.2°F7.3°C 83% 3.9 mph NE6.3 kmh NE 5.6 mph9.0 kmh 29.79 in1008.8 mb 0.00 in0.0 mm 0.00 in/hr0.0 mm/hr 0.15 in3.8 mm
11:24 AM 50.0°F10.0°C 45.0°F7.2°C 83% 4.0 mph NNE6.4 kmh NNE 5.6 mph9.0 kmh 29.80 in1009.1 mb 0.00 in0.0 mm 0.00 in/hr0.0 mm/hr 0.15 in3.8 mm
11:23 AM 50.0°F10.0°C 45.0°F7.2°C 83% 4.1 mph NNE6.6 kmh NNE 5.6 mph9.0 kmh 29.80 in1009.1 mb 0.00 in0.0 mm 0.00 in/hr0.0 mm/hr 0.15 in3.8 mm
11:22 AM 50.0°F10.0°C 45.0°F7.2°C 83% 4.3 mph NNE6.9 kmh NNE 5.6 mph9.0 kmh 29.79 in1008.8 mb 0.00 in0.0 mm 0.00 in/hr0.0 mm/hr 0.15 in3.8 mm
11:21 AM 50.0°F10.0°C 45.0°F7.2°C 83% 4.4 mph NE7.1 kmh NE 5.6 mph9.0 kmh 29.80 in1009.1 mb 0.00 in0.0 mm 0.00 in/hr0.0 mm/hr 0.15 in3.8 mm
11:20 AM 50.0°F10.0°C 45.0°F7.2°C 83% 4.6 mph NE7.4 kmh NE 5.6 mph9.0 kmh 29.80 in1009.1 mb 0.00 in0.0 mm 0.00 in/hr0.0 mm/hr 0.15 in3.8 mm
11:19 AM 50.0°F10.0°C 45.0°F7.2°C 83% 4.5 mph NE7.2 kmh NE 5.6 mph9.0 kmh 29.80 in1009.1 mb 0.00 in0.0 mm 0.00 in/hr0.0 mm/hr 0.15 in3.8 mm
11:18 AM 50.2°F10.1°C 45.5°F7.5°C 84% 4.3 mph NNE6.9 kmh NNE 5.6 mph9.0 kmh 29.79 in1008.8 mb 0.00 in0.0 mm 0.00 in/hr0.0 mm/hr 0.15 in3.8 mm
11:17 AM 50.2°F10.1°C 45.5°F7.5°C 84% 4.4 mph NNE7.1 kmh NNE 5.6 mph9.0 kmh 29.80 in1009.1 mb 0.00 in0.0 mm 0.00 in/hr0.0 mm/hr 0.15 in3.8 mm
11:16 AM 50.2°F10.1°C 45.5°F7.5°C 84% 4.2 mph N6.8 kmh N 5.6 mph9.0 kmh 29.80 in1009.1 mb 0.00 in0.0 mm 0.00 in/hr0.0 mm/hr 0.15 in3.8 mm
11:15 AM 50.0°F10.0°C 45.7°F7.6°C 85% 4.2 mph N6.8 kmh N 5.6 mph9.0 kmh 29.80 in1009.1 mb 0.00 in0.0 mm 0.00 in/hr0.0 mm/hr 0.15 in3.8 mm
11:14 AM 50.2°F10.1°C 45.9°F7.7°C 85% 4.0 mph N6.4 kmh N 5.6 mph9.0 kmh 29.79 in1008.8 mb 0.00 in0.0 mm 0.00 in/hr0.0 mm/hr 0.15 in3.8 mm
11:13 AM 50.4°F10.2°C 46.3°F7.9°C 86% 3.9 mph NNE6.3 kmh NNE 5.6 mph9.0 kmh 29.80 in1009.1 mb 0.00 in0.0 mm 0.00 in/hr0.0 mm/hr 0.15 in3.8 mm
11:12 AM 50.4°F10.2°C 46.3°F7.9°C 86% 3.7 mph NE6.0 kmh NE 5.6 mph9.0 kmh 29.80 in1009.1 mb 0.00 in0.0 mm 0.00 in/hr0.0 mm/hr 0.15 in3.8 mm
11:11 AM 50.2°F10.1°C 46.2°F7.9°C 86% 3.3 mph NNE5.3 kmh NNE 5.6 mph9.0 kmh 29.80 in1009.1 mb 0.00 in0.0 mm 0.00 in/hr0.0 mm/hr 0.15 in3.8 mm
11:10 AM 50.2°F10.1°C 46.2°F7.9°C 86% 3.3 mph NNE5.3 kmh NNE 4.8 mph7.7 kmh 29.80 in1009.1 mb 0.00 in0.0 mm 0.00 in/hr0.0 mm/hr 0.15 in3.8 mm
11:09 AM 50.0°F10.0°C 46.0°F7.8°C 86% 3.3 mph NNE5.3 kmh NNE 4.8 mph7.7 kmh 29.80 in1009.1 mb 0.00 in0.0 mm 0.00 in/hr0.0 mm/hr 0.15 in3.8 mm
11:08 AM 50.2°F10.1°C 46.2°F7.9°C 86% 3.1 mph NE5.0 kmh NE 4.8 mph7.7 kmh 29.80 in1009.1 mb 0.00 in0.0 mm 0.00 in/hr0.0 mm/hr 0.15 in3.8 mm
11:07 AM 50.0°F10.0°C 46.0°F7.8°C 86% 3.0 mph NE4.8 kmh NE 4.0 mph6.4 kmh 29.80 in1009.1 mb 0.00 in0.0 mm 0.00 in/hr0.0 mm/hr 0.15 in3.8 mm
11:06 AM 49.8°F9.9°C 46.4°F8.0°C 88% 3.1 mph NE5.0 kmh NE 4.0 mph6.4 kmh 29.80 in1009.1 mb 0.00 in0.0 mm 0.00 in/hr0.0 mm/hr 0.15 in3.8 mm
11:05 AM 50.0°F10.0°C 46.3°F7.9°C 87% 3.2 mph NNE5.1 kmh NNE 4.0 mph6.4 kmh 29.80 in1009.1 mb 0.00 in0.0 mm 0.00 in/hr0.0 mm/hr 0.15 in3.8 mm
11:04 AM 49.8°F9.9°C 46.4°F8.0°C 88% 3.1 mph NNE5.0 kmh NNE 4.0 mph6.4 kmh 29.80 in1009.1 mb 0.00 in0.0 mm 0.00 in/hr0.0 mm/hr 0.15 in3.8 mm
11:03 AM 49.6°F9.8°C 46.2°F7.9°C 88% 3.1 mph NNE5.0 kmh NNE 4.8 mph7.7 kmh 29.80 in1009.1 mb 0.00 in0.0 mm 0.00 in/hr0.0 mm/hr 0.15 in3.8 mm
11:02 AM 50.0°F10.0°C 46.0°F7.8°C 86% 3.2 mph NNE5.1 kmh NNE 4.8 mph7.7 kmh 29.80 in1009.1 mb 0.00 in0.0 mm 0.00 in/hr0.0 mm/hr 0.15 in3.8 mm
11:01 AM 49.6°F9.8°C 45.9°F7.7°C 87% 3.5 mph NNE5.6 kmh NNE 4.8 mph7.7 kmh 29.80 in1009.1 mb 0.00 in0.0 mm 0.00 in/hr0.0 mm/hr 0.15 in3.8 mm
11:00 AM 49.5°F9.7°C 45.8°F7.7°C 87% 3.6 mph NNE5.8 kmh NNE 5.6 mph9.0 kmh 29.80 in1009.1 mb 0.00 in0.0 mm 0.00 in/hr0.0 mm/hr 0.15 in3.8 mm
10:59 AM 49.5°F9.7°C 45.8°F7.7°C 87% 3.7 mph NE6.0 kmh NE 5.6 mph9.0 kmh 29.80 in1009.1 mb 0.00 in0.0 mm 0.00 in/hr0.0 mm/hr 0.15 in3.8 mm
10:58 AM 49.3°F9.6°C 45.6°F7.6°C 87% 3.7 mph NNE6.0 kmh NNE 5.6 mph9.0 kmh 29.80 in1009.1 mb 0.00 in0.0 mm 0.00 in/hr0.0 mm/hr 0.15 in3.8 mm
10:57 AM 49.5°F9.7°C 46.1°F7.8°C 88% 3.6 mph NNE5.8 kmh NNE 5.6 mph9.0 kmh 29.80 in1009.1 mb 0.00 in0.0 mm 0.00 in/hr0.0 mm/hr 0.15 in3.8 mm
10:56 AM 49.3°F9.6°C 45.9°F7.7°C 88% 3.4 mph NNE5.5 kmh NNE 5.6 mph9.0 kmh 29.80 in1009.1 mb 0.00 in0.0 mm 0.00 in/hr0.0 mm/hr 0.15 in3.8 mm
10:55 AM 49.6°F9.8°C 46.2°F7.9°C 88% 3.4 mph NE5.5 kmh NE 5.6 mph9.0 kmh 29.80 in1009.1 mb 0.00 in0.0 mm 0.00 in/hr0.0 mm/hr 0.15 in3.8 mm
10:54 AM 49.5°F9.7°C 46.4°F8.0°C 89% 3.5 mph ENE5.6 kmh ENE 5.6 mph9.0 kmh 29.80 in1009.1 mb 0.00 in0.0 mm 0.00 in/hr0.0 mm/hr 0.15 in3.8 mm
10:53 AM 49.5°F9.7°C 46.4°F8.0°C 89% 3.4 mph E5.5 kmh E 5.6 mph9.0 kmh 29.80 in1009.1 mb 0.00 in0.0 mm 0.00 in/hr0.0 mm/hr 0.15 in3.8 mm
10:52 AM 49.8°F9.9°C 47.0°F8.3°C 90% 3.5 mph NE5.6 kmh NE 5.6 mph9.0 kmh 29.80 in1009.1 mb 0.00 in0.0 mm 0.00 in/hr0.0 mm/hr 0.15 in3.8 mm
10:51 AM 50.0°F10.0°C 46.9°F8.3°C 89% 3.4 mph NE5.5 kmh NE 5.6 mph9.0 kmh 29.80 in1009.1 mb 0.00 in0.0 mm 0.00 in/hr0.0 mm/hr 0.15 in3.8 mm
10:50 AM 50.4°F10.2°C 47.2°F8.4°C 89% 3.2 mph ENE5.1 kmh ENE 5.6 mph9.0 kmh 29.80 in1009.1 mb 0.00 in0.0 mm 0.00 in/hr0.0 mm/hr 0.15 in3.8 mm
10:49 AM 50.2°F10.1°C 46.8°F8.2°C 88% 3.1 mph ENE5.0 kmh ENE 5.6 mph9.0 kmh 29.80 in1009.1 mb 0.00 in0.0 mm 0.00 in/hr0.0 mm/hr 0.15 in3.8 mm
10:48 AM 50.0°F10.0°C 46.6°F8.1°C 88% 3.2 mph ENE5.1 kmh ENE 5.6 mph9.0 kmh 29.80 in1009.1 mb 0.00 in0.0 mm 0.00 in/hr0.0 mm/hr 0.15 in3.8 mm
10:47 AM 49.8°F9.9°C 46.7°F8.2°C 89% 3.5 mph ENE5.6 kmh ENE 5.6 mph9.0 kmh 29.80 in1009.1 mb 0.00 in0.0 mm 0.00 in/hr0.0 mm/hr 0.15 in3.8 mm
10:46 AM 50.0°F10.0°C 46.9°F8.3°C 89% 3.6 mph ENE5.8 kmh ENE 5.6 mph9.0 kmh 29.80 in1009.1 mb 0.00 in0.0 mm 0.00 in/hr0.0 mm/hr 0.15 in3.8 mm
10:45 AM 50.0°F10.0°C 46.9°F8.3°C 89% 3.6 mph NE5.8 kmh NE 5.6 mph9.0 kmh 29.80 in1009.1 mb 0.00 in0.0 mm 0.00 in/hr0.0 mm/hr 0.15 in3.8 mm
10:44 AM 49.8°F9.9°C 47.0°F8.3°C 90% 3.6 mph ENE5.8 kmh ENE 5.6 mph9.0 kmh 29.80 in1009.1 mb 0.00 in0.0 mm 0.00 in/hr0.0 mm/hr 0.15 in3.8 mm
10:43 AM 50.2°F10.1°C 47.1°F8.4°C 89% 3.6 mph NE5.8 kmh NE 5.6 mph9.0 kmh 29.80 in1009.1 mb 0.00 in0.0 mm 0.00 in/hr0.0 mm/hr 0.15 in3.8 mm
10:42 AM 50.0°F10.0°C 46.9°F8.3°C 89% 3.7 mph NNE6.0 kmh NNE 5.6 mph9.0 kmh 29.80 in1009.1 mb 0.00 in0.0 mm 0.00 in/hr0.0 mm/hr 0.15 in3.8 mm
10:41 AM 49.8°F9.9°C 47.3°F8.5°C 91% 3.7 mph NNE6.0 kmh NNE 5.6 mph9.0 kmh 29.80 in1009.1 mb 0.00 in0.0 mm 0.00 in/hr0.0 mm/hr 0.15 in3.8 mm
10:40 AM 49.8°F9.9°C 47.3°F8.5°C 91% 3.4 mph NNE5.5 kmh NNE 5.6 mph9.0 kmh 29.80 in1009.1 mb 0.00 in0.0 mm 0.00 in/hr0.0 mm/hr 0.15 in3.8 mm
10:39 AM 49.8°F9.9°C 47.3°F8.5°C 91% 3.3 mph N5.3 kmh N 5.6 mph9.0 kmh 29.80 in1009.1 mb 0.00 in0.0 mm 0.00 in/hr0.0 mm/hr 0.15 in3.8 mm
10:38 AM 49.1°F9.5°C 46.6°F8.1°C 91% 3.2 mph N5.1 kmh N 5.6 mph9.0 kmh 29.80 in1009.1 mb 0.00 in0.0 mm 0.00 in/hr0.0 mm/hr 0.15 in3.8 mm
10:37 AM 49.1°F9.5°C 46.9°F8.3°C 92% 2.9 mph N4.7 kmh N 5.6 mph9.0 kmh 29.80 in1009.1 mb 0.00 in0.0 mm 0.00 in/hr0.0 mm/hr 0.15 in3.8 mm
10:36 AM 49.1°F9.5°C 46.9°F8.3°C 92% 2.7 mph N4.3 kmh N 5.6 mph9.0 kmh 29.80 in1009.1 mb 0.00 in0.0 mm 0.00 in/hr0.0 mm/hr 0.15 in3.8 mm
10:35 AM 48.9°F9.4°C 46.7°F8.2°C 92% 2.6 mph N4.2 kmh N 5.6 mph9.0 kmh 29.80 in1009.1 mb 0.00 in0.0 mm 0.00 in/hr0.0 mm/hr 0.15 in3.8 mm
10:34 AM 48.9°F9.4°C 46.7°F8.2°C 92% 2.8 mph N4.5 kmh N 5.6 mph9.0 kmh 29.80 in1009.1 mb 0.00 in0.0 mm 0.00 in/hr0.0 mm/hr 0.15 in3.8 mm
10:33 AM 49.1°F9.5°C 46.9°F8.3°C 92% 3.0 mph NNW4.8 kmh NNW 7.2 mph11.6 kmh 29.80 in1009.1 mb 0.00 in0.0 mm 0.00 in/hr0.0 mm/hr 0.15 in3.8 mm
10:32 AM 49.1°F9.5°C 46.9°F8.3°C 92% 2.9 mph NNW4.7 kmh NNW 7.2 mph11.6 kmh 29.80 in1009.1 mb 0.00 in0.0 mm 0.00 in/hr0.0 mm/hr 0.15 in3.8 mm
10:31 AM 48.9°F9.4°C 46.7°F8.2°C 92% 2.8 mph NW4.5 kmh NW 7.2 mph11.6 kmh 29.80 in1009.1 mb 0.00 in0.0 mm 0.00 in/hr0.0 mm/hr 0.15 in3.8 mm
10:30 AM 48.7°F9.3°C 46.5°F8.1°C 92% 3.1 mph WNW5.0 kmh WNW 7.2 mph11.6 kmh 29.80 in1009.1 mb 0.00 in0.0 mm 0.00 in/hr0.0 mm/hr 0.15 in3.8 mm
10:29 AM 48.9°F9.4°C 47.0°F8.3°C 93% 3.3 mph WNW5.3 kmh WNW 7.2 mph11.6 kmh 29.80 in1009.1 mb 0.00 in0.0 mm 0.00 in/hr0.0 mm/hr 0.15 in3.8 mm
10:28 AM 48.9°F9.4°C 47.0°F8.3°C 93% 3.4 mph W5.5 kmh W 7.2 mph11.6 kmh 29.80 in1009.1 mb 0.00 in0.0 mm 0.00 in/hr0.0 mm/hr 0.15 in3.8 mm
10:27 AM 48.9°F9.4°C 47.0°F8.3°C 93% 3.7 mph W6.0 kmh W 7.2 mph11.6 kmh 29.80 in1009.1 mb 0.00 in0.0 mm 0.00 in/hr0.0 mm/hr 0.15 in3.8 mm
10:26 AM 48.7°F9.3°C 46.8°F8.2°C 93% 3.8 mph W6.1 kmh W 7.2 mph11.6 kmh 29.80 in1009.1 mb 0.00 in0.0 mm 0.00 in/hr0.0 mm/hr 0.15 in3.8 mm
10:25 AM 48.7°F9.3°C 46.8°F8.2°C 93% 3.8 mph W6.1 kmh W 7.2 mph11.6 kmh 29.80 in1009.1 mb 0.00 in0.0 mm 0.00 in/hr0.0 mm/hr 0.15 in3.8 mm
10:24 AM 48.4°F9.1°C 46.5°F8.1°C 93% 3.8 mph W6.1 kmh W 7.2 mph11.6 kmh 29.80 in1009.1 mb 0.00 in0.0 mm 0.00 in/hr0.0 mm/hr 0.15 in3.8 mm
10:23 AM 48.4°F9.1°C 46.7°F8.2°C 94% 3.3 mph W5.3 kmh W 7.2 mph11.6 kmh 29.80 in1009.1 mb 0.00 in0.0 mm 0.00 in/hr0.0 mm/hr 0.15 in3.8 mm
10:22 AM 48.6°F9.2°C 46.9°F8.3°C 94% 2.9 mph W4.7 kmh W 3.2 mph5.1 kmh 29.80 in1009.1 mb 0.00 in0.0 mm 0.00 in/hr0.0 mm/hr 0.15 in3.8 mm
10:21 AM 48.6°F9.2°C 46.9°F8.3°C 94% 2.6 mph W4.2 kmh W 3.2 mph5.1 kmh 29.80 in1009.1 mb 0.00 in0.0 mm 0.00 in/hr0.0 mm/hr 0.15 in3.8 mm
10:20 AM 48.6°F9.2°C 46.9°F8.3°C 94% 2.5 mph W4.0 kmh W 3.2 mph5.1 kmh 29.81 in1009.5 mb 0.00 in0.0 mm 0.00 in/hr0.0 mm/hr 0.15 in3.8 mm
10:19 AM 48.6°F9.2°C 46.9°F8.3°C 94% 2.5 mph W4.0 kmh W 4.0 mph6.4 kmh 29.81 in1009.5 mb 0.00 in0.0 mm 0.00 in/hr0.0 mm/hr 0.15 in3.8 mm
10:18 AM 48.6°F9.2°C 46.9°F8.3°C 94% 2.4 mph W3.9 kmh W 4.0 mph6.4 kmh 29.81 in1009.5 mb 0.00 in0.0 mm 0.00 in/hr0.0 mm/hr 0.15 in3.8 mm
10:17 AM 48.6°F9.2°C 46.9°F8.3°C 94% 2.1 mph W3.4 kmh W 4.0 mph6.4 kmh 29.80 in1009.1 mb 0.00 in0.0 mm 0.00 in/hr0.0 mm/hr 0.15 in3.8 mm
10:16 AM 48.6°F9.2°C 46.9°F8.3°C 94% 1.9 mph WNW3.1 kmh WNW 4.0 mph6.4 kmh 29.80 in1009.1 mb 0.00 in0.0 mm 0.00 in/hr0.0 mm/hr 0.15 in3.8 mm
10:15 AM 48.6°F9.2°C 46.9°F8.3°C 94% 1.8 mph N2.9 kmh N 4.0 mph6.4 kmh 29.80 in1009.1 mb 0.00 in0.0 mm 0.00 in/hr0.0 mm/hr 0.15 in3.8 mm
10:14 AM 48.7°F9.3°C 47.1°F8.4°C 94% 1.8 mph NE2.9 kmh NE 4.0 mph6.4 kmh 29.80 in1009.1 mb 0.00 in0.0 mm 0.00 in/hr0.0 mm/hr 0.15 in3.8 mm
10:13 AM 48.9°F9.4°C 47.6°F8.7°C 95% 1.8 mph NE2.9 kmh NE 4.0 mph6.4 kmh 29.80 in1009.1 mb 0.00 in0.0 mm 0.00 in/hr0.0 mm/hr 0.15 in3.8 mm
10:12 AM 48.7°F9.3°C 47.4°F8.6°C 95% 2.0 mph NNE3.2 kmh NNE 4.0 mph6.4 kmh 29.80 in1009.1 mb 0.00 in0.0 mm 0.00 in/hr0.0 mm/hr 0.15 in3.8 mm
10:11 AM 48.4°F9.1°C 47.0°F8.3°C 95% 2.4 mph NNE3.9 kmh NNE 4.0 mph6.4 kmh 29.81 in1009.5 mb 0.00 in0.0 mm 0.00 in/hr0.0 mm/hr 0.15 in3.8 mm
10:10 AM 48.7°F9.3°C 47.4°F8.6°C 95% 2.4 mph NE3.9 kmh NE 4.0 mph6.4 kmh 29.80 in1009.1 mb 0.00 in0.0 mm 0.00 in/hr0.0 mm/hr 0.15 in3.8 mm
10:09 AM 48.9°F9.4°C 47.6°F8.7°C 95% 2.3 mph NE3.7 kmh NE 4.0 mph6.4 kmh 29.80 in1009.1 mb 0.00 in0.0 mm 0.00 in/hr0.0 mm/hr 0.15 in3.8 mm
10:08 AM 48.7°F9.3°C 47.4°F8.6°C 95% 2.4 mph NNE3.9 kmh NNE 4.0 mph6.4 kmh 29.80 in1009.1 mb 0.00 in0.0 mm 0.00 in/hr0.0 mm/hr 0.15 in3.8 mm
10:07 AM 48.7°F9.3°C 47.4°F8.6°C 95% 2.5 mph NNE4.0 kmh NNE 4.0 mph6.4 kmh 29.80 in1009.1 mb 0.00 in0.0 mm 0.00 in/hr0.0 mm/hr 0.15 in3.8 mm
10:06 AM 48.6°F9.2°C 47.2°F8.4°C 95% 2.6 mph NNE4.2 kmh NNE 4.0 mph6.4 kmh 29.80 in1009.1 mb 0.00 in0.0 mm 0.00 in/hr0.0 mm/hr 0.15 in3.8 mm
10:05 AM 48.6°F9.2°C 47.2°F8.4°C 95% 2.4 mph NNE3.9 kmh NNE 4.0 mph6.4 kmh 29.81 in1009.5 mb 0.00 in0.0 mm 0.00 in/hr0.0 mm/hr 0.15 in3.8 mm
10:04 AM 48.4°F9.1°C 47.3°F8.5°C 96% 2.2 mph NNE3.5 kmh NNE 4.0 mph6.4 kmh 29.80 in1009.1 mb 0.00 in0.0 mm 0.00 in/hr0.0 mm/hr 0.15 in3.8 mm
10:03 AM 48.4°F9.1°C 47.3°F8.5°C 96% 1.9 mph NNE3.1 kmh NNE 4.0 mph6.4 kmh 29.80 in1009.1 mb 0.00 in0.0 mm 0.00 in/hr0.0 mm/hr 0.15 in3.8 mm
10:02 AM 48.4°F9.1°C 47.3°F8.5°C 96% 1.7 mph NNE2.7 kmh NNE 4.0 mph6.4 kmh 29.81 in1009.5 mb 0.00 in0.0 mm 0.00 in/hr0.0 mm/hr 0.15 in3.8 mm
10:01 AM 48.0°F8.9°C 47.2°F8.4°C 97% 1.7 mph N2.7 kmh N 4.0 mph6.4 kmh 29.80 in1009.1 mb 0.00 in0.0 mm 0.00 in/hr0.0 mm/hr 0.15 in3.8 mm
10:00 AM 48.2°F9.0°C 47.1°F8.4°C 96% 1.8 mph NW2.9 kmh NW 4.0 mph6.4 kmh 29.80 in1009.1 mb 0.00 in0.0 mm 0.00 in/hr0.0 mm/hr 0.15 in3.8 mm
09:59 AM 48.2°F9.0°C 47.1°F8.4°C 96% 1.7 mph WNW2.7 kmh WNW 4.0 mph6.4 kmh 29.81 in1009.5 mb 0.00 in0.0 mm 0.00 in/hr0.0 mm/hr 0.15 in3.8 mm
09:58 AM 48.2°F9.0°C 47.4°F8.6°C 97% 1.7 mph NW2.7 kmh NW 4.0 mph6.4 kmh 29.80 in1009.1 mb 0.00 in0.0 mm 0.00 in/hr0.0 mm/hr 0.15 in3.8 mm
09:57 AM 48.2°F9.0°C 47.4°F8.6°C 97% 1.9 mph ENE3.1 kmh ENE 4.0 mph6.4 kmh 29.80 in1009.1 mb 0.00 in0.0 mm 0.00 in/hr0.0 mm/hr 0.15 in3.8 mm
09:56 AM 48.2°F9.0°C 47.4°F8.6°C 97% 2.0 mph ENE3.2 kmh ENE 4.0 mph6.4 kmh 29.80 in1009.1 mb 0.00 in0.0 mm 0.00 in/hr0.0 mm/hr 0.15 in3.8 mm
09:55 AM 48.0°F8.9°C 47.5°F8.6°C 98% 2.1 mph NE3.4 kmh NE 4.0 mph6.4 kmh 29.81 in1009.5 mb 0.00 in0.0 mm 0.00 in/hr0.0 mm/hr 0.15 in3.8 mm
09:54 AM 47.8°F8.8°C 47.3°F8.5°C 98% 2.4 mph ESE3.9 kmh ESE 4.0 mph6.4 kmh 29.80 in1009.1 mb 0.00 in0.0 mm 0.00 in/hr0.0 mm/hr 0.15 in3.8 mm
09:53 AM 47.7°F8.7°C 47.1°F8.4°C 98% 2.6 mph E4.2 kmh E 4.0 mph6.4 kmh 29.80 in1009.1 mb 0.00 in0.0 mm 0.00 in/hr0.0 mm/hr 0.15 in3.8 mm
09:52 AM 47.5°F8.6°C 46.9°F8.3°C 98% 2.7 mph E4.3 kmh E 4.0 mph6.4 kmh 29.80 in1009.1 mb 0.00 in0.0 mm 0.00 in/hr0.0 mm/hr 0.15 in3.8 mm
09:51 AM 47.3°F8.5°C 46.8°F8.2°C 98% 2.6 mph ENE4.2 kmh ENE 4.0 mph6.4 kmh 29.80 in1009.1 mb 0.00 in0.0 mm 0.00 in/hr0.0 mm/hr 0.15 in3.8 mm
09:50 AM 47.3°F8.5°C 46.8°F8.2°C 98% 2.7 mph NNE4.3 kmh NNE 4.8 mph7.7 kmh 29.81 in1009.5 mb 0.00 in0.0 mm 0.00 in/hr0.0 mm/hr 0.15 in3.8 mm
09:49 AM 47.1°F8.4°C 46.6°F8.1°C 98% 2.8 mph NNE4.5 kmh NNE 4.8 mph7.7 kmh 29.80 in1009.1 mb 0.00 in0.0 mm 0.00 in/hr0.0 mm/hr 0.15 in3.8 mm
09:48 AM 47.1°F8.4°C 46.6°F8.1°C 98% 2.8 mph NNE4.5 kmh NNE 4.8 mph7.7 kmh 29.80 in1009.1 mb 0.00 in0.0 mm 0.00 in/hr0.0 mm/hr 0.15 in3.8 mm
09:47 AM 47.7°F8.7°C 47.1°F8.4°C 98% 2.7 mph N4.3 kmh N 4.8 mph7.7 kmh 29.80 in1009.1 mb 0.00 in0.0 mm 0.00 in/hr0.0 mm/hr 0.15 in3.8 mm
09:46 AM 47.1°F8.4°C 46.6°F8.1°C 98% 2.5 mph N4.0 kmh N 4.8 mph7.7 kmh 29.80 in1009.1 mb 0.00 in0.0 mm 0.00 in/hr0.0 mm/hr 0.15 in3.8 mm
09:45 AM 47.3°F8.5°C 46.8°F8.2°C 98% 2.4 mph N3.9 kmh N 4.8 mph7.7 kmh 29.80 in1009.1 mb 0.00 in0.0 mm 0.00 in/hr0.0 mm/hr 0.15 in3.8 mm
09:44 AM 47.3°F8.5°C 46.8°F8.2°C 98% 2.2 mph N3.5 kmh N 4.8 mph7.7 kmh 29.80 in1009.1 mb 0.00 in0.0 mm 0.00 in/hr0.0 mm/hr 0.15 in3.8 mm
09:43 AM 47.3°F8.5°C 46.8°F8.2°C 98% 2.2 mph N3.5 kmh N 4.8 mph7.7 kmh 29.80 in1009.1 mb 0.00 in0.0 mm 0.00 in/hr0.0 mm/hr 0.15 in3.8 mm
09:42 AM 47.1°F8.4°C 46.9°F8.3°C 99% 2.3 mph N3.7 kmh N 4.8 mph7.7 kmh 29.80 in1009.1 mb 0.00 in0.0 mm 0.00 in/hr0.0 mm/hr 0.15 in3.8 mm
09:41 AM 47.3°F8.5°C 47.0°F8.3°C 99% 2.3 mph N3.7 kmh N 4.8 mph7.7 kmh 29.80 in1009.1 mb 0.00 in0.0 mm 0.00 in/hr0.0 mm/hr 0.15 in3.8 mm
09:40 AM 47.3°F8.5°C 47.0°F8.3°C 99% 2.1 mph N3.4 kmh N 4.8 mph7.7 kmh 29.80 in1009.1 mb 0.00 in0.0 mm 0.00 in/hr0.0 mm/hr 0.15 in3.8 mm
09:39 AM 47.3°F8.5°C 47.0°F8.3°C 99% 1.9 mph N3.1 kmh N 3.2 mph5.1 kmh 29.80 in1009.1 mb 0.00 in0.0 mm 0.00 in/hr0.0 mm/hr 0.15 in3.8 mm
09:38 AM 47.3°F8.5°C 47.0°F8.3°C 99% 2.0 mph N3.2 kmh N 2.4 mph3.9 kmh 29.80 in1009.1 mb 0.00 in0.0 mm 0.00 in/hr0.0 mm/hr 0.15 in3.8 mm
09:37 AM 47.3°F8.5°C 47.0°F8.3°C 99% 1.9 mph N3.1 kmh N 2.4 mph3.9 kmh 29.81 in1009.5 mb 0.00 in0.0 mm 0.00 in/hr0.0 mm/hr 0.15 in3.8 mm
09:36 AM 47.3°F8.5°C 47.0°F8.3°C 99% 1.9 mph N3.1 kmh N 2.4 mph3.9 kmh 29.80 in1009.1 mb 0.00 in0.0 mm 0.00 in/hr0.0 mm/hr 0.15 in3.8 mm
09:35 AM 47.1°F8.4°C 46.9°F8.3°C 99% 2.0 mph N3.2 kmh N 5.6 mph9.0 kmh 29.80 in1009.1 mb 0.00 in0.0 mm 0.00 in/hr0.0 mm/hr 0.15 in3.8 mm
09:34 AM 46.9°F8.3°C 46.7°F8.2°C 99% 2.4 mph N3.9 kmh N 5.6 mph9.0 kmh 29.80 in1009.1 mb 0.00 in0.0 mm 0.00 in/hr0.0 mm/hr 0.15 in3.8 mm
09:33 AM 47.1°F8.4°C 46.9°F8.3°C 99% 2.5 mph N4.0 kmh N 5.6 mph9.0 kmh 29.80 in1009.1 mb 0.00 in0.0 mm 0.00 in/hr0.0 mm/hr 0.15 in3.8 mm
09:32 AM 46.8°F8.2°C 46.5°F8.1°C 99% 2.4 mph N3.9 kmh N 5.6 mph9.0 kmh 29.80 in1009.1 mb 0.00 in0.0 mm 0.00 in/hr0.0 mm/hr 0.15 in3.8 mm
09:31 AM 47.1°F8.4°C 46.9°F8.3°C 99% 2.4 mph N3.9 kmh N 5.6 mph9.0 kmh 29.80 in1009.1 mb 0.01 in0.3 mm 0.00 in/hr0.0 mm/hr 0.15 in3.8 mm
09:30 AM 47.1°F8.4°C 46.9°F8.3°C 99% 2.3 mph N3.7 kmh N 5.6 mph9.0 kmh 29.80 in1009.1 mb 0.01 in0.3 mm 0.00 in/hr0.0 mm/hr 0.15 in3.8 mm
09:29 AM 47.1°F8.4°C 46.9°F8.3°C 99% 2.3 mph N3.7 kmh N 5.6 mph9.0 kmh 29.80 in1009.1 mb 0.01 in0.3 mm 0.00 in/hr0.0 mm/hr 0.15 in3.8 mm
09:28 AM 46.9°F8.3°C 46.7°F8.2°C 99% 2.5 mph N4.0 kmh N 5.6 mph9.0 kmh 29.80 in1009.1 mb 0.01 in0.3 mm 0.00 in/hr0.0 mm/hr 0.15 in3.8 mm
09:27 AM 46.9°F8.3°C 46.7°F8.2°C 99% 2.8 mph NNE4.5 kmh NNE 5.6 mph9.0 kmh 29.80 in1009.1 mb 0.01 in0.3 mm 0.00 in/hr0.0 mm/hr 0.15 in3.8 mm
09:26 AM 47.1°F8.4°C 46.9°F8.3°C 99% 2.8 mph NNE4.5 kmh NNE 5.6 mph9.0 kmh 29.80 in1009.1 mb 0.01 in0.3 mm 0.00 in/hr0.0 mm/hr 0.15 in3.8 mm
09:25 AM 47.1°F8.4°C 46.9°F8.3°C 99% 2.8 mph NE4.5 kmh NE 5.6 mph9.0 kmh 29.80 in1009.1 mb 0.01 in0.3 mm 0.00 in/hr0.0 mm/hr 0.15 in3.8 mm
09:24 AM 46.9°F8.3°C 46.7°F8.2°C 99% 2.5 mph E4.0 kmh E 4.8 mph7.7 kmh 29.80 in1009.1 mb 0.01 in0.3 mm 0.00 in/hr0.0 mm/hr 0.15 in3.8 mm
09:23 AM 46.9°F8.3°C 46.7°F8.2°C 99% 2.1 mph E3.4 kmh E 4.8 mph7.7 kmh 29.80 in1009.1 mb 0.01 in0.3 mm 0.00 in/hr0.0 mm/hr 0.15 in3.8 mm
09:22 AM 46.9°F8.3°C 46.7°F8.2°C 99% 2.0 mph E3.2 kmh E 4.8 mph7.7 kmh 29.81 in1009.5 mb 0.01 in0.3 mm 0.00 in/hr0.0 mm/hr 0.15 in3.8 mm
09:21 AM 47.1°F8.4°C 46.9°F8.3°C 99% 2.0 mph ENE3.2 kmh ENE 4.8 mph7.7 kmh 29.80 in1009.1 mb 0.01 in0.3 mm 0.00 in/hr0.0 mm/hr 0.15 in3.8 mm
09:20 AM 47.1°F8.4°C 46.9°F8.3°C 99% 2.1 mph E3.4 kmh E 4.8 mph7.7 kmh 29.80 in1009.1 mb 0.01 in0.3 mm 0.00 in/hr0.0 mm/hr 0.15 in3.8 mm
09:19 AM 46.9°F8.3°C 46.7°F8.2°C 99% 2.0 mph SE3.2 kmh SE 4.8 mph7.7 kmh 29.80 in1009.1 mb 0.01 in0.3 mm 0.00 in/hr0.0 mm/hr 0.15 in3.8 mm
09:18 AM 46.9°F8.3°C 46.7°F8.2°C 99% 1.9 mph SE3.1 kmh SE 4.8 mph7.7 kmh 29.80 in1009.1 mb 0.01 in0.3 mm 0.00 in/hr0.0 mm/hr 0.15 in3.8 mm
09:17 AM 46.9°F8.3°C 46.7°F8.2°C 99% 1.9 mph ENE3.1 kmh ENE 4.8 mph7.7 kmh 29.80 in1009.1 mb 0.02 in0.5 mm 0.00 in/hr0.0 mm/hr 0.15 in3.8 mm
09:16 AM 46.8°F8.2°C 46.5°F8.1°C 99% 1.9 mph NE3.1 kmh NE 4.8 mph7.7 kmh 29.80 in1009.1 mb 0.02 in0.5 mm 0.00 in/hr0.0 mm/hr 0.15 in3.8 mm
09:15 AM 46.8°F8.2°C 46.5°F8.1°C 99% 1.7 mph N2.7 kmh N 4.8 mph7.7 kmh 29.80 in1009.1 mb 0.02 in0.5 mm 0.00 in/hr0.0 mm/hr 0.15 in3.8 mm
09:14 AM 46.8°F8.2°C 46.5°F8.1°C 99% 1.7 mph NNE2.7 kmh NNE 4.8 mph7.7 kmh 29.80 in1009.1 mb 0.02 in0.5 mm 0.00 in/hr0.0 mm/hr 0.15 in3.8 mm
09:13 AM 46.8°F8.2°C 46.5°F8.1°C 99% 1.8 mph NE2.9 kmh NE 4.8 mph7.7 kmh 29.80 in1009.1 mb 0.02 in0.5 mm 0.00 in/hr0.0 mm/hr 0.15 in3.8 mm
09:12 AM 46.8°F8.2°C 46.5°F8.1°C 99% 1.8 mph NE2.9 kmh NE 4.8 mph7.7 kmh 29.80 in1009.1 mb 0.02 in0.5 mm 0.00 in/hr0.0 mm/hr 0.15 in3.8 mm
09:11 AM 46.9°F8.3°C 46.7°F8.2°C 99% 1.8 mph E2.9 kmh E 4.8 mph7.7 kmh 29.80 in1009.1 mb 0.02 in0.5 mm 0.00 in/hr0.0 mm/hr 0.15 in3.8 mm
09:10 AM 46.8°F8.2°C 46.5°F8.1°C 99% 1.8 mph E2.9 kmh E 4.8 mph7.7 kmh 29.79 in1008.8 mb 0.02 in0.5 mm 0.00 in/hr0.0 mm/hr 0.15 in3.8 mm
09:09 AM 46.8°F8.2°C 46.5°F8.1°C 99% 1.6 mph ENE2.6 kmh ENE 4.8 mph7.7 kmh 29.80 in1009.1 mb 0.02 in0.5 mm 0.00 in/hr0.0 mm/hr 0.15 in3.8 mm
09:08 AM 46.8°F8.2°C 46.5°F8.1°C 99% 1.5 mph ENE2.4 kmh ENE 4.8 mph7.7 kmh 29.80 in1009.1 mb 0.02 in0.5 mm 0.00 in/hr0.0 mm/hr 0.15 in3.8 mm
09:07 AM 46.6°F8.1°C 46.3°F7.9°C 99% 1.1 mph ESE1.8 kmh ESE 4.8 mph7.7 kmh 29.80 in1009.1 mb 0.02 in0.5 mm 0.00 in/hr0.0 mm/hr 0.15 in3.8 mm
09:06 AM 46.8°F8.2°C 46.5°F8.1°C 99% 1.0 mph E1.6 kmh E 2.4 mph3.9 kmh 29.80 in1009.1 mb 0.02 in0.5 mm 0.00 in/hr0.0 mm/hr 0.15 in3.8 mm
09:05 AM 46.6°F8.1°C 46.3°F7.9°C 99% 1.2 mph E1.9 kmh E 2.4 mph3.9 kmh 29.80 in1009.1 mb 0.02 in0.5 mm 0.00 in/hr0.0 mm/hr 0.15 in3.8 mm
09:04 AM 46.6°F8.1°C 46.3°F7.9°C 99% 1.3 mph E2.1 kmh E 2.4 mph3.9 kmh 29.80 in1009.1 mb 0.02 in0.5 mm 0.00 in/hr0.0 mm/hr 0.15 in3.8 mm
09:03 AM 46.8°F8.2°C 46.5°F8.1°C 99% 1.3 mph E2.1 kmh E 2.4 mph3.9 kmh 29.80 in1009.1 mb 0.02 in0.5 mm 0.00 in/hr0.0 mm/hr 0.15 in3.8 mm
09:02 AM 46.8°F8.2°C 46.5°F8.1°C 99% 1.3 mph E2.1 kmh E 2.4 mph3.9 kmh 29.80 in1009.1 mb 0.02 in0.5 mm 0.00 in/hr0.0 mm/hr 0.15 in3.8 mm
09:01 AM 46.8°F8.2°C 46.5°F8.1°C 99% 1.4 mph E2.3 kmh E 3.2 mph5.1 kmh 29.80 in1009.1 mb 0.02 in0.5 mm 0.00 in/hr0.0 mm/hr 0.15 in3.8 mm
09:00 AM 46.8°F8.2°C 46.5°F8.1°C 99% 1.3 mph E2.1 kmh E 3.2 mph5.1 kmh 29.80 in1009.1 mb 0.02 in0.5 mm 0.00 in/hr0.0 mm/hr 0.15 in3.8 mm
08:59 AM 46.8°F8.2°C 46.5°F8.1°C 99% 1.2 mph E1.9 kmh E 3.2 mph5.1 kmh 29.80 in1009.1 mb 0.04 in1.0 mm 0.00 in/hr0.0 mm/hr 0.15 in3.8 mm
08:58 AM 46.4°F8.0°C 46.1°F7.8°C 99% 1.4 mph E2.3 kmh E 3.2 mph5.1 kmh 29.80 in1009.1 mb 0.04 in1.0 mm 0.00 in/hr0.0 mm/hr 0.15 in3.8 mm
08:57 AM 46.4°F8.0°C 46.1°F7.8°C 99% 1.7 mph SE2.7 kmh SE 3.2 mph5.1 kmh 29.80 in1009.1 mb 0.04 in1.0 mm 0.00 in/hr0.0 mm/hr 0.15 in3.8 mm
08:56 AM 46.4°F8.0°C 46.1°F7.8°C 99% 1.7 mph SE2.7 kmh SE 3.2 mph5.1 kmh 29.80 in1009.1 mb 0.04 in1.0 mm 0.00 in/hr0.0 mm/hr 0.15 in3.8 mm
08:55 AM 46.4°F8.0°C 46.1°F7.8°C 99% 1.8 mph SE2.9 kmh SE 4.0 mph6.4 kmh 29.79 in1008.8 mb 0.04 in1.0 mm 0.00 in/hr0.0 mm/hr 0.15 in3.8 mm
08:54 AM 46.6°F8.1°C 46.3°F7.9°C 99% 1.9 mph SE3.1 kmh SE 4.0 mph6.4 kmh 29.80 in1009.1 mb 0.04 in1.0 mm 0.00 in/hr0.0 mm/hr 0.15 in3.8 mm
08:53 AM 46.6°F8.1°C 46.3°F7.9°C 99% 1.9 mph SSE3.1 kmh SSE 4.0 mph6.4 kmh 29.80 in1009.1 mb 0.04 in1.0 mm 0.00 in/hr0.0 mm/hr 0.15 in3.8 mm
08:52 AM 46.4°F8.0°C 46.1°F7.8°C 99% 2.0 mph SSE3.2 kmh SSE 4.0 mph6.4 kmh 29.80 in1009.1 mb 0.04 in1.0 mm 0.00 in/hr0.0 mm/hr 0.15 in3.8 mm
08:51 AM 46.6°F8.1°C 46.3°F7.9°C 99% 2.0 mph SE3.2 kmh SE 4.0 mph6.4 kmh 29.79 in1008.8 mb 0.04 in1.0 mm 0.00 in/hr0.0 mm/hr 0.15 in3.8 mm
08:50 AM 46.6°F8.1°C 46.3°F7.9°C 99% 2.2 mph E3.5 kmh E 4.0 mph6.4 kmh 29.80 in1009.1 mb 0.04 in1.0 mm 0.00 in/hr0.0 mm/hr 0.15 in3.8 mm
08:49 AM 46.4°F8.0°C 46.1°F7.8°C 99% 2.4 mph E3.9 kmh E 4.0 mph6.4 kmh 29.79 in1008.8 mb 0.04 in1.0 mm 0.00 in/hr0.0 mm/hr 0.15 in3.8 mm
08:48 AM 46.6°F8.1°C 46.3°F7.9°C 99% 2.5 mph E4.0 kmh E 4.0 mph6.4 kmh 29.80 in1009.1 mb 0.04 in1.0 mm 0.00 in/hr0.0 mm/hr 0.15 in3.8 mm
08:47 AM 46.6°F8.1°C 46.3°F7.9°C 99% 2.3 mph E3.7 kmh E 4.0 mph6.4 kmh 29.79 in1008.8 mb 0.04 in1.0 mm 0.00 in/hr0.0 mm/hr 0.15 in3.8 mm
08:46 AM 46.6°F8.1°C 46.3°F7.9°C 99% 2.3 mph E3.7 kmh E 4.0 mph6.4 kmh 29.80 in1009.1 mb 0.04 in1.0 mm 0.00 in/hr0.0 mm/hr 0.15 in3.8 mm
08:45 AM 46.8°F8.2°C 46.5°F8.1°C 99% 2.0 mph E3.2 kmh E 4.0 mph6.4 kmh 29.80 in1009.1 mb 0.04 in1.0 mm 0.00 in/hr0.0 mm/hr 0.15 in3.8 mm
08:44 AM 46.6°F8.1°C 46.3°F7.9°C 99% 1.7 mph ESE2.7 kmh ESE 4.0 mph6.4 kmh 29.80 in1009.1 mb 0.04 in1.0 mm 0.00 in/hr0.0 mm/hr 0.15 in3.8 mm
08:43 AM 46.6°F8.1°C 46.3°F7.9°C 99% 1.5 mph E2.4 kmh E 4.0 mph6.4 kmh 29.80 in1009.1 mb 0.04 in1.0 mm 0.00 in/hr0.0 mm/hr 0.15 in3.8 mm
08:42 AM 46.4°F8.0°C 46.1°F7.8°C 99% 1.4 mph NE2.3 kmh NE 4.0 mph6.4 kmh 29.79 in1008.8 mb 0.04 in1.0 mm 0.00 in/hr0.0 mm/hr 0.15 in3.8 mm
08:41 AM 46.4°F8.0°C 46.1°F7.8°C 99% 1.3 mph E2.1 kmh E 4.0 mph6.4 kmh 29.80 in1009.1 mb 0.04 in1.0 mm 0.00 in/hr0.0 mm/hr 0.15 in3.8 mm
08:40 AM 46.4°F8.0°C 46.1°F7.8°C 99% 1.3 mph SSE2.1 kmh SSE 2.4 mph3.9 kmh 29.80 in1009.1 mb 0.04 in1.0 mm 0.00 in/hr0.0 mm/hr 0.15 in3.8 mm
08:39 AM 46.4°F8.0°C 46.1°F7.8°C 99% 1.0 mph S1.6 kmh S 2.4 mph3.9 kmh 29.79 in1008.8 mb 0.04 in1.0 mm 0.00 in/hr0.0 mm/hr 0.15 in3.8 mm
08:38 AM 46.4°F8.0°C 46.1°F7.8°C 99% 0.8 mph SSE1.3 kmh SSE 2.4 mph3.9 kmh 29.80 in1009.1 mb 0.05 in1.3 mm 0.00 in/hr0.0 mm/hr 0.15 in3.8 mm
08:37 AM 46.8°F8.2°C 46.5°F8.1°C 99% 0.8 mph SSE1.3 kmh SSE 2.4 mph3.9 kmh 29.80 in1009.1 mb 0.05 in1.3 mm 0.00 in/hr0.0 mm/hr 0.15 in3.8 mm
08:36 AM 46.6°F8.1°C 46.3°F7.9°C 99% 0.9 mph S1.4 kmh S 2.4 mph3.9 kmh 29.80 in1009.1 mb 0.05 in1.3 mm 0.00 in/hr0.0 mm/hr 0.15 in3.8 mm
08:35 AM 46.6°F8.1°C 46.3°F7.9°C 99% 1.2 mph S1.9 kmh S 2.4 mph3.9 kmh 29.80 in1009.1 mb 0.05 in1.3 mm 0.00 in/hr0.0 mm/hr 0.15 in3.8 mm
08:34 AM 46.8°F8.2°C 46.5°F8.1°C 99% 1.4 mph S2.3 kmh S 3.2 mph5.1 kmh 29.80 in1009.1 mb 0.05 in1.3 mm 0.00 in/hr0.0 mm/hr 0.15 in3.8 mm
08:33 AM 46.6°F8.1°C 46.3°F7.9°C 99% 1.5 mph S2.4 kmh S 3.2 mph5.1 kmh 29.80 in1009.1 mb 0.05 in1.3 mm 0.60 in/hr15.2 mm/hr 0.15 in3.8 mm
08:32 AM 46.6°F8.1°C 46.3°F7.9°C 99% 1.4 mph S2.3 kmh S 3.2 mph5.1 kmh 29.79 in1008.8 mb 0.04 in1.0 mm 0.00 in/hr0.0 mm/hr 0.14 in3.6 mm
08:31 AM 46.6°F8.1°C 46.3°F7.9°C 99% 1.6 mph SW2.6 kmh SW 4.8 mph7.7 kmh 29.80 in1009.1 mb 0.04 in1.0 mm 0.00 in/hr0.0 mm/hr 0.14 in3.6 mm
08:30 AM 46.4°F8.0°C 46.1°F7.8°C 99% 1.6 mph SW2.6 kmh SW 4.8 mph7.7 kmh 29.80 in1009.1 mb 0.04 in1.0 mm 0.00 in/hr0.0 mm/hr 0.14 in3.6 mm
08:29 AM 46.4°F8.0°C 46.1°F7.8°C 99% 1.8 mph SW2.9 kmh SW 4.8 mph7.7 kmh 29.79 in1008.8 mb 0.05 in1.3 mm 0.00 in/hr0.0 mm/hr 0.14 in3.6 mm
08:28 AM 46.4°F8.0°C 46.1°F7.8°C 99% 2.1 mph SSW3.4 kmh SSW 4.8 mph7.7 kmh 29.79 in1008.8 mb 0.05 in1.3 mm 0.00 in/hr0.0 mm/hr 0.14 in3.6 mm
08:27 AM 46.4°F8.0°C 46.1°F7.8°C 99% 1.9 mph SW3.1 kmh SW 4.8 mph7.7 kmh 29.79 in1008.8 mb 0.05 in1.3 mm 0.00 in/hr0.0 mm/hr 0.14 in3.6 mm
08:26 AM 46.4°F8.0°C 46.1°F7.8°C 99% 1.7 mph SSW2.7 kmh SSW 4.8 mph7.7 kmh 29.79 in1008.8 mb 0.05 in1.3 mm 0.00 in/hr0.0 mm/hr 0.14 in3.6 mm
08:25 AM 46.2°F7.9°C 45.4°F7.4°C 97% 1.5 mph SSW2.4 kmh SSW 4.8 mph7.7 kmh 29.79 in1008.8 mb 0.06 in1.5 mm 0.00 in/hr0.0 mm/hr 0.14 in3.6 mm
08:24 AM 46.2°F7.9°C 45.4°F7.4°C 97% 1.2 mph SSW1.9 kmh SSW 4.8 mph7.7 kmh 29.79 in1008.8 mb 0.06 in1.5 mm 0.00 in/hr0.0 mm/hr 0.14 in3.6 mm
08:23 AM 46.2°F7.9°C 45.4°F7.4°C 97% 1.2 mph SW1.9 kmh SW 4.8 mph7.7 kmh 29.79 in1008.8 mb 0.06 in1.5 mm 0.00 in/hr0.0 mm/hr 0.14 in3.6 mm
08:22 AM 45.9°F7.7°C 45.1°F7.3°C 97% 1.3 mph SW2.1 kmh SW 4.8 mph7.7 kmh 29.79 in1008.8 mb 0.06 in1.5 mm 0.00 in/hr0.0 mm/hr 0.14 in3.6 mm
08:21 AM 46.2°F7.9°C 45.4°F7.4°C 97% 1.0 mph S1.6 kmh S 4.8 mph7.7 kmh 29.79 in1008.8 mb 0.06 in1.5 mm 0.00 in/hr0.0 mm/hr 0.14 in3.6 mm
08:20 AM 46.0°F7.8°C 45.2°F7.3°C 97% 0.7 mph SSE1.1 kmh SSE 3.2 mph5.1 kmh 29.79 in1008.8 mb 0.06 in1.5 mm 0.00 in/hr0.0 mm/hr 0.14 in3.6 mm
08:19 AM 46.0°F7.8°C 45.2°F7.3°C 97% 0.6 mph SSW1.0 kmh SSW 3.2 mph5.1 kmh 29.79 in1008.8 mb 0.07 in1.8 mm 0.60 in/hr15.2 mm/hr 0.14 in3.6 mm
08:18 AM 46.2°F7.9°C 45.4°F7.4°C 97% 0.4 mph SW0.6 kmh SW 1.6 mph2.6 kmh 29.79 in1008.8 mb 0.06 in1.5 mm 0.00 in/hr0.0 mm/hr 0.13 in3.3 mm
08:17 AM 46.2°F7.9°C 45.4°F7.4°C 97% 0.4 mph SW0.6 kmh SW 1.6 mph2.6 kmh 29.79 in1008.8 mb 0.06 in1.5 mm 0.00 in/hr0.0 mm/hr 0.13 in3.3 mm
08:16 AM 45.9°F7.7°C 45.1°F7.3°C 97% 0.4 mph SW0.6 kmh SW 1.6 mph2.6 kmh 29.79 in1008.8 mb 0.07 in1.8 mm 0.00 in/hr0.0 mm/hr 0.13 in3.3 mm
08:15 AM 45.9°F7.7°C 45.1°F7.3°C 97% 0.4 mph SW0.6 kmh SW 1.6 mph2.6 kmh 29.79 in1008.8 mb 0.07 in1.8 mm 0.00 in/hr0.0 mm/hr 0.13 in3.3 mm
08:14 AM 45.9°F7.7°C 45.1°F7.3°C 97% 0.5 mph S0.8 kmh S 1.6 mph2.6 kmh 29.79 in1008.8 mb 0.07 in1.8 mm 0.00 in/hr0.0 mm/hr 0.13 in3.3 mm
08:13 AM 45.9°F7.7°C 45.1°F7.3°C 97% 0.6 mph SSE1.0 kmh SSE 2.4 mph3.9 kmh 29.79 in1008.8 mb 0.07 in1.8 mm 0.00 in/hr0.0 mm/hr 0.13 in3.3 mm
08:12 AM 45.9°F7.7°C 45.1°F7.3°C 97% 0.5 mph SSE0.8 kmh SSE 2.4 mph3.9 kmh 29.79 in1008.8 mb 0.08 in2.0 mm 0.00 in/hr0.0 mm/hr 0.13 in3.3 mm
08:11 AM 45.9°F7.7°C 45.1°F7.3°C 97% 0.5 mph SSE0.8 kmh SSE 2.4 mph3.9 kmh 29.79 in1008.8 mb 0.08 in2.0 mm 0.00 in/hr0.0 mm/hr 0.13 in3.3 mm
08:10 AM 46.0°F7.8°C 45.2°F7.3°C 97% 0.5 mph SE0.8 kmh SE 2.4 mph3.9 kmh 29.79 in1008.8 mb 0.08 in2.0 mm 0.00 in/hr0.0 mm/hr 0.13 in3.3 mm
08:09 AM 46.0°F7.8°C 45.2°F7.3°C 97% 0.5 mph SE0.8 kmh SE 2.4 mph3.9 kmh 29.79 in1008.8 mb 0.09 in2.3 mm 0.00 in/hr0.0 mm/hr 0.13 in3.3 mm
08:08 AM 46.0°F7.8°C 45.2°F7.3°C 97% 0.4 mph SE0.6 kmh SE 2.4 mph3.9 kmh 29.79 in1008.8 mb 0.09 in2.3 mm 0.00 in/hr0.0 mm/hr 0.13 in3.3 mm
08:07 AM 46.0°F7.8°C 45.2°F7.3°C 97% 0.4 mph SE0.6 kmh SE 2.4 mph3.9 kmh 29.79 in1008.8 mb 0.09 in2.3 mm 0.00 in/hr0.0 mm/hr 0.13 in3.3 mm
08:06 AM 46.0°F7.8°C 45.2°F7.3°C 97% 0.6 mph E1.0 kmh E 2.4 mph3.9 kmh 29.79 in1008.8 mb 0.09 in2.3 mm 0.00 in/hr0.0 mm/hr 0.13 in3.3 mm
08:05 AM 46.0°F7.8°C 45.2°F7.3°C 97% 0.6 mph ENE1.0 kmh ENE 2.4 mph3.9 kmh 29.79 in1008.8 mb 0.09 in2.3 mm 0.00 in/hr0.0 mm/hr 0.13 in3.3 mm
08:04 AM 46.0°F7.8°C 45.2°F7.3°C 97% 0.5 mph NW0.8 kmh NW 2.4 mph3.9 kmh 29.79 in1008.8 mb 0.09 in2.3 mm 0.00 in/hr0.0 mm/hr 0.13 in3.3 mm
08:03 AM 46.0°F7.8°C 45.2°F7.3°C 97% 0.4 mph WNW0.6 kmh WNW 2.4 mph3.9 kmh 29.79 in1008.8 mb 0.09 in2.3 mm 0.00 in/hr0.0 mm/hr 0.13 in3.3 mm
08:02 AM 46.0°F7.8°C 45.2°F7.3°C 97% 0.4 mph NW0.6 kmh NW 1.6 mph2.6 kmh 29.79 in1008.8 mb 0.09 in2.3 mm 0.00 in/hr0.0 mm/hr 0.13 in3.3 mm
08:01 AM 46.0°F7.8°C 45.2°F7.3°C 97% 0.5 mph WNW0.8 kmh WNW 2.4 mph3.9 kmh 29.79 in1008.8 mb 0.09 in2.3 mm 0.00 in/hr0.0 mm/hr 0.13 in3.3 mm
08:00 AM 46.0°F7.8°C 45.2°F7.3°C 97% 0.6 mph WNW1.0 kmh WNW 2.4 mph3.9 kmh 29.79 in1008.8 mb 0.09 in2.3 mm 0.01 in/hr0.3 mm/hr 0.13 in3.3 mm
07:59 AM 46.0°F7.8°C 45.2°F7.3°C 97% 0.6 mph WNW1.0 kmh WNW 2.4 mph3.9 kmh 29.79 in1008.8 mb 0.08 in2.0 mm 0.00 in/hr0.0 mm/hr 0.12 in3.0 mm
07:58 AM 46.0°F7.8°C 45.2°F7.3°C 97% 0.6 mph WNW1.0 kmh WNW 2.4 mph3.9 kmh 29.79 in1008.8 mb 0.08 in2.0 mm 0.00 in/hr0.0 mm/hr 0.12 in3.0 mm
07:57 AM 46.0°F7.8°C 45.2°F7.3°C 97% 0.5 mph W0.8 kmh W 2.4 mph3.9 kmh 29.79 in1008.8 mb 0.08 in2.0 mm 0.00 in/hr0.0 mm/hr 0.12 in3.0 mm
07:56 AM 46.0°F7.8°C 45.2°F7.3°C 97% 0.4 mph WSW0.6 kmh WSW 2.4 mph3.9 kmh 29.79 in1008.8 mb 0.09 in2.3 mm 0.00 in/hr0.0 mm/hr 0.12 in3.0 mm
07:55 AM 46.0°F7.8°C 45.2°F7.3°C 97% 0.3 mph WSW0.5 kmh WSW 2.4 mph3.9 kmh 29.79 in1008.8 mb 0.09 in2.3 mm 0.00 in/hr0.0 mm/hr 0.12 in3.0 mm
07:54 AM 46.0°F7.8°C 45.2°F7.3°C 97% 0.3 mph WSW0.5 kmh WSW 2.4 mph3.9 kmh 29.79 in1008.8 mb 0.09 in2.3 mm 0.00 in/hr0.0 mm/hr 0.12 in3.0 mm
07:53 AM 46.0°F7.8°C 45.2°F7.3°C 97% 0.2 mph W0.3 kmh W 2.4 mph3.9 kmh 29.78 in1008.5 mb 0.09 in2.3 mm 0.00 in/hr0.0 mm/hr 0.12 in3.0 mm
07:52 AM 46.0°F7.8°C 45.2°F7.3°C 97% 0.2 mph W0.3 kmh W 2.4 mph3.9 kmh 29.79 in1008.8 mb 0.09 in2.3 mm 0.00 in/hr0.0 mm/hr 0.12 in3.0 mm
07:51 AM 45.9°F7.7°C 45.1°F7.3°C 97% 0.1 mph W0.2 kmh W 2.4 mph3.9 kmh 29.79 in1008.8 mb 0.09 in2.3 mm 0.00 in/hr0.0 mm/hr 0.12 in3.0 mm
07:50 AM 45.9°F7.7°C 45.1°F7.3°C 97% 0.2 mph WSW0.3 kmh WSW 1.6 mph2.6 kmh 29.79 in1008.8 mb 0.11 in2.8 mm 0.00 in/hr0.0 mm/hr 0.12 in3.0 mm
07:49 AM 46.0°F7.8°C 45.2°F7.3°C 97% 0.2 mph SW0.3 kmh SW 1.6 mph2.6 kmh 29.79 in1008.8 mb 0.11 in2.8 mm 0.00 in/hr0.0 mm/hr 0.12 in3.0 mm
07:48 AM 46.0°F7.8°C 45.2°F7.3°C 97% 0.2 mph SW0.3 kmh SW 1.6 mph2.6 kmh 29.79 in1008.8 mb 0.11 in2.8 mm 0.00 in/hr0.0 mm/hr 0.12 in3.0 mm
07:47 AM 45.9°F7.7°C 45.1°F7.3°C 97% 0.3 mph SW0.5 kmh SW 1.6 mph2.6 kmh 29.78 in1008.5 mb 0.11 in2.8 mm 0.00 in/hr0.0 mm/hr 0.12 in3.0 mm
07:46 AM 45.9°F7.7°C 45.1°F7.3°C 97% 0.4 mph SSW0.6 kmh SSW 1.6 mph2.6 kmh 29.78 in1008.5 mb 0.11 in2.8 mm 0.00 in/hr0.0 mm/hr 0.12 in3.0 mm
07:45 AM 45.9°F7.7°C 45.1°F7.3°C 97% 0.4 mph SSW0.6 kmh SSW 1.6 mph2.6 kmh 29.79 in1008.8 mb 0.11 in2.8 mm 0.00 in/hr0.0 mm/hr 0.12 in3.0 mm
07:44 AM 45.9°F7.7°C 45.1°F7.3°C 97% 0.4 mph SSW0.6 kmh SSW 1.6 mph2.6 kmh 29.79 in1008.8 mb 0.11 in2.8 mm 0.00 in/hr0.0 mm/hr 0.12 in3.0 mm
07:43 AM 45.9°F7.7°C 45.1°F7.3°C 97% 0.4 mph SSW0.6 kmh SSW 1.6 mph2.6 kmh 29.78 in1008.5 mb 0.11 in2.8 mm 0.00 in/hr0.0 mm/hr 0.12 in3.0 mm
07:42 AM 45.9°F7.7°C 45.1°F7.3°C 97% 0.4 mph SSW0.6 kmh SSW 1.6 mph2.6 kmh 29.78 in1008.5 mb 0.11 in2.8 mm 0.00 in/hr0.0 mm/hr 0.12 in3.0 mm
07:41 AM 45.9°F7.7°C 45.1°F7.3°C 97% 0.4 mph SSW0.6 kmh SSW 1.6 mph2.6 kmh 29.78 in1008.5 mb 0.11 in2.8 mm 0.00 in/hr0.0 mm/hr 0.12 in3.0 mm
07:40 AM 45.9°F7.7°C 45.1°F7.3°C 97% 0.2 mph S0.3 kmh S 1.6 mph2.6 kmh 29.77 in1008.1 mb 0.11 in2.8 mm 0.00 in/hr0.0 mm/hr 0.12 in3.0 mm
07:39 AM 45.9°F7.7°C 45.1°F7.3°C 97% 0.2 mph S0.3 kmh S 1.6 mph2.6 kmh 29.78 in1008.5 mb 0.11 in2.8 mm 1.20 in/hr30.5 mm/hr 0.12 in3.0 mm
07:38 AM 45.9°F7.7°C 45.1°F7.3°C 97% 0.2 mph S0.3 kmh S 1.6 mph2.6 kmh 29.78 in1008.5 mb 0.09 in2.3 mm 0.00 in/hr0.0 mm/hr 0.11 in2.8 mm
07:37 AM 45.9°F7.7°C 45.1°F7.3°C 97% 0.2 mph S0.3 kmh S 1.6 mph2.6 kmh 29.77 in1008.1 mb 0.09 in2.3 mm 0.00 in/hr0.0 mm/hr 0.11 in2.8 mm
07:36 AM 46.0°F7.8°C 45.2°F7.3°C 97% Calm Calm 0.8 mph1.3 kmh 29.78 in1008.5 mb 0.09 in2.3 mm 0.00 in/hr0.0 mm/hr 0.11 in2.8 mm
07:35 AM 46.0°F7.8°C 45.2°F7.3°C 97% 0.1 mph S0.2 kmh S 0.8 mph1.3 kmh 29.78 in1008.5 mb 0.11 in2.8 mm 0.00 in/hr0.0 mm/hr 0.11 in2.8 mm
07:34 AM 46.2°F7.9°C 45.4°F7.4°C 97% 0.1 mph S0.2 kmh S 0.8 mph1.3 kmh 29.78 in1008.5 mb 0.11 in2.8 mm 0.00 in/hr0.0 mm/hr 0.11 in2.8 mm
07:33 AM 46.0°F7.8°C 45.2°F7.3°C 97% 0.1 mph S0.2 kmh S 0.8 mph1.3 kmh 29.78 in1008.5 mb 0.11 in2.8 mm 0.00 in/hr0.0 mm/hr 0.11 in2.8 mm
07:32 AM 45.9°F7.7°C 45.1°F7.3°C 97% 0.2 mph S0.3 kmh S 1.6 mph2.6 kmh 29.78 in1008.5 mb 0.11 in2.8 mm 0.00 in/hr0.0 mm/hr 0.11 in2.8 mm
07:31 AM 46.0°F7.8°C 45.2°F7.3°C 97% 0.2 mph S0.3 kmh S 1.6 mph2.6 kmh 29.78 in1008.5 mb 0.11 in2.8 mm 1.20 in/hr30.5 mm/hr 0.11 in2.8 mm
07:30 AM 46.0°F7.8°C 45.2°F7.3°C 97% 0.2 mph S0.3 kmh S 1.6 mph2.6 kmh 29.78 in1008.5 mb 0.09 in2.3 mm 0.00 in/hr0.0 mm/hr 0.09 in2.3 mm
07:29 AM 45.9°F7.7°C 45.1°F7.3°C 97% 0.3 mph S0.5 kmh S 1.6 mph2.6 kmh 29.78 in1008.5 mb 0.09 in2.3 mm 0.00 in/hr0.0 mm/hr 0.09 in2.3 mm
07:28 AM 46.0°F7.8°C 45.2°F7.3°C 97% 0.4 mph S0.6 kmh S 1.6 mph2.6 kmh 29.78 in1008.5 mb 0.09 in2.3 mm 0.00 in/hr0.0 mm/hr 0.09 in2.3 mm
07:27 AM 46.0°F7.8°C 45.2°F7.3°C 97% 0.5 mph S0.8 kmh S 1.6 mph2.6 kmh 29.79 in1008.8 mb 0.09 in2.3 mm 0.60 in/hr15.2 mm/hr 0.09 in2.3 mm
07:26 AM 46.0°F7.8°C 45.2°F7.3°C 97% 0.6 mph SSE1.0 kmh SSE 1.6 mph2.6 kmh 29.78 in1008.5 mb 0.08 in2.0 mm 0.00 in/hr0.0 mm/hr 0.08 in2.0 mm
07:25 AM 46.2°F7.9°C 45.4°F7.4°C 97% 0.6 mph SSE1.0 kmh SSE 1.6 mph2.6 kmh 29.78 in1008.5 mb 0.08 in2.0 mm 0.00 in/hr0.0 mm/hr 0.08 in2.0 mm
07:24 AM 46.2°F7.9°C 45.4°F7.4°C 97% 0.6 mph S1.0 kmh S 1.6 mph2.6 kmh 29.78 in1008.5 mb 0.08 in2.0 mm 0.00 in/hr0.0 mm/hr 0.08 in2.0 mm
07:23 AM 46.2°F7.9°C 45.4°F7.4°C 97% 0.6 mph S1.0 kmh S 1.6 mph2.6 kmh 29.78 in1008.5 mb 0.08 in2.0 mm 0.00 in/hr0.0 mm/hr 0.08 in2.0 mm
07:22 AM 46.2°F7.9°C 45.4°F7.4°C 97% 0.4 mph SSE0.6 kmh SSE 1.6 mph2.6 kmh 29.78 in1008.5 mb 0.08 in2.0 mm 0.00 in/hr0.0 mm/hr 0.08 in2.0 mm
07:21 AM 46.2°F7.9°C 45.4°F7.4°C 97% 0.4 mph SSE0.6 kmh SSE 1.6 mph2.6 kmh 29.78 in1008.5 mb 0.08 in2.0 mm 0.00 in/hr0.0 mm/hr 0.08 in2.0 mm
07:20 AM 46.2°F7.9°C 45.4°F7.4°C 97% 0.4 mph SSE0.6 kmh SSE 1.6 mph2.6 kmh 29.78 in1008.5 mb 0.08 in2.0 mm 0.60 in/hr15.2 mm/hr 0.08 in2.0 mm
07:19 AM 46.0°F7.8°C 45.2°F7.3°C 97% 0.4 mph SE0.6 kmh SE 1.6 mph2.6 kmh 29.78 in1008.5 mb 0.07 in1.8 mm 0.00 in/hr0.0 mm/hr 0.07 in1.8 mm
07:18 AM 46.2°F7.9°C 45.4°F7.4°C 97% 0.3 mph ESE0.5 kmh ESE 1.6 mph2.6 kmh 29.78 in1008.5 mb 0.07 in1.8 mm 0.60 in/hr15.2 mm/hr 0.07 in1.8 mm
07:17 AM 46.2°F7.9°C 45.4°F7.4°C 97% 0.3 mph ESE0.5 kmh ESE 1.6 mph2.6 kmh 29.78 in1008.5 mb 0.06 in1.5 mm 0.00 in/hr0.0 mm/hr 0.06 in1.5 mm
07:16 AM 46.4°F8.0°C 45.6°F7.6°C 97% 0.1 mph SW0.2 kmh SW 0.8 mph1.3 kmh 29.78 in1008.5 mb 0.06 in1.5 mm 0.00 in/hr0.0 mm/hr 0.06 in1.5 mm
07:15 AM 46.2°F7.9°C 45.4°F7.4°C 97% Calm Calm 0.8 mph1.3 kmh 29.78 in1008.5 mb 0.06 in1.5 mm 0.00 in/hr0.0 mm/hr 0.06 in1.5 mm
07:14 AM 46.2°F7.9°C 45.4°F7.4°C 97% Calm Calm -- 29.78 in1008.5 mb 0.06 in1.5 mm 0.60 in/hr15.2 mm/hr 0.06 in1.5 mm
07:13 AM 46.2°F7.9°C 45.4°F7.4°C 97% Calm Calm -- 29.78 in1008.5 mb 0.05 in1.3 mm 0.00 in/hr0.0 mm/hr 0.05 in1.3 mm
07:12 AM 46.2°F7.9°C 45.4°F7.4°C 97% Calm Calm -- 29.78 in1008.5 mb 0.05 in1.3 mm 0.00 in/hr0.0 mm/hr 0.05 in1.3 mm
07:11 AM 46.2°F7.9°C 45.4°F7.4°C 97% Calm Calm -- 29.78 in1008.5 mb 0.05 in1.3 mm 0.00 in/hr0.0 mm/hr 0.05 in1.3 mm
07:10 AM 46.4°F8.0°C 45.6°F7.6°C 97% Calm Calm -- 29.78 in1008.5 mb 0.05 in1.3 mm 0.60 in/hr15.2 mm/hr 0.05 in1.3 mm
07:09 AM 46.4°F8.0°C 45.6°F7.6°C 97% Calm Calm -- 29.78 in1008.5 mb 0.04 in1.0 mm 0.00 in/hr0.0 mm/hr 0.04 in1.0 mm
07:08 AM 46.4°F8.0°C 45.3°F7.4°C 96% Calm Calm -- 29.79 in1008.8 mb 0.04 in1.0 mm 0.00 in/hr0.0 mm/hr 0.04 in1.0 mm
07:07 AM 46.4°F8.0°C 45.3°F7.4°C 96% 0.1 mph N0.2 kmh N 1.6 mph2.6 kmh 29.78 in1008.5 mb 0.04 in1.0 mm 0.00 in/hr0.0 mm/hr 0.04 in1.0 mm
07:06 AM 46.2°F7.9°C 45.4°F7.4°C 97% 0.3 mph N0.5 kmh N 1.6 mph2.6 kmh 29.78 in1008.5 mb 0.04 in1.0 mm 0.00 in/hr0.0 mm/hr 0.04 in1.0 mm
07:05 AM 46.2°F7.9°C 45.4°F7.4°C 97% 0.5 mph S0.8 kmh S 2.4 mph3.9 kmh 29.78 in1008.5 mb 0.04 in1.0 mm 0.00 in/hr0.0 mm/hr 0.04 in1.0 mm
07:04 AM 46.2°F7.9°C 45.4°F7.4°C 97% 0.6 mph SE1.0 kmh SE 2.4 mph3.9 kmh 29.78 in1008.5 mb 0.04 in1.0 mm 0.00 in/hr0.0 mm/hr 0.04 in1.0 mm
07:03 AM 46.2°F7.9°C 45.4°F7.4°C 97% 0.7 mph SE1.1 kmh SE 2.4 mph3.9 kmh 29.78 in1008.5 mb 0.04 in1.0 mm 0.00 in/hr0.0 mm/hr 0.04 in1.0 mm
07:02 AM 46.4°F8.0°C 45.3°F7.4°C 96% 0.8 mph SW1.3 kmh SW 2.4 mph3.9 kmh 29.78 in1008.5 mb 0.04 in1.0 mm 0.00 in/hr0.0 mm/hr 0.04 in1.0 mm
07:01 AM 46.4°F8.0°C 45.3°F7.4°C 96% 0.8 mph WSW1.3 kmh WSW 2.4 mph3.9 kmh 29.78 in1008.5 mb 0.04 in1.0 mm 0.00 in/hr0.0 mm/hr 0.04 in1.0 mm
07:00 AM 46.4°F8.0°C 45.3°F7.4°C 96% 0.9 mph WSW1.4 kmh WSW 2.4 mph3.9 kmh 29.78 in1008.5 mb 0.04 in1.0 mm 0.00 in/hr0.0 mm/hr 0.04 in1.0 mm
06:59 AM 46.4°F8.0°C 45.0°F7.2°C 95% 0.9 mph WSW1.4 kmh WSW 2.4 mph3.9 kmh 29.77 in1008.1 mb 0.04 in1.0 mm 0.00 in/hr0.0 mm/hr 0.04 in1.0 mm
06:58 AM 46.4°F8.0°C 45.0°F7.2°C 95% 0.9 mph WSW1.4 kmh WSW 2.4 mph3.9 kmh 29.78 in1008.5 mb 0.04 in1.0 mm 0.00 in/hr0.0 mm/hr 0.04 in1.0 mm
06:57 AM 46.6°F8.1°C 45.2°F7.3°C 95% 0.8 mph SW1.3 kmh SW 2.4 mph3.9 kmh 29.78 in1008.5 mb 0.04 in1.0 mm 1.20 in/hr30.5 mm/hr 0.04 in1.0 mm
06:56 AM 46.4°F8.0°C 45.0°F7.2°C 95% 0.6 mph SW1.0 kmh SW 2.4 mph3.9 kmh 29.78 in1008.5 mb 0.02 in0.5 mm 0.00 in/hr0.0 mm/hr 0.02 in0.5 mm
06:55 AM 46.4°F8.0°C 45.0°F7.2°C 95% 0.4 mph WSW0.6 kmh WSW 2.4 mph3.9 kmh 29.77 in1008.1 mb 0.02 in0.5 mm 0.00 in/hr0.0 mm/hr 0.02 in0.5 mm
06:54 AM 46.6°F8.1°C 45.2°F7.3°C 95% 0.4 mph NW0.6 kmh NW 2.4 mph3.9 kmh 29.77 in1008.1 mb 0.02 in0.5 mm 0.00 in/hr0.0 mm/hr 0.02 in0.5 mm
06:53 AM 46.6°F8.1°C 44.9°F7.2°C 94% 0.7 mph WNW1.1 kmh WNW 3.2 mph5.1 kmh 29.77 in1008.1 mb 0.02 in0.5 mm 0.00 in/hr0.0 mm/hr 0.02 in0.5 mm
06:52 AM 46.6°F8.1°C 44.9°F7.2°C 94% 0.6 mph WNW1.0 kmh WNW 3.2 mph5.1 kmh 29.78 in1008.5 mb 0.02 in0.5 mm 0.60 in/hr15.2 mm/hr 0.02 in0.5 mm
06:51 AM 46.6°F8.1°C 44.9°F7.2°C 94% 0.5 mph NW0.8 kmh NW 3.2 mph5.1 kmh 29.78 in1008.5 mb 0.01 in0.3 mm 0.00 in/hr0.0 mm/hr 0.01 in0.3 mm
06:50 AM 46.6°F8.1°C 44.9°F7.2°C 94% 0.5 mph NW0.8 kmh NW 3.2 mph5.1 kmh 29.77 in1008.1 mb 0.01 in0.3 mm 0.00 in/hr0.0 mm/hr 0.01 in0.3 mm
06:49 AM 46.8°F8.2°C 45.1°F7.3°C 94% 0.5 mph NW0.8 kmh NW 3.2 mph5.1 kmh 29.77 in1008.1 mb 0.01 in0.3 mm 0.00 in/hr0.0 mm/hr 0.01 in0.3 mm
06:48 AM 46.8°F8.2°C 45.1°F7.3°C 94% 0.5 mph NW0.8 kmh NW 3.2 mph5.1 kmh 29.77 in1008.1 mb 0.01 in0.3 mm 0.00 in/hr0.0 mm/hr 0.01 in0.3 mm
06:47 AM 46.8°F8.2°C 45.1°F7.3°C 94% 0.5 mph NW0.8 kmh NW 3.2 mph5.1 kmh 29.77 in1008.1 mb 0.01 in0.3 mm 0.00 in/hr0.0 mm/hr 0.01 in0.3 mm
06:46 AM 46.8°F8.2°C 44.8°F7.1°C 93% 0.6 mph NW1.0 kmh NW 3.2 mph5.1 kmh 29.77 in1008.1 mb 0.01 in0.3 mm 0.00 in/hr0.0 mm/hr 0.01 in0.3 mm
06:45 AM 46.8°F8.2°C 44.8°F7.1°C 93% 0.8 mph W1.3 kmh W 3.2 mph5.1 kmh 29.77 in1008.1 mb 0.01 in0.3 mm 0.00 in/hr0.0 mm/hr 0.01 in0.3 mm
06:44 AM 46.8°F8.2°C 44.8°F7.1°C 93% 0.8 mph SW1.3 kmh SW 3.2 mph5.1 kmh 29.77 in1008.1 mb 0.01 in0.3 mm 0.00 in/hr0.0 mm/hr 0.01 in0.3 mm
06:43 AM 46.9°F8.3°C 45.0°F7.2°C 93% 0.5 mph SSW0.8 kmh SSW 3.2 mph5.1 kmh 29.77 in1008.1 mb 0.01 in0.3 mm 0.00 in/hr0.0 mm/hr 0.01 in0.3 mm
06:42 AM 46.9°F8.3°C 45.0°F7.2°C 93% 0.4 mph S0.6 kmh S 3.2 mph5.1 kmh 29.77 in1008.1 mb 0.01 in0.3 mm 0.00 in/hr0.0 mm/hr 0.01 in0.3 mm
06:41 AM 46.9°F8.3°C 45.0°F7.2°C 93% 0.5 mph S0.8 kmh S 3.2 mph5.1 kmh 29.77 in1008.1 mb 0.01 in0.3 mm 0.00 in/hr0.0 mm/hr 0.01 in0.3 mm
06:40 AM 46.9°F8.3°C 45.0°F7.2°C 93% 0.6 mph SE1.0 kmh SE 3.2 mph5.1 kmh 29.77 in1008.1 mb 0.01 in0.3 mm 0.00 in/hr0.0 mm/hr 0.01 in0.3 mm
06:39 AM 47.1°F8.4°C 45.2°F7.3°C 93% 0.6 mph SE1.0 kmh SE 3.2 mph5.1 kmh 29.77 in1008.1 mb 0.01 in0.3 mm 0.00 in/hr0.0 mm/hr 0.01 in0.3 mm
06:38 AM 47.1°F8.4°C 44.9°F7.2°C 92% 0.6 mph SE1.0 kmh SE 3.2 mph5.1 kmh 29.77 in1008.1 mb 0.01 in0.3 mm 0.00 in/hr0.0 mm/hr 0.01 in0.3 mm
06:37 AM 47.1°F8.4°C 44.9°F7.2°C 92% 0.6 mph SE1.0 kmh SE 3.2 mph5.1 kmh 29.77 in1008.1 mb 0.01 in0.3 mm 0.00 in/hr0.0 mm/hr 0.01 in0.3 mm
06:36 AM 46.9°F8.3°C 44.7°F7.1°C 92% 0.7 mph S1.1 kmh S 3.2 mph5.1 kmh 29.77 in1008.1 mb 0.01 in0.3 mm 0.60 in/hr15.2 mm/hr 0.01 in0.3 mm
06:35 AM 46.9°F8.3°C 44.7°F7.1°C 92% 0.5 mph SE0.8 kmh SE 3.2 mph5.1 kmh 29.77 in1008.1 mb 0.00 in0.0 mm 0.00 in/hr0.0 mm/hr 0.00 in0.0 mm
06:34 AM 47.1°F8.4°C 44.9°F7.2°C 92% 0.5 mph E0.8 kmh E 1.6 mph2.6 kmh 29.77 in1008.1 mb 0.00 in0.0 mm 0.00 in/hr0.0 mm/hr 0.00 in0.0 mm
06:33 AM 47.1°F8.4°C 44.9°F7.2°C 92% 0.7 mph E1.1 kmh E 2.4 mph3.9 kmh 29.77 in1008.1 mb 0.00 in0.0 mm 0.00 in/hr0.0 mm/hr 0.00 in0.0 mm
06:32 AM 47.1°F8.4°C 44.9°F7.2°C 92% 1.1 mph ENE1.8 kmh ENE 4.8 mph7.7 kmh 29.77 in1008.1 mb 0.00 in0.0 mm 0.00 in/hr0.0 mm/hr 0.00 in0.0 mm
06:31 AM 47.1°F8.4°C 44.9°F7.2°C 92% 1.6 mph NW2.6 kmh NW 8.1 mph13.0 kmh 29.77 in1008.1 mb 0.00 in0.0 mm 0.00 in/hr0.0 mm/hr 0.00 in0.0 mm
06:30 AM 47.1°F8.4°C 44.9°F7.2°C 92% 1.6 mph W2.6 kmh W 8.1 mph13.0 kmh 29.78 in1008.5 mb 0.00 in0.0 mm 0.00 in/hr0.0 mm/hr 0.00 in0.0 mm
06:29 AM 47.1°F8.4°C 44.9°F7.2°C 92% 1.8 mph SW2.9 kmh SW 8.1 mph13.0 kmh 29.77 in1008.1 mb 0.00 in0.0 mm 0.00 in/hr0.0 mm/hr 0.00 in0.0 mm
06:28 AM 47.1°F8.4°C 44.9°F7.2°C 92% 1.9 mph SW3.1 kmh SW 8.1 mph13.0 kmh 29.77 in1008.1 mb 0.00 in0.0 mm 0.00 in/hr0.0 mm/hr 0.00 in0.0 mm
06:27 AM 47.1°F8.4°C 44.9°F7.2°C 92% 2.1 mph NW3.4 kmh NW 8.1 mph13.0 kmh 29.77 in1008.1 mb 0.00 in0.0 mm 0.00 in/hr0.0 mm/hr 0.00 in0.0 mm
06:26 AM 47.3°F8.5°C 45.1°F7.3°C 92% 2.3 mph N3.7 kmh N 8.1 mph13.0 kmh 29.77 in1008.1 mb 0.00 in0.0 mm 0.00 in/hr0.0 mm/hr 0.00 in0.0 mm
06:25 AM 47.1°F8.4°C 44.9°F7.2°C 92% 2.5 mph SW4.0 kmh SW 8.1 mph13.0 kmh 29.77 in1008.1 mb 0.00 in0.0 mm 0.00 in/hr0.0 mm/hr 0.00 in0.0 mm
06:24 AM 47.1°F8.4°C 44.9°F7.2°C 92% 2.7 mph SSW4.3 kmh SSW 8.1 mph13.0 kmh 29.77 in1008.1 mb 0.00 in0.0 mm 0.00 in/hr0.0 mm/hr 0.00 in0.0 mm
06:23 AM 47.1°F8.4°C 44.9°F7.2°C 92% 2.6 mph SW4.2 kmh SW 8.1 mph13.0 kmh 29.77 in1008.1 mb 0.00 in0.0 mm 0.00 in/hr0.0 mm/hr 0.00 in0.0 mm
06:22 AM 47.1°F8.4°C 44.9°F7.2°C 92% 2.3 mph SSW3.7 kmh SSW 8.1 mph13.0 kmh 29.77 in1008.1 mb 0.00 in0.0 mm 0.00 in/hr0.0 mm/hr 0.00 in0.0 mm
06:21 AM 47.3°F8.5°C 45.1°F7.3°C 92% 1.9 mph SE3.1 kmh SE 3.2 mph5.1 kmh 29.77 in1008.1 mb 0.00 in0.0 mm 0.00 in/hr0.0 mm/hr 0.00 in0.0 mm
06:20 AM 47.3°F8.5°C 45.1°F7.3°C 92% 2.0 mph S3.2 kmh S 3.2 mph5.1 kmh 29.77 in1008.1 mb 0.00 in0.0 mm 0.00 in/hr0.0 mm/hr 0.00 in0.0 mm
06:19 AM 47.3°F8.5°C 45.1°F7.3°C 92% 2.0 mph SE3.2 kmh SE 3.2 mph5.1 kmh 29.77 in1008.1 mb 0.00 in0.0 mm 0.00 in/hr0.0 mm/hr 0.00 in0.0 mm
06:18 AM 47.3°F8.5°C 45.1°F7.3°C 92% 2.0 mph ESE3.2 kmh ESE 3.2 mph5.1 kmh 29.77 in1008.1 mb 0.00 in0.0 mm 0.00 in/hr0.0 mm/hr 0.00 in0.0 mm
06:17 AM 47.3°F8.5°C 45.1°F7.3°C 92% 2.0 mph ESE3.2 kmh ESE 3.2 mph5.1 kmh 29.77 in1008.1 mb 0.00 in0.0 mm 0.00 in/hr0.0 mm/hr 0.00 in0.0 mm
06:16 AM 47.3°F8.5°C 45.1°F7.3°C 92% 1.8 mph SE2.9 kmh SE 3.2 mph5.1 kmh 29.77 in1008.1 mb 0.00 in0.0 mm 0.00 in/hr0.0 mm/hr 0.00 in0.0 mm
06:15 AM 47.3°F8.5°C 44.8°F7.1°C 91% 1.5 mph NE2.4 kmh NE 3.2 mph5.1 kmh 29.77 in1008.1 mb 0.00 in0.0 mm 0.00 in/hr0.0 mm/hr 0.00 in0.0 mm
06:14 AM 47.5°F8.6°C 45.0°F7.2°C 91% 1.2 mph NNE1.9 kmh NNE 3.2 mph5.1 kmh 29.77 in1008.1 mb 0.00 in0.0 mm 0.00 in/hr0.0 mm/hr 0.00 in0.0 mm
06:13 AM 47.3°F8.5°C 44.8°F7.1°C 91% 1.1 mph NNE1.8 kmh NNE 3.2 mph5.1 kmh 29.77 in1008.1 mb 0.00 in0.0 mm 0.00 in/hr0.0 mm/hr 0.00 in0.0 mm
06:12 AM 47.1°F8.4°C 44.9°F7.2°C 92% 1.0 mph N1.6 kmh N 3.2 mph5.1 kmh 29.77 in1008.1 mb 0.00 in0.0 mm 0.00 in/hr0.0 mm/hr 0.00 in0.0 mm
06:11 AM 47.3°F8.5°C 45.1°F7.3°C 92% 0.7 mph N1.1 kmh N 3.2 mph5.1 kmh 29.77 in1008.1 mb 0.00 in0.0 mm 0.00 in/hr0.0 mm/hr 0.00 in0.0 mm
06:10 AM 47.3°F8.5°C 44.8°F7.1°C 91% 0.5 mph NE0.8 kmh NE 2.4 mph3.9 kmh 29.77 in1008.1 mb 0.00 in0.0 mm 0.00 in/hr0.0 mm/hr 0.00 in0.0 mm
06:09 AM 47.5°F8.6°C 45.0°F7.2°C 91% 0.4 mph NE0.6 kmh NE 2.4 mph3.9 kmh 29.76 in1007.8 mb 0.00 in0.0 mm 0.00 in/hr0.0 mm/hr 0.00 in0.0 mm
06:08 AM 47.5°F8.6°C 45.0°F7.2°C 91% 0.3 mph N0.5 kmh N 2.4 mph3.9 kmh 29.77 in1008.1 mb 0.00 in0.0 mm 0.00 in/hr0.0 mm/hr 0.00 in0.0 mm
06:07 AM 47.3°F8.5°C 44.8°F7.1°C 91% 0.5 mph N0.8 kmh N 4.0 mph6.4 kmh 29.77 in1008.1 mb 0.00 in0.0 mm 0.00 in/hr0.0 mm/hr 0.00 in0.0 mm
06:06 AM 47.3°F8.5°C 45.1°F7.3°C 92% 0.7 mph N1.1 kmh N 4.0 mph6.4 kmh 29.77 in1008.1 mb 0.00 in0.0 mm 0.00 in/hr0.0 mm/hr 0.00 in0.0 mm
06:05 AM 47.3°F8.5°C 45.1°F7.3°C 92% 0.9 mph N1.4 kmh N 4.0 mph6.4 kmh 29.77 in1008.1 mb 0.00 in0.0 mm 0.00 in/hr0.0 mm/hr 0.00 in0.0 mm
06:04 AM 47.3°F8.5°C 45.1°F7.3°C 92% 0.9 mph N1.4 kmh N 4.0 mph6.4 kmh 29.76 in1007.8 mb 0.00 in0.0 mm 0.00 in/hr0.0 mm/hr 0.00 in0.0 mm
06:03 AM 47.3°F8.5°C 45.1°F7.3°C 92% 0.9 mph N1.4 kmh N 4.0 mph6.4 kmh 29.76 in1007.8 mb 0.00 in0.0 mm 0.00 in/hr0.0 mm/hr 0.00 in0.0 mm
06:02 AM 47.3°F8.5°C 45.1°F7.3°C 92% 0.9 mph N1.4 kmh N 4.0 mph6.4 kmh 29.76 in1007.8 mb 0.00 in0.0 mm 0.00 in/hr0.0 mm/hr 0.00 in0.0 mm
06:01 AM 47.3°F8.5°C 45.1°F7.3°C 92% 0.9 mph N1.4 kmh N 4.0 mph6.4 kmh 29.77 in1008.1 mb 0.00 in0.0 mm 0.00 in/hr0.0 mm/hr 0.00 in0.0 mm
06:00 AM 47.3°F8.5°C 45.1°F7.3°C 92% 1.1 mph NNW1.8 kmh NNW 4.0 mph6.4 kmh 29.76 in1007.8 mb 0.00 in0.0 mm 0.00 in/hr0.0 mm/hr 0.00 in0.0 mm
05:59 AM 47.3°F8.5°C 45.1°F7.3°C 92% 1.2 mph NW1.9 kmh NW 4.0 mph6.4 kmh 29.76 in1007.8 mb 0.00 in0.0 mm 0.00 in/hr0.0 mm/hr 0.00 in0.0 mm
05:58 AM 47.3°F8.5°C 45.1°F7.3°C 92% 1.2 mph NW1.9 kmh NW 4.0 mph6.4 kmh 29.76 in1007.8 mb 0.00 in0.0 mm 0.00 in/hr0.0 mm/hr 0.00 in0.0 mm
05:57 AM 47.1°F8.4°C 44.9°F7.2°C 92% 1.1 mph N1.8 kmh N 3.2 mph5.1 kmh 29.76 in1007.8 mb 0.00 in0.0 mm 0.00 in/hr0.0 mm/hr 0.00 in0.0 mm
05:56 AM 47.1°F8.4°C 44.9°F7.2°C 92% 1.0 mph NE1.6 kmh NE 2.4 mph3.9 kmh 29.76 in1007.8 mb 0.00 in0.0 mm 0.00 in/hr0.0 mm/hr 0.00 in0.0 mm
05:55 AM 47.1°F8.4°C 44.9°F7.2°C 92% 0.8 mph E1.3 kmh E 2.4 mph3.9 kmh 29.76 in1007.8 mb 0.00 in0.0 mm 0.00 in/hr0.0 mm/hr 0.00 in0.0 mm
05:54 AM 47.1°F8.4°C 44.9°F7.2°C 92% 1.0 mph ESE1.6 kmh ESE 3.2 mph5.1 kmh 29.76 in1007.8 mb 0.00 in0.0 mm 0.00 in/hr0.0 mm/hr 0.00 in0.0 mm
05:53 AM 47.1°F8.4°C 44.9°F7.2°C 92% 1.1 mph ESE1.8 kmh ESE 3.2 mph5.1 kmh 29.76 in1007.8 mb 0.00 in0.0 mm 0.00 in/hr0.0 mm/hr 0.00 in0.0 mm
05:52 AM 47.3°F8.5°C 45.1°F7.3°C 92% 1.3 mph SE2.1 kmh SE 3.2 mph5.1 kmh 29.76 in1007.8 mb 0.00 in0.0 mm 0.00 in/hr0.0 mm/hr 0.00 in0.0 mm
05:51 AM 47.3°F8.5°C 45.1°F7.3°C 92% 1.5 mph SE2.4 kmh SE 3.2 mph5.1 kmh 29.76 in1007.8 mb 0.00 in0.0 mm 0.00 in/hr0.0 mm/hr 0.00 in0.0 mm
05:50 AM 47.3°F8.5°C 45.1°F7.3°C 92% 1.6 mph SE2.6 kmh SE 3.2 mph5.1 kmh 29.76 in1007.8 mb 0.00 in0.0 mm 0.00 in/hr0.0 mm/hr 0.00 in0.0 mm
05:49 AM 47.3°F8.5°C 45.1°F7.3°C 92% 1.6 mph SE2.6 kmh SE 3.2 mph5.1 kmh 29.76 in1007.8 mb 0.00 in0.0 mm 0.00 in/hr0.0 mm/hr 0.00 in0.0 mm
05:48 AM 47.3°F8.5°C 45.1°F7.3°C 92% 1.6 mph SE2.6 kmh SE 3.2 mph5.1 kmh 29.76 in1007.8 mb 0.00 in0.0 mm 0.00 in/hr0.0 mm/hr 0.00 in0.0 mm
05:47 AM 47.3°F8.5°C 45.1°F7.3°C 92% 1.7 mph SSE2.7 kmh SSE 3.2 mph5.1 kmh 29.76 in1007.8 mb 0.00 in0.0 mm 0.00 in/hr0.0 mm/hr 0.00 in0.0 mm
05:46 AM 47.3°F8.5°C 45.1°F7.3°C 92% 1.8 mph SE2.9 kmh SE 3.2 mph5.1 kmh 29.76 in1007.8 mb 0.00 in0.0 mm 0.00 in/hr0.0 mm/hr 0.00 in0.0 mm
05:45 AM 47.3°F8.5°C 45.1°F7.3°C 92% 2.3 mph SSE3.7 kmh SSE 5.6 mph9.0 kmh 29.76 in1007.8 mb 0.00 in0.0 mm 0.00 in/hr0.0 mm/hr 0.00 in0.0 mm
05:44 AM 47.3°F8.5°C 44.8°F7.1°C 91% 2.3 mph S3.7 kmh S 5.6 mph9.0 kmh 29.75 in1007.5 mb 0.00 in0.0 mm 0.00 in/hr0.0 mm/hr 0.00 in0.0 mm
05:43 AM 47.5°F8.6°C 45.0°F7.2°C 91% 2.4 mph S3.9 kmh S 5.6 mph9.0 kmh 29.76 in1007.8 mb 0.00 in0.0 mm 0.00 in/hr0.0 mm/hr 0.00 in0.0 mm
05:42 AM 47.3°F8.5°C 44.8°F7.1°C 91% 2.4 mph SE3.9 kmh SE 5.6 mph9.0 kmh 29.76 in1007.8 mb 0.00 in0.0 mm 0.00 in/hr0.0 mm/hr 0.00 in0.0 mm
05:41 AM 47.3°F8.5°C 44.8°F7.1°C 91% 2.4 mph SE3.9 kmh SE 5.6 mph9.0 kmh 29.75 in1007.5 mb 0.00 in0.0 mm 0.00 in/hr0.0 mm/hr 0.00 in0.0 mm
05:40 AM 47.5°F8.6°C 45.0°F7.2°C 91% 2.4 mph E3.9 kmh E 5.6 mph9.0 kmh 29.75 in1007.5 mb 0.00 in0.0 mm 0.00 in/hr0.0 mm/hr 0.00 in0.0 mm
05:39 AM 47.5°F8.6°C 45.0°F7.2°C 91% 2.6 mph E4.2 kmh E 5.6 mph9.0 kmh 29.76 in1007.8 mb 0.00 in0.0 mm 0.00 in/hr0.0 mm/hr 0.00 in0.0 mm
05:38 AM 47.5°F8.6°C 45.0°F7.2°C 91% 2.7 mph NE4.3 kmh NE 5.6 mph9.0 kmh 29.75 in1007.5 mb 0.00 in0.0 mm 0.00 in/hr0.0 mm/hr 0.00 in0.0 mm
05:37 AM 47.7°F8.7°C 45.2°F7.3°C 91% 2.8 mph NE4.5 kmh NE 5.6 mph9.0 kmh 29.75 in1007.5 mb 0.00 in0.0 mm 0.00 in/hr0.0 mm/hr 0.00 in0.0 mm
05:36 AM 47.5°F8.6°C 45.0°F7.2°C 91% 2.8 mph E4.5 kmh E 5.6 mph9.0 kmh 29.75 in1007.5 mb 0.00 in0.0 mm 0.00 in/hr0.0 mm/hr 0.00 in0.0 mm
05:35 AM 47.5°F8.6°C 45.0°F7.2°C 91% 2.7 mph NE4.3 kmh NE 5.6 mph9.0 kmh 29.75 in1007.5 mb 0.00 in0.0 mm 0.00 in/hr0.0 mm/hr 0.00 in0.0 mm
05:34 AM 47.7°F8.7°C 45.2°F7.3°C 91% 2.6 mph NE4.2 kmh NE 4.8 mph7.7 kmh 29.75 in1007.5 mb 0.00 in0.0 mm 0.00 in/hr0.0 mm/hr 0.00 in0.0 mm
05:33 AM 47.5°F8.6°C 45.0°F7.2°C 91% 2.6 mph NNE4.2 kmh NNE 4.8 mph7.7 kmh 29.75 in1007.5 mb 0.00 in0.0 mm 0.00 in/hr0.0 mm/hr 0.00 in0.0 mm
05:32 AM 47.5°F8.6°C 45.0°F7.2°C 91% 2.7 mph N4.3 kmh N 4.8 mph7.7 kmh 29.75 in1007.5 mb 0.00 in0.0 mm 0.00 in/hr0.0 mm/hr 0.00 in0.0 mm
05:31 AM 47.5°F8.6°C 45.0°F7.2°C 91% 2.7 mph N4.3 kmh N 4.8 mph7.7 kmh 29.75 in1007.5 mb 0.00 in0.0 mm 0.00 in/hr0.0 mm/hr 0.00 in0.0 mm
05:30 AM 47.7°F8.7°C 45.2°F7.3°C 91% 2.5 mph N4.0 kmh N 4.8 mph7.7 kmh 29.75 in1007.5 mb 0.00 in0.0 mm 0.00 in/hr0.0 mm/hr 0.00 in0.0 mm
05:29 AM 47.5°F8.6°C 45.0°F7.2°C 91% 2.3 mph N3.7 kmh N 4.8 mph7.7 kmh 29.75 in1007.5 mb 0.00 in0.0 mm 0.00 in/hr0.0 mm/hr 0.00 in0.0 mm
05:28 AM 47.3°F8.5°C 44.8°F7.1°C 91% 2.1 mph N3.4 kmh N 4.8 mph7.7 kmh 29.75 in1007.5 mb 0.00 in0.0 mm 0.00 in/hr0.0 mm/hr 0.00 in0.0 mm
05:27 AM 47.5°F8.6°C 45.0°F7.2°C 91% 1.9 mph NNE3.1 kmh NNE 4.8 mph7.7 kmh 29.75 in1007.5 mb 0.00 in0.0 mm 0.00 in/hr0.0 mm/hr 0.00 in0.0 mm
05:26 AM 47.3°F8.5°C 44.8°F7.1°C 91% 1.7 mph NNE2.7 kmh NNE 3.2 mph5.1 kmh 29.75 in1007.5 mb 0.00 in0.0 mm 0.00 in/hr0.0 mm/hr 0.00 in0.0 mm
05:25 AM 47.3°F8.5°C 44.8°F7.1°C 91% 1.6 mph NE2.6 kmh NE 2.4 mph3.9 kmh 29.75 in1007.5 mb 0.00 in0.0 mm 0.00 in/hr0.0 mm/hr 0.00 in0.0 mm
05:24 AM 47.5°F8.6°C 44.7°F7.1°C 90% 1.7 mph ENE2.7 kmh ENE 3.2 mph5.1 kmh 29.75 in1007.5 mb 0.00 in0.0 mm 0.00 in/hr0.0 mm/hr 0.00 in0.0 mm
05:23 AM 47.7°F8.7°C 44.9°F7.2°C 90% 1.5 mph ENE2.4 kmh ENE 3.2 mph5.1 kmh 29.76 in1007.8 mb 0.00 in0.0 mm 0.00 in/hr0.0 mm/hr 0.00 in0.0 mm
05:22 AM 47.7°F8.7°C 44.9°F7.2°C 90% 1.5 mph E2.4 kmh E 3.2 mph5.1 kmh 29.75 in1007.5 mb 0.00 in0.0 mm 0.00 in/hr0.0 mm/hr 0.00 in0.0 mm
05:21 AM 47.7°F8.7°C 44.9°F7.2°C 90% 1.5 mph E2.4 kmh E 3.2 mph5.1 kmh 29.75 in1007.5 mb 0.00 in0.0 mm 0.00 in/hr0.0 mm/hr 0.00 in0.0 mm
05:20 AM 47.7°F8.7°C 44.9°F7.2°C 90% 1.5 mph E2.4 kmh E 3.2 mph5.1 kmh 29.75 in1007.5 mb 0.00 in0.0 mm 0.00 in/hr0.0 mm/hr 0.00 in0.0 mm
05:19 AM 47.7°F8.7°C 44.9°F7.2°C 90% 1.6 mph NE2.6 kmh NE 3.2 mph5.1 kmh 29.75 in1007.5 mb 0.00 in0.0 mm 0.00 in/hr0.0 mm/hr 0.00 in0.0 mm
05:18 AM 47.7°F8.7°C 44.9°F7.2°C 90% 1.7 mph NE2.7 kmh NE 3.2 mph5.1 kmh 29.76 in1007.8 mb 0.00 in0.0 mm 0.00 in/hr0.0 mm/hr 0.00 in0.0 mm
05:17 AM 47.8°F8.8°C 45.1°F7.3°C 90% 1.8 mph NNE2.9 kmh NNE 3.2 mph5.1 kmh 29.75 in1007.5 mb 0.00 in0.0 mm 0.00 in/hr0.0 mm/hr 0.00 in0.0 mm
05:16 AM 47.8°F8.8°C 44.8°F7.1°C 89% 1.9 mph N3.1 kmh N 3.2 mph5.1 kmh 29.75 in1007.5 mb 0.00 in0.0 mm 0.00 in/hr0.0 mm/hr 0.00 in0.0 mm
05:15 AM 47.8°F8.8°C 45.1°F7.3°C 90% 2.0 mph NE3.2 kmh NE 3.2 mph5.1 kmh 29.75 in1007.5 mb 0.00 in0.0 mm 0.00 in/hr0.0 mm/hr 0.00 in0.0 mm
05:14 AM 47.8°F8.8°C 44.8°F7.1°C 89% 1.8 mph NE2.9 kmh NE 3.2 mph5.1 kmh 29.75 in1007.5 mb 0.00 in0.0 mm 0.00 in/hr0.0 mm/hr 0.00 in0.0 mm
05:13 AM 47.8°F8.8°C 44.8°F7.1°C 89% 2.0 mph NE3.2 kmh NE 4.0 mph6.4 kmh 29.76 in1007.8 mb 0.00 in0.0 mm 0.00 in/hr0.0 mm/hr 0.00 in0.0 mm
05:12 AM 47.8°F8.8°C 44.8°F7.1°C 89% 2.2 mph E3.5 kmh E 4.0 mph6.4 kmh 29.75 in1007.5 mb 0.00 in0.0 mm 0.00 in/hr0.0 mm/hr 0.00 in0.0 mm
05:11 AM 47.8°F8.8°C 44.8°F7.1°C 89% 2.2 mph NE3.5 kmh NE 4.0 mph6.4 kmh 29.76 in1007.8 mb 0.00 in0.0 mm 0.00 in/hr0.0 mm/hr 0.00 in0.0 mm
05:10 AM 47.8°F8.8°C 44.8°F7.1°C 89% 2.3 mph ENE3.7 kmh ENE 4.0 mph6.4 kmh 29.75 in1007.5 mb 0.00 in0.0 mm 0.00 in/hr0.0 mm/hr 0.00 in0.0 mm
05:09 AM 47.8°F8.8°C 44.8°F7.1°C 89% 2.4 mph E3.9 kmh E 4.0 mph6.4 kmh 29.75 in1007.5 mb 0.00 in0.0 mm 0.00 in/hr0.0 mm/hr 0.00 in0.0 mm
05:08 AM 47.8°F8.8°C 45.1°F7.3°C 90% 2.4 mph E3.9 kmh E 4.0 mph6.4 kmh 29.75 in1007.5 mb 0.00 in0.0 mm 0.00 in/hr0.0 mm/hr 0.00 in0.0 mm
05:07 AM 47.8°F8.8°C 45.1°F7.3°C 90% 2.2 mph ESE3.5 kmh ESE 4.0 mph6.4 kmh 29.75 in1007.5 mb 0.00 in0.0 mm 0.00 in/hr0.0 mm/hr 0.00 in0.0 mm
05:06 AM 47.8°F8.8°C 45.1°F7.3°C 90% 2.1 mph SE3.4 kmh SE 4.0 mph6.4 kmh 29.75 in1007.5 mb 0.00 in0.0 mm 0.00 in/hr0.0 mm/hr 0.00 in0.0 mm
05:05 AM 48.0°F8.9°C 45.2°F7.3°C 90% 2.2 mph SW3.5 kmh SW 4.0 mph6.4 kmh 29.75 in1007.5 mb 0.00 in0.0 mm 0.00 in/hr0.0 mm/hr 0.00 in0.0 mm
05:04 AM 47.8°F8.8°C 45.1°F7.3°C 90% 2.2 mph SW3.5 kmh SW 4.0 mph6.4 kmh 29.75 in1007.5 mb 0.00 in0.0 mm 0.00 in/hr0.0 mm/hr 0.00 in0.0 mm
05:03 AM 47.8°F8.8°C 45.1°F7.3°C 90% 2.1 mph SW3.4 kmh SW 4.0 mph6.4 kmh 29.75 in1007.5 mb 0.00 in0.0 mm 0.00 in/hr0.0 mm/hr 0.00 in0.0 mm
05:02 AM 47.8°F8.8°C 45.1°F7.3°C 90% 2.0 mph SW3.2 kmh SW 4.0 mph6.4 kmh 29.75 in1007.5 mb 0.00 in0.0 mm 0.00 in/hr0.0 mm/hr 0.00 in0.0 mm
05:01 AM 48.0°F8.9°C 45.2°F7.3°C 90% 2.0 mph SW3.2 kmh SW 4.0 mph6.4 kmh 29.75 in1007.5 mb 0.00 in0.0 mm 0.00 in/hr0.0 mm/hr 0.00 in0.0 mm
05:00 AM 48.0°F8.9°C 45.2°F7.3°C 90% 2.3 mph SSW3.7 kmh SSW 4.0 mph6.4 kmh 29.75 in1007.5 mb 0.00 in0.0 mm 0.00 in/hr0.0 mm/hr 0.00 in0.0 mm
04:59 AM 47.8°F8.8°C 45.1°F7.3°C 90% 2.1 mph S3.4 kmh S 4.0 mph6.4 kmh 29.75 in1007.5 mb 0.00 in0.0 mm 0.00 in/hr0.0 mm/hr 0.00 in0.0 mm
04:58 AM 48.0°F8.9°C 45.2°F7.3°C 90% 2.2 mph S3.5 kmh S 4.0 mph6.4 kmh 29.75 in1007.5 mb 0.00 in0.0 mm 0.00 in/hr0.0 mm/hr 0.00 in0.0 mm
04:57 AM 47.8°F8.8°C 45.1°F7.3°C 90% 2.4 mph S3.9 kmh S 4.0 mph6.4 kmh 29.75 in1007.5 mb 0.00 in0.0 mm 0.00 in/hr0.0 mm/hr 0.00 in0.0 mm
04:56 AM 48.0°F8.9°C 45.2°F7.3°C 90% 2.4 mph S3.9 kmh S 4.0 mph6.4 kmh 29.75 in1007.5 mb 0.00 in0.0 mm 0.00 in/hr0.0 mm/hr 0.00 in0.0 mm
04:55 AM 47.8°F8.8°C 45.1°F7.3°C 90% 2.4 mph SE3.9 kmh SE 4.0 mph6.4 kmh 29.75 in1007.5 mb 0.00 in0.0 mm 0.00 in/hr0.0 mm/hr 0.00 in0.0 mm
04:54 AM 48.0°F8.9°C 45.2°F7.3°C 90% 2.4 mph ESE3.9 kmh ESE 4.0 mph6.4 kmh 29.75 in1007.5 mb 0.00 in0.0 mm 0.00 in/hr0.0 mm/hr 0.00 in0.0 mm
04:53 AM 47.8°F8.8°C 45.1°F7.3°C 90% 2.7 mph NE4.3 kmh NE 5.6 mph9.0 kmh 29.75 in1007.5 mb 0.00 in0.0 mm 0.00 in/hr0.0 mm/hr 0.00 in0.0 mm
04:52 AM 47.8°F8.8°C 45.1°F7.3°C 90% 2.9 mph NE4.7 kmh NE 6.4 mph10.3 kmh 29.75 in1007.5 mb 0.00 in0.0 mm 0.00 in/hr0.0 mm/hr 0.00 in0.0 mm
04:51 AM 47.8°F8.8°C 45.1°F7.3°C 90% 3.2 mph S5.1 kmh S 6.4 mph10.3 kmh 29.75 in1007.5 mb 0.00 in0.0 mm 0.00 in/hr0.0 mm/hr 0.00 in0.0 mm
04:50 AM 48.0°F8.9°C 44.9°F7.2°C 89% 3.1 mph N5.0 kmh N 6.4 mph10.3 kmh 29.75 in1007.5 mb 0.00 in0.0 mm 0.00 in/hr0.0 mm/hr 0.00 in0.0 mm
04:49 AM 48.0°F8.9°C 44.9°F7.2°C 89% 3.2 mph NW5.1 kmh NW 6.4 mph10.3 kmh 29.75 in1007.5 mb 0.00 in0.0 mm 0.00 in/hr0.0 mm/hr 0.00 in0.0 mm
04:48 AM 48.0°F8.9°C 44.9°F7.2°C 89% 3.4 mph SW5.5 kmh SW 6.4 mph10.3 kmh 29.75 in1007.5 mb 0.00 in0.0 mm 0.00 in/hr0.0 mm/hr 0.00 in0.0 mm
04:47 AM 48.0°F8.9°C 44.9°F7.2°C 89% 3.3 mph NW5.3 kmh NW 6.4 mph10.3 kmh 29.75 in1007.5 mb 0.00 in0.0 mm 0.00 in/hr0.0 mm/hr 0.00 in0.0 mm
04:46 AM 48.2°F9.0°C 44.8°F7.1°C 88% 3.5 mph NNW5.6 kmh NNW 7.2 mph11.6 kmh 29.75 in1007.5 mb 0.00 in0.0 mm 0.00 in/hr0.0 mm/hr 0.00 in0.0 mm
04:45 AM 48.2°F9.0°C 44.8°F7.1°C 88% 3.7 mph NNW6.0 kmh NNW 7.2 mph11.6 kmh 29.75 in1007.5 mb 0.00 in0.0 mm 0.00 in/hr0.0 mm/hr 0.00 in0.0 mm
04:44 AM 48.2°F9.0°C 44.8°F7.1°C 88% 3.7 mph N6.0 kmh N 7.2 mph11.6 kmh 29.75 in1007.5 mb 0.00 in0.0 mm 0.00 in/hr0.0 mm/hr 0.00 in0.0 mm
04:43 AM 48.2°F9.0°C 44.8°F7.1°C 88% 3.6 mph SSE5.8 kmh SSE 7.2 mph11.6 kmh 29.75 in1007.5 mb 0.00 in0.0 mm 0.00 in/hr0.0 mm/hr 0.00 in0.0 mm
04:42 AM 48.2°F9.0°C 44.8°F7.1°C 88% 3.4 mph SE5.5 kmh SE 7.2 mph11.6 kmh 29.75 in1007.5 mb 0.00 in0.0 mm 0.00 in/hr0.0 mm/hr 0.00 in0.0 mm
04:41 AM 48.2°F9.0°C 44.8°F7.1°C 88% 3.1 mph E5.0 kmh E 7.2 mph11.6 kmh 29.75 in1007.5 mb 0.00 in0.0 mm 0.00 in/hr0.0 mm/hr 0.00 in0.0 mm
04:40 AM 48.2°F9.0°C 44.8°F7.1°C 88% 2.8 mph ESE4.5 kmh ESE 7.2 mph11.6 kmh 29.75 in1007.5 mb 0.00 in0.0 mm 0.00 in/hr0.0 mm/hr 0.00 in0.0 mm
04:39 AM 48.0°F8.9°C 44.9°F7.2°C 89% 2.6 mph E4.2 kmh E 7.2 mph11.6 kmh 29.75 in1007.5 mb 0.00 in0.0 mm 0.00 in/hr0.0 mm/hr 0.00 in0.0 mm
04:38 AM 48.2°F9.0°C 44.8°F7.1°C 88% 2.4 mph NE3.9 kmh NE 7.2 mph11.6 kmh 29.75 in1007.5 mb 0.00 in0.0 mm 0.00 in/hr0.0 mm/hr 0.00 in0.0 mm
04:37 AM 48.2°F9.0°C 44.8°F7.1°C 88% 2.5 mph NNE4.0 kmh NNE 7.2 mph11.6 kmh 29.74 in1007.1 mb 0.00 in0.0 mm 0.00 in/hr0.0 mm/hr 0.00 in0.0 mm
04:36 AM 48.0°F8.9°C 45.2°F7.3°C 90% 2.3 mph N3.7 kmh N 7.2 mph11.6 kmh 29.75 in1007.5 mb 0.00 in0.0 mm 0.00 in/hr0.0 mm/hr 0.00 in0.0 mm
04:35 AM 48.0°F8.9°C 45.2°F7.3°C 90% 2.1 mph NNE3.4 kmh NNE 4.0 mph6.4 kmh 29.75 in1007.5 mb 0.00 in0.0 mm 0.00 in/hr0.0 mm/hr 0.00 in0.0 mm
04:34 AM 48.0°F8.9°C 44.9°F7.2°C 89% 2.1 mph N3.4 kmh N 4.0 mph6.4 kmh 29.75 in1007.5 mb 0.00 in0.0 mm 0.00 in/hr0.0 mm/hr 0.00 in0.0 mm
04:33 AM 48.0°F8.9°C 44.9°F7.2°C 89% 2.1 mph N3.4 kmh N 4.0 mph6.4 kmh 29.75 in1007.5 mb 0.00 in0.0 mm 0.00 in/hr0.0 mm/hr 0.00 in0.0 mm
04:32 AM 48.2°F9.0°C 44.8°F7.1°C 88% 2.4 mph NNW3.9 kmh NNW 5.6 mph9.0 kmh 29.75 in1007.5 mb 0.00 in0.0 mm 0.00 in/hr0.0 mm/hr 0.00 in0.0 mm
04:31 AM 48.2°F9.0°C 44.8°F7.1°C 88% 2.4 mph NNW3.9 kmh NNW 5.6 mph9.0 kmh 29.75 in1007.5 mb 0.00 in0.0 mm 0.00 in/hr0.0 mm/hr 0.00 in0.0 mm
04:30 AM 48.2°F9.0°C 44.8°F7.1°C 88% 2.5 mph NNW4.0 kmh NNW 5.6 mph9.0 kmh 29.75 in1007.5 mb 0.00 in0.0 mm 0.00 in/hr0.0 mm/hr 0.00 in0.0 mm
04:29 AM 48.2°F9.0°C 44.8°F7.1°C 88% 2.5 mph NNW4.0 kmh NNW 5.6 mph9.0 kmh 29.75 in1007.5 mb 0.00 in0.0 mm 0.00 in/hr0.0 mm/hr 0.00 in0.0 mm
04:28 AM 48.2°F9.0°C 44.8°F7.1°C 88% 2.5 mph NW4.0 kmh NW 5.6 mph9.0 kmh 29.75 in1007.5 mb 0.00 in0.0 mm 0.00 in/hr0.0 mm/hr 0.00 in0.0 mm
04:27 AM 48.2°F9.0°C 44.8°F7.1°C 88% 2.5 mph NNW4.0 kmh NNW 5.6 mph9.0 kmh 29.75 in1007.5 mb 0.00 in0.0 mm 0.00 in/hr0.0 mm/hr 0.00 in0.0 mm
04:26 AM 48.2°F9.0°C 45.1°F7.3°C 89% 2.6 mph NNW4.2 kmh NNW 5.6 mph9.0 kmh 29.74 in1007.1 mb 0.00 in0.0 mm 0.00 in/hr0.0 mm/hr 0.00 in0.0 mm
04:25 AM 48.2°F9.0°C 45.1°F7.3°C 89% 2.8 mph WNW4.5 kmh WNW 5.6 mph9.0 kmh 29.74 in1007.1 mb 0.00 in0.0 mm 0.00 in/hr0.0 mm/hr 0.00 in0.0 mm
04:24 AM 48.0°F8.9°C 45.2°F7.3°C 90% 2.6 mph WSW4.2 kmh WSW 5.6 mph9.0 kmh 29.74 in1007.1 mb 0.00 in0.0 mm 0.00 in/hr0.0 mm/hr 0.00 in0.0 mm
04:23 AM 48.0°F8.9°C 45.2°F7.3°C 90% 2.4 mph SSW3.9 kmh SSW 5.6 mph9.0 kmh 29.74 in1007.1 mb 0.00 in0.0 mm 0.00 in/hr0.0 mm/hr 0.00 in0.0 mm
04:22 AM 48.0°F8.9°C 45.5°F7.5°C 91% 1.9 mph S3.1 kmh S 4.0 mph6.4 kmh 29.75 in1007.5 mb 0.00 in0.0 mm 0.00 in/hr0.0 mm/hr 0.00 in0.0 mm
04:21 AM 47.8°F8.8°C 45.3°F7.4°C 91% 1.8 mph S2.9 kmh S 4.0 mph6.4 kmh 29.74 in1007.1 mb 0.00 in0.0 mm 0.00 in/hr0.0 mm/hr 0.00 in0.0 mm
04:20 AM 47.7°F8.7°C 45.2°F7.3°C 91% 1.9 mph S3.1 kmh S 4.0 mph6.4 kmh 29.74 in1007.1 mb 0.00 in0.0 mm 0.00 in/hr0.0 mm/hr 0.00 in0.0 mm
04:19 AM 47.7°F8.7°C 45.2°F7.3°C 91% 2.0 mph S3.2 kmh S 4.0 mph6.4 kmh 29.74 in1007.1 mb 0.00 in0.0 mm 0.00 in/hr0.0 mm/hr 0.00 in0.0 mm
04:18 AM 47.8°F8.8°C 45.3°F7.4°C 91% 2.0 mph SSE3.2 kmh SSE 4.0 mph6.4 kmh 29.75 in1007.5 mb 0.00 in0.0 mm 0.00 in/hr0.0 mm/hr 0.00 in0.0 mm
04:17 AM 47.8°F8.8°C 45.3°F7.4°C 91% 2.3 mph ESE3.7 kmh ESE 4.8 mph7.7 kmh 29.74 in1007.1 mb 0.00 in0.0 mm 0.00 in/hr0.0 mm/hr 0.00 in0.0 mm
04:16 AM 47.7°F8.7°C 45.2°F7.3°C 91% 2.3 mph NE3.7 kmh NE 4.8 mph7.7 kmh 29.74 in1007.1 mb 0.00 in0.0 mm 0.00 in/hr0.0 mm/hr 0.00 in0.0 mm
04:15 AM 48.0°F8.9°C 45.5°F7.5°C 91% 2.2 mph NNE3.5 kmh NNE 4.8 mph7.7 kmh 29.74 in1007.1 mb 0.00 in0.0 mm 0.00 in/hr0.0 mm/hr 0.00 in0.0 mm
04:14 AM 47.8°F8.8°C 45.1°F7.3°C 90% 2.5 mph N4.0 kmh N 4.8 mph7.7 kmh 29.75 in1007.5 mb 0.00 in0.0 mm 0.00 in/hr0.0 mm/hr 0.00 in0.0 mm
04:13 AM 47.8°F8.8°C 45.1°F7.3°C 90% 2.6 mph N4.2 kmh N 4.8 mph7.7 kmh 29.74 in1007.1 mb 0.00 in0.0 mm 0.00 in/hr0.0 mm/hr 0.00 in0.0 mm
04:12 AM 48.0°F8.9°C 45.2°F7.3°C 90% 2.8 mph N4.5 kmh N 4.8 mph7.7 kmh 29.74 in1007.1 mb 0.00 in0.0 mm 0.00 in/hr0.0 mm/hr 0.00 in0.0 mm
04:11 AM 47.8°F8.8°C 45.1°F7.3°C 90% 3.1 mph N5.0 kmh N 4.8 mph7.7 kmh 29.75 in1007.5 mb 0.00 in0.0 mm 0.00 in/hr0.0 mm/hr 0.00 in0.0 mm
04:10 AM 48.0°F8.9°C 45.5°F7.5°C 91% 3.3 mph N5.3 kmh N 4.8 mph7.7 kmh 29.75 in1007.5 mb 0.00 in0.0 mm 0.00 in/hr0.0 mm/hr 0.00 in0.0 mm
04:09 AM 47.8°F8.8°C 45.3°F7.4°C 91% 3.4 mph N5.5 kmh N 4.8 mph7.7 kmh 29.74 in1007.1 mb 0.00 in0.0 mm 0.00 in/hr0.0 mm/hr 0.00 in0.0 mm
04:08 AM 47.7°F8.7°C 45.2°F7.3°C 91% 3.7 mph N6.0 kmh N 5.6 mph9.0 kmh 29.74 in1007.1 mb 0.00 in0.0 mm 0.00 in/hr0.0 mm/hr 0.00 in0.0 mm
04:07 AM 47.8°F8.8°C 45.3°F7.4°C 91% 3.6 mph N5.8 kmh N 5.6 mph9.0 kmh 29.74 in1007.1 mb 0.00 in0.0 mm 0.00 in/hr0.0 mm/hr 0.00 in0.0 mm
04:06 AM 48.0°F8.9°C 45.8°F7.7°C 92% 3.4 mph N5.5 kmh N 5.6 mph9.0 kmh 29.74 in1007.1 mb 0.00 in0.0 mm 0.00 in/hr0.0 mm/hr 0.00 in0.0 mm
04:05 AM 48.0°F8.9°C 45.8°F7.7°C 92% 3.3 mph N5.3 kmh N 5.6 mph9.0 kmh 29.74 in1007.1 mb 0.00 in0.0 mm 0.00 in/hr0.0 mm/hr 0.00 in0.0 mm
04:04 AM 48.0°F8.9°C 45.8°F7.7°C 92% 3.1 mph N5.0 kmh N 5.6 mph9.0 kmh 29.73 in1006.8 mb 0.00 in0.0 mm 0.00 in/hr0.0 mm/hr 0.00 in0.0 mm
04:03 AM 48.0°F8.9°C 45.8°F7.7°C 92% 3.2 mph N5.1 kmh N 5.6 mph9.0 kmh 29.74 in1007.1 mb 0.00 in0.0 mm 0.00 in/hr0.0 mm/hr 0.00 in0.0 mm
04:02 AM 48.0°F8.9°C 45.8°F7.7°C 92% 3.1 mph N5.0 kmh N 5.6 mph9.0 kmh 29.75 in1007.5 mb 0.00 in0.0 mm 0.00 in/hr0.0 mm/hr 0.00 in0.0 mm
04:01 AM 48.0°F8.9°C 45.8°F7.7°C 92% 3.2 mph N5.1 kmh N 5.6 mph9.0 kmh 29.74 in1007.1 mb 0.00 in0.0 mm 0.00 in/hr0.0 mm/hr 0.00 in0.0 mm
04:00 AM 48.0°F8.9°C 45.8°F7.7°C 92% 3.1 mph N5.0 kmh N 5.6 mph9.0 kmh 29.75 in1007.5 mb 0.00 in0.0 mm 0.00 in/hr0.0 mm/hr 0.00 in0.0 mm
03:59 AM 47.8°F8.8°C 45.6°F7.6°C 92% 2.8 mph N4.5 kmh N 5.6 mph9.0 kmh 29.74 in1007.1 mb 0.00 in0.0 mm 0.00 in/hr0.0 mm/hr 0.00 in0.0 mm
03:58 AM 47.5°F8.6°C 45.3°F7.4°C 92% 2.4 mph N3.9 kmh N 4.8 mph7.7 kmh 29.74 in1007.1 mb 0.00 in0.0 mm 0.00 in/hr0.0 mm/hr 0.00 in0.0 mm
03:57 AM 47.3°F8.5°C 45.4°F7.4°C 93% 2.4 mph N3.9 kmh N 4.8 mph7.7 kmh 29.75 in1007.5 mb 0.00 in0.0 mm 0.00 in/hr0.0 mm/hr 0.00 in0.0 mm
03:56 AM 47.5°F8.6°C 45.6°F7.6°C 93% 2.4 mph N3.9 kmh N 4.8 mph7.7 kmh 29.75 in1007.5 mb 0.00 in0.0 mm 0.00 in/hr0.0 mm/hr 0.00 in0.0 mm
03:55 AM 47.3°F8.5°C 45.4°F7.4°C 93% 2.3 mph NNE3.7 kmh NNE 4.8 mph7.7 kmh 29.74 in1007.1 mb 0.00 in0.0 mm 0.00 in/hr0.0 mm/hr 0.00 in0.0 mm
03:54 AM 47.5°F8.6°C 45.3°F7.4°C 92% 2.3 mph NNE3.7 kmh NNE 4.8 mph7.7 kmh 29.75 in1007.5 mb 0.00 in0.0 mm 0.00 in/hr0.0 mm/hr 0.00 in0.0 mm
03:53 AM 47.5°F8.6°C 45.3°F7.4°C 92% 2.3 mph NE3.7 kmh NE 4.8 mph7.7 kmh 29.75 in1007.5 mb 0.00 in0.0 mm 0.00 in/hr0.0 mm/hr 0.00 in0.0 mm
03:52 AM 47.5°F8.6°C 45.3°F7.4°C 92% 2.4 mph NNE3.9 kmh NNE 4.8 mph7.7 kmh 29.75 in1007.5 mb 0.00 in0.0 mm 0.00 in/hr0.0 mm/hr 0.00 in0.0 mm
03:51 AM 47.3°F8.5°C 45.4°F7.4°C 93% 2.5 mph NNE4.0 kmh NNE 5.6 mph9.0 kmh 29.75 in1007.5 mb 0.00 in0.0 mm 0.00 in/hr0.0 mm/hr 0.00 in0.0 mm
03:50 AM 47.3°F8.5°C 45.4°F7.4°C 93% 2.2 mph NNE3.5 kmh NNE 5.6 mph9.0 kmh 29.75 in1007.5 mb 0.00 in0.0 mm 0.00 in/hr0.0 mm/hr 0.00 in0.0 mm
03:49 AM 47.5°F8.6°C 45.6°F7.6°C 93% 2.0 mph NNE3.2 kmh NNE 5.6 mph9.0 kmh 29.75 in1007.5 mb 0.00 in0.0 mm 0.00 in/hr0.0 mm/hr 0.00 in0.0 mm
03:48 AM 47.3°F8.5°C 45.4°F7.4°C 93% 1.8 mph NNE2.9 kmh NNE 5.6 mph9.0 kmh 29.74 in1007.1 mb 0.00 in0.0 mm 0.00 in/hr0.0 mm/hr 0.00 in0.0 mm
03:47 AM 47.3°F8.5°C 45.4°F7.4°C 93% 1.7 mph NNE2.7 kmh NNE 5.6 mph9.0 kmh 29.75 in1007.5 mb 0.00 in0.0 mm 0.00 in/hr0.0 mm/hr 0.00 in0.0 mm
03:46 AM 47.3°F8.5°C 45.4°F7.4°C 93% 1.7 mph N2.7 kmh N 5.6 mph9.0 kmh 29.75 in1007.5 mb 0.00 in0.0 mm 0.00 in/hr0.0 mm/hr 0.00 in0.0 mm
03:45 AM 47.3°F8.5°C 45.4°F7.4°C 93% 1.8 mph NNE2.9 kmh NNE 5.6 mph9.0 kmh 29.74 in1007.1 mb 0.00 in0.0 mm 0.00 in/hr0.0 mm/hr 0.00 in0.0 mm
03:44 AM 47.3°F8.5°C 45.4°F7.4°C 93% 1.9 mph N3.1 kmh N 5.6 mph9.0 kmh 29.74 in1007.1 mb 0.00 in0.0 mm 0.00 in/hr0.0 mm/hr 0.00 in0.0 mm
03:43 AM 47.3°F8.5°C 45.4°F7.4°C 93% 1.7 mph N2.7 kmh N 5.6 mph9.0 kmh 29.74 in1007.1 mb 0.00 in0.0 mm 0.00 in/hr0.0 mm/hr 0.00 in0.0 mm
03:42 AM 47.3°F8.5°C 45.4°F7.4°C 93% 1.5 mph NNE2.4 kmh NNE 5.6 mph9.0 kmh 29.74 in1007.1 mb 0.00 in0.0 mm 0.00 in/hr0.0 mm/hr 0.00 in0.0 mm
03:41 AM 47.3°F8.5°C 45.4°F7.4°C 93% 1.4 mph W2.3 kmh W 3.2 mph5.1 kmh 29.75 in1007.5 mb 0.00 in0.0 mm 0.00 in/hr0.0 mm/hr 0.00 in0.0 mm
03:40 AM 47.1°F8.4°C 45.2°F7.3°C 93% 1.8 mph SSW2.9 kmh SSW 4.8 mph7.7 kmh 29.74 in1007.1 mb 0.00 in0.0 mm 0.00 in/hr0.0 mm/hr 0.00 in0.0 mm
03:39 AM 47.1°F8.4°C 45.2°F7.3°C 93% 2.1 mph SSW3.4 kmh SSW 4.8 mph7.7 kmh 29.75 in1007.5 mb 0.00 in0.0 mm 0.00 in/hr0.0 mm/hr 0.00 in0.0 mm
03:38 AM 47.1°F8.4°C 45.2°F7.3°C 93% 2.3 mph SE3.7 kmh SE 4.8 mph7.7 kmh 29.74 in1007.1 mb 0.00 in0.0 mm 0.00 in/hr0.0 mm/hr 0.00 in0.0 mm
03:37 AM 47.3°F8.5°C 45.4°F7.4°C 93% 2.1 mph ESE3.4 kmh ESE 4.8 mph7.7 kmh 29.74 in1007.1 mb 0.00 in0.0 mm 0.00 in/hr0.0 mm/hr 0.00 in0.0 mm
03:36 AM 47.3°F8.5°C 45.4°F7.4°C 93% 2.1 mph SE3.4 kmh SE 4.8 mph7.7 kmh 29.74 in1007.1 mb 0.00 in0.0 mm 0.00 in/hr0.0 mm/hr 0.00 in0.0 mm
03:35 AM 47.1°F8.4°C 45.2°F7.3°C 93% 2.1 mph SSE3.4 kmh SSE 4.8 mph7.7 kmh 29.75 in1007.5 mb 0.00 in0.0 mm 0.00 in/hr0.0 mm/hr 0.00 in0.0 mm
03:34 AM 47.3°F8.5°C 45.4°F7.4°C 93% 2.1 mph ESE3.4 kmh ESE 4.8 mph7.7 kmh 29.75 in1007.5 mb 0.00 in0.0 mm 0.00 in/hr0.0 mm/hr 0.00 in0.0 mm
03:33 AM 47.3°F8.5°C 45.4°F7.4°C 93% 2.1 mph SE3.4 kmh SE 4.8 mph7.7 kmh 29.75 in1007.5 mb 0.00 in0.0 mm 0.00 in/hr0.0 mm/hr 0.00 in0.0 mm
03:32 AM 47.5°F8.6°C 45.6°F7.6°C 93% 2.1 mph SE3.4 kmh SE 4.8 mph7.7 kmh 29.74 in1007.1 mb 0.00 in0.0 mm 0.00 in/hr0.0 mm/hr 0.00 in0.0 mm
03:31 AM 47.1°F8.4°C 45.2°F7.3°C 93% 2.0 mph ESE3.2 kmh ESE 4.8 mph7.7 kmh 29.75 in1007.5 mb 0.00 in<